<?xml version="1.0" encoding="UTF-8" standalone="no" ?>
<gpx xmlns="http://www.topografix.com/GPX/1/1" xmlns:xsi="http://www.w3.org/2001/XMLSchema-instance" xsi:schemaLocation="http://www.topografix.com/GPX/1/1 http://www.topografix.com/GPX/1/1/gpx.xsd" version="1.1" creator="VisuGPX - https://www.visugpx.com">
  <metadata>
    <name>Marche matinale autour de Campagnan</name>
    <desc><![CDATA[Petite Marche matinale autour de Campagnan et jusqu'à Roquemengarde]]></desc>
  </metadata>
  <trk>
    <name><![CDATA[20190325100827-CiG2d]]></name>
    <trkseg>
      <trkpt lat="43.53379" lon="3.50195">
        <ele>43.7</ele>
        <time>2019-03-25T06:55:19Z</time>
      </trkpt>
      <trkpt lat="43.53382" lon="3.50192">
        <ele>43.7</ele>
        <time>2019-03-25T06:55:29Z</time>
      </trkpt>
      <trkpt lat="43.53383" lon="3.50188">
        <ele>43.7</ele>
        <time>2019-03-25T06:55:32Z</time>
      </trkpt>
      <trkpt lat="43.53381" lon="3.50185">
        <ele>43.7</ele>
        <time>2019-03-25T06:55:41Z</time>
      </trkpt>
      <trkpt lat="43.5338" lon="3.50181">
        <ele>43.7</ele>
        <time>2019-03-25T06:55:46Z</time>
      </trkpt>
      <trkpt lat="43.53378" lon="3.50178">
        <ele>43.7</ele>
        <time>2019-03-25T06:55:48Z</time>
      </trkpt>
      <trkpt lat="43.53376" lon="3.50175">
        <ele>43.7</ele>
        <time>2019-03-25T06:55:50Z</time>
      </trkpt>
      <trkpt lat="43.53373" lon="3.50174">
        <ele>43.7</ele>
        <time>2019-03-25T06:55:53Z</time>
      </trkpt>
      <trkpt lat="43.5337" lon="3.50174">
        <ele>43.7</ele>
        <time>2019-03-25T06:55:55Z</time>
      </trkpt>
      <trkpt lat="43.53367" lon="3.50173">
        <ele>43.7</ele>
        <time>2019-03-25T06:55:57Z</time>
      </trkpt>
      <trkpt lat="43.53364" lon="3.50173">
        <ele>43.8</ele>
        <time>2019-03-25T06:55:59Z</time>
      </trkpt>
      <trkpt lat="43.5336" lon="3.50171">
        <ele>43.9</ele>
        <time>2019-03-25T06:56:02Z</time>
      </trkpt>
      <trkpt lat="43.53357" lon="3.5017">
        <ele>43.9</ele>
        <time>2019-03-25T06:56:04Z</time>
      </trkpt>
      <trkpt lat="43.53354" lon="3.50169">
        <ele>44</ele>
        <time>2019-03-25T06:56:07Z</time>
      </trkpt>
      <trkpt lat="43.5335" lon="3.50167">
        <ele>44.1</ele>
        <time>2019-03-25T06:56:10Z</time>
      </trkpt>
      <trkpt lat="43.53348" lon="3.50164">
        <ele>44.1</ele>
        <time>2019-03-25T06:56:13Z</time>
      </trkpt>
      <trkpt lat="43.5335" lon="3.50161">
        <ele>44.2</ele>
        <time>2019-03-25T06:56:16Z</time>
      </trkpt>
      <trkpt lat="43.5335" lon="3.50166">
        <ele>44.3</ele>
        <time>2019-03-25T06:56:23Z</time>
      </trkpt>
      <trkpt lat="43.53353" lon="3.50168">
        <ele>44.3</ele>
        <time>2019-03-25T06:56:28Z</time>
      </trkpt>
      <trkpt lat="43.53356" lon="3.5017">
        <ele>44.4</ele>
        <time>2019-03-25T06:56:32Z</time>
      </trkpt>
      <trkpt lat="43.53359" lon="3.50172">
        <ele>44.5</ele>
        <time>2019-03-25T06:56:34Z</time>
      </trkpt>
      <trkpt lat="43.53362" lon="3.50174">
        <ele>44.5</ele>
        <time>2019-03-25T06:56:36Z</time>
      </trkpt>
      <trkpt lat="43.53365" lon="3.50175">
        <ele>44.6</ele>
        <time>2019-03-25T06:56:39Z</time>
      </trkpt>
      <trkpt lat="43.53368" lon="3.50176">
        <ele>44.6</ele>
        <time>2019-03-25T06:56:42Z</time>
      </trkpt>
      <trkpt lat="43.5337" lon="3.50178">
        <ele>44.7</ele>
        <time>2019-03-25T06:56:46Z</time>
      </trkpt>
      <trkpt lat="43.53373" lon="3.5018">
        <ele>44.8</ele>
        <time>2019-03-25T06:56:49Z</time>
      </trkpt>
      <trkpt lat="43.53376" lon="3.5018">
        <ele>44.8</ele>
        <time>2019-03-25T06:56:53Z</time>
      </trkpt>
      <trkpt lat="43.53379" lon="3.50182">
        <ele>44.9</ele>
        <time>2019-03-25T06:56:55Z</time>
      </trkpt>
      <trkpt lat="43.53382" lon="3.50185">
        <ele>44.9</ele>
        <time>2019-03-25T06:56:57Z</time>
      </trkpt>
      <trkpt lat="43.53385" lon="3.50187">
        <ele>45</ele>
        <time>2019-03-25T06:56:59Z</time>
      </trkpt>
      <trkpt lat="43.53388" lon="3.50191">
        <ele>45.1</ele>
        <time>2019-03-25T06:57:01Z</time>
      </trkpt>
      <trkpt lat="43.53391" lon="3.50193">
        <ele>45.1</ele>
        <time>2019-03-25T06:57:03Z</time>
      </trkpt>
      <trkpt lat="43.53394" lon="3.50197">
        <ele>45.2</ele>
        <time>2019-03-25T06:57:06Z</time>
      </trkpt>
      <trkpt lat="43.53398" lon="3.50199">
        <ele>45.3</ele>
        <time>2019-03-25T06:57:08Z</time>
      </trkpt>
      <trkpt lat="43.534" lon="3.50203">
        <ele>45.3</ele>
        <time>2019-03-25T06:57:11Z</time>
      </trkpt>
      <trkpt lat="43.53401" lon="3.50207">
        <ele>45.4</ele>
        <time>2019-03-25T06:57:13Z</time>
      </trkpt>
      <trkpt lat="43.53401" lon="3.50212">
        <ele>45.5</ele>
        <time>2019-03-25T06:57:26Z</time>
      </trkpt>
      <trkpt lat="43.53401" lon="3.50217">
        <ele>45.5</ele>
        <time>2019-03-25T06:57:29Z</time>
      </trkpt>
      <trkpt lat="43.53402" lon="3.5022">
        <ele>45.6</ele>
        <time>2019-03-25T06:57:31Z</time>
      </trkpt>
      <trkpt lat="43.53404" lon="3.50224">
        <ele>45.7</ele>
        <time>2019-03-25T06:57:34Z</time>
      </trkpt>
      <trkpt lat="43.53405" lon="3.50228">
        <ele>45.8</ele>
        <time>2019-03-25T06:57:36Z</time>
      </trkpt>
      <trkpt lat="43.53406" lon="3.50232">
        <ele>45.8</ele>
        <time>2019-03-25T06:57:38Z</time>
      </trkpt>
      <trkpt lat="43.53408" lon="3.50235">
        <ele>45.9</ele>
        <time>2019-03-25T06:57:40Z</time>
      </trkpt>
      <trkpt lat="43.53409" lon="3.5024">
        <ele>46</ele>
        <time>2019-03-25T06:57:43Z</time>
      </trkpt>
      <trkpt lat="43.5341" lon="3.50243">
        <ele>46.1</ele>
        <time>2019-03-25T06:57:45Z</time>
      </trkpt>
      <trkpt lat="43.53412" lon="3.50247">
        <ele>46.2</ele>
        <time>2019-03-25T06:57:47Z</time>
      </trkpt>
      <trkpt lat="43.53414" lon="3.50251">
        <ele>46.3</ele>
        <time>2019-03-25T06:57:50Z</time>
      </trkpt>
      <trkpt lat="43.53415" lon="3.50255">
        <ele>46.4</ele>
        <time>2019-03-25T06:57:52Z</time>
      </trkpt>
      <trkpt lat="43.53417" lon="3.5026">
        <ele>46.5</ele>
        <time>2019-03-25T06:57:55Z</time>
      </trkpt>
      <trkpt lat="43.53418" lon="3.50265">
        <ele>46.6</ele>
        <time>2019-03-25T06:57:58Z</time>
      </trkpt>
      <trkpt lat="43.5342" lon="3.50268">
        <ele>46.6</ele>
        <time>2019-03-25T06:58:00Z</time>
      </trkpt>
      <trkpt lat="43.5342" lon="3.50273">
        <ele>46.7</ele>
        <time>2019-03-25T06:58:03Z</time>
      </trkpt>
      <trkpt lat="43.53422" lon="3.50276">
        <ele>46.8</ele>
        <time>2019-03-25T06:58:05Z</time>
      </trkpt>
      <trkpt lat="43.53424" lon="3.50281">
        <ele>46.9</ele>
        <time>2019-03-25T06:58:08Z</time>
      </trkpt>
      <trkpt lat="43.53425" lon="3.50285">
        <ele>46.9</ele>
        <time>2019-03-25T06:58:10Z</time>
      </trkpt>
      <trkpt lat="43.53423" lon="3.50288">
        <ele>47</ele>
        <time>2019-03-25T06:58:13Z</time>
      </trkpt>
      <trkpt lat="43.53419" lon="3.5029">
        <ele>47</ele>
        <time>2019-03-25T06:58:16Z</time>
      </trkpt>
      <trkpt lat="43.53415" lon="3.50292">
        <ele>47.1</ele>
        <time>2019-03-25T06:58:19Z</time>
      </trkpt>
      <trkpt lat="43.53413" lon="3.50295">
        <ele>47.1</ele>
        <time>2019-03-25T06:58:22Z</time>
      </trkpt>
      <trkpt lat="43.5341" lon="3.50296">
        <ele>47.1</ele>
        <time>2019-03-25T06:58:24Z</time>
      </trkpt>
      <trkpt lat="43.53408" lon="3.50298">
        <ele>47.1</ele>
        <time>2019-03-25T06:58:26Z</time>
      </trkpt>
      <trkpt lat="43.53404" lon="3.50301">
        <ele>47.1</ele>
        <time>2019-03-25T06:58:29Z</time>
      </trkpt>
      <trkpt lat="43.53402" lon="3.50303">
        <ele>47.1</ele>
        <time>2019-03-25T06:58:32Z</time>
      </trkpt>
      <trkpt lat="43.53398" lon="3.50305">
        <ele>47.1</ele>
        <time>2019-03-25T06:58:35Z</time>
      </trkpt>
      <trkpt lat="43.53395" lon="3.50305">
        <ele>47.2</ele>
        <time>2019-03-25T06:58:38Z</time>
      </trkpt>
      <trkpt lat="43.53393" lon="3.50302">
        <ele>47.2</ele>
        <time>2019-03-25T06:58:40Z</time>
      </trkpt>
      <trkpt lat="43.53391" lon="3.50299">
        <ele>47.1</ele>
        <time>2019-03-25T06:58:42Z</time>
      </trkpt>
      <trkpt lat="43.53389" lon="3.50295">
        <ele>46.9</ele>
        <time>2019-03-25T06:58:45Z</time>
      </trkpt>
      <trkpt lat="43.53387" lon="3.50292">
        <ele>46.7</ele>
        <time>2019-03-25T06:58:47Z</time>
      </trkpt>
      <trkpt lat="43.53385" lon="3.50288">
        <ele>46.4</ele>
        <time>2019-03-25T06:58:50Z</time>
      </trkpt>
      <trkpt lat="43.53383" lon="3.50284">
        <ele>46.2</ele>
        <time>2019-03-25T06:58:53Z</time>
      </trkpt>
      <trkpt lat="43.53382" lon="3.5028">
        <ele>46</ele>
        <time>2019-03-25T06:58:56Z</time>
      </trkpt>
      <trkpt lat="43.53381" lon="3.50275">
        <ele>45.8</ele>
        <time>2019-03-25T06:58:59Z</time>
      </trkpt>
      <trkpt lat="43.53379" lon="3.5027">
        <ele>45.7</ele>
        <time>2019-03-25T06:59:02Z</time>
      </trkpt>
      <trkpt lat="43.53377" lon="3.50265">
        <ele>45.5</ele>
        <time>2019-03-25T06:59:05Z</time>
      </trkpt>
      <trkpt lat="43.53375" lon="3.50261">
        <ele>45.2</ele>
        <time>2019-03-25T06:59:08Z</time>
      </trkpt>
      <trkpt lat="43.53374" lon="3.50257">
        <ele>45.1</ele>
        <time>2019-03-25T06:59:11Z</time>
      </trkpt>
      <trkpt lat="43.53373" lon="3.50252">
        <ele>44.9</ele>
        <time>2019-03-25T06:59:14Z</time>
      </trkpt>
      <trkpt lat="43.53371" lon="3.50249">
        <ele>44.8</ele>
        <time>2019-03-25T06:59:16Z</time>
      </trkpt>
      <trkpt lat="43.5337" lon="3.50244">
        <ele>44.6</ele>
        <time>2019-03-25T06:59:19Z</time>
      </trkpt>
      <trkpt lat="43.53368" lon="3.50241">
        <ele>44.4</ele>
        <time>2019-03-25T06:59:21Z</time>
      </trkpt>
      <trkpt lat="43.53367" lon="3.50237">
        <ele>44.3</ele>
        <time>2019-03-25T06:59:23Z</time>
      </trkpt>
      <trkpt lat="43.53366" lon="3.50234">
        <ele>44.2</ele>
        <time>2019-03-25T06:59:25Z</time>
      </trkpt>
      <trkpt lat="43.53365" lon="3.5023">
        <ele>44</ele>
        <time>2019-03-25T06:59:27Z</time>
      </trkpt>
      <trkpt lat="43.53363" lon="3.50226">
        <ele>43.9</ele>
        <time>2019-03-25T06:59:30Z</time>
      </trkpt>
      <trkpt lat="43.5336" lon="3.50223">
        <ele>43.7</ele>
        <time>2019-03-25T06:59:32Z</time>
      </trkpt>
      <trkpt lat="43.53359" lon="3.5022">
        <ele>43.7</ele>
        <time>2019-03-25T06:59:34Z</time>
      </trkpt>
      <trkpt lat="43.53357" lon="3.50215">
        <ele>43.5</ele>
        <time>2019-03-25T06:59:37Z</time>
      </trkpt>
      <trkpt lat="43.53355" lon="3.50211">
        <ele>43.4</ele>
        <time>2019-03-25T06:59:40Z</time>
      </trkpt>
      <trkpt lat="43.53355" lon="3.50207">
        <ele>43.3</ele>
        <time>2019-03-25T06:59:43Z</time>
      </trkpt>
      <trkpt lat="43.53354" lon="3.50202">
        <ele>43.2</ele>
        <time>2019-03-25T06:59:46Z</time>
      </trkpt>
      <trkpt lat="43.53352" lon="3.50198">
        <ele>42.9</ele>
        <time>2019-03-25T06:59:49Z</time>
      </trkpt>
      <trkpt lat="43.53351" lon="3.50194">
        <ele>42.9</ele>
        <time>2019-03-25T06:59:51Z</time>
      </trkpt>
      <trkpt lat="43.5335" lon="3.50191">
        <ele>42.8</ele>
        <time>2019-03-25T06:59:53Z</time>
      </trkpt>
      <trkpt lat="43.53349" lon="3.50186">
        <ele>42.6</ele>
        <time>2019-03-25T06:59:56Z</time>
      </trkpt>
      <trkpt lat="43.53347" lon="3.50182">
        <ele>42.5</ele>
        <time>2019-03-25T06:59:59Z</time>
      </trkpt>
      <trkpt lat="43.53344" lon="3.50178">
        <ele>42.3</ele>
        <time>2019-03-25T07:00:02Z</time>
      </trkpt>
      <trkpt lat="43.53343" lon="3.50174">
        <ele>42.2</ele>
        <time>2019-03-25T07:00:04Z</time>
      </trkpt>
      <trkpt lat="43.53342" lon="3.5017">
        <ele>42.1</ele>
        <time>2019-03-25T07:00:06Z</time>
      </trkpt>
      <trkpt lat="43.5334" lon="3.50166">
        <ele>42</ele>
        <time>2019-03-25T07:00:09Z</time>
      </trkpt>
      <trkpt lat="43.53337" lon="3.50161">
        <ele>41.9</ele>
        <time>2019-03-25T07:00:12Z</time>
      </trkpt>
      <trkpt lat="43.53335" lon="3.50159">
        <ele>41.8</ele>
        <time>2019-03-25T07:00:14Z</time>
      </trkpt>
      <trkpt lat="43.53333" lon="3.50155">
        <ele>41.8</ele>
        <time>2019-03-25T07:00:17Z</time>
      </trkpt>
      <trkpt lat="43.5333" lon="3.50155">
        <ele>41.7</ele>
        <time>2019-03-25T07:00:19Z</time>
      </trkpt>
      <trkpt lat="43.53327" lon="3.50157">
        <ele>41.7</ele>
        <time>2019-03-25T07:00:21Z</time>
      </trkpt>
      <trkpt lat="43.53325" lon="3.50158">
        <ele>41.7</ele>
        <time>2019-03-25T07:00:23Z</time>
      </trkpt>
      <trkpt lat="43.53322" lon="3.5016">
        <ele>41.7</ele>
        <time>2019-03-25T07:00:26Z</time>
      </trkpt>
      <trkpt lat="43.5332" lon="3.50163">
        <ele>41.7</ele>
        <time>2019-03-25T07:00:29Z</time>
      </trkpt>
      <trkpt lat="43.53317" lon="3.50167">
        <ele>41.7</ele>
        <time>2019-03-25T07:00:32Z</time>
      </trkpt>
      <trkpt lat="43.53315" lon="3.5017">
        <ele>41.8</ele>
        <time>2019-03-25T07:00:35Z</time>
      </trkpt>
      <trkpt lat="43.53312" lon="3.50173">
        <ele>41.9</ele>
        <time>2019-03-25T07:00:38Z</time>
      </trkpt>
      <trkpt lat="43.5331" lon="3.50178">
        <ele>41.9</ele>
        <time>2019-03-25T07:00:40Z</time>
      </trkpt>
      <trkpt lat="43.53308" lon="3.5018">
        <ele>41.9</ele>
        <time>2019-03-25T07:00:42Z</time>
      </trkpt>
      <trkpt lat="43.53305" lon="3.50184">
        <ele>42</ele>
        <time>2019-03-25T07:00:45Z</time>
      </trkpt>
      <trkpt lat="43.53303" lon="3.50187">
        <ele>42.1</ele>
        <time>2019-03-25T07:00:47Z</time>
      </trkpt>
      <trkpt lat="43.53301" lon="3.50184">
        <ele>42</ele>
        <time>2019-03-25T07:00:50Z</time>
      </trkpt>
      <trkpt lat="43.533" lon="3.5018">
        <ele>41.9</ele>
        <time>2019-03-25T07:00:52Z</time>
      </trkpt>
      <trkpt lat="43.53299" lon="3.50177">
        <ele>41.8</ele>
        <time>2019-03-25T07:00:54Z</time>
      </trkpt>
      <trkpt lat="43.53297" lon="3.50172">
        <ele>41.7</ele>
        <time>2019-03-25T07:00:57Z</time>
      </trkpt>
      <trkpt lat="43.53296" lon="3.50169">
        <ele>41.6</ele>
        <time>2019-03-25T07:00:59Z</time>
      </trkpt>
      <trkpt lat="43.53295" lon="3.50165">
        <ele>41.5</ele>
        <time>2019-03-25T07:01:01Z</time>
      </trkpt>
      <trkpt lat="43.53294" lon="3.5016">
        <ele>41.4</ele>
        <time>2019-03-25T07:01:04Z</time>
      </trkpt>
      <trkpt lat="43.53293" lon="3.50155">
        <ele>41.3</ele>
        <time>2019-03-25T07:01:07Z</time>
      </trkpt>
      <trkpt lat="43.53292" lon="3.50151">
        <ele>41.2</ele>
        <time>2019-03-25T07:01:09Z</time>
      </trkpt>
      <trkpt lat="43.53289" lon="3.50147">
        <ele>41.1</ele>
        <time>2019-03-25T07:01:12Z</time>
      </trkpt>
      <trkpt lat="43.53286" lon="3.50144">
        <ele>41</ele>
        <time>2019-03-25T07:01:15Z</time>
      </trkpt>
      <trkpt lat="43.53284" lon="3.5014">
        <ele>40.8</ele>
        <time>2019-03-25T07:01:18Z</time>
      </trkpt>
      <trkpt lat="43.53282" lon="3.50136">
        <ele>40.7</ele>
        <time>2019-03-25T07:01:21Z</time>
      </trkpt>
      <trkpt lat="43.5328" lon="3.50132">
        <ele>40.6</ele>
        <time>2019-03-25T07:01:24Z</time>
      </trkpt>
      <trkpt lat="43.53279" lon="3.50128">
        <ele>40.5</ele>
        <time>2019-03-25T07:01:27Z</time>
      </trkpt>
      <trkpt lat="43.53276" lon="3.50124">
        <ele>40.3</ele>
        <time>2019-03-25T07:01:30Z</time>
      </trkpt>
      <trkpt lat="43.53274" lon="3.50121">
        <ele>40.2</ele>
        <time>2019-03-25T07:01:32Z</time>
      </trkpt>
      <trkpt lat="43.53273" lon="3.50118">
        <ele>40.1</ele>
        <time>2019-03-25T07:01:34Z</time>
      </trkpt>
      <trkpt lat="43.5327" lon="3.50114">
        <ele>40</ele>
        <time>2019-03-25T07:01:37Z</time>
      </trkpt>
      <trkpt lat="43.53267" lon="3.50111">
        <ele>39.8</ele>
        <time>2019-03-25T07:01:40Z</time>
      </trkpt>
      <trkpt lat="43.53265" lon="3.50109">
        <ele>39.8</ele>
        <time>2019-03-25T07:01:43Z</time>
      </trkpt>
      <trkpt lat="43.5326" lon="3.50109">
        <ele>39.7</ele>
        <time>2019-03-25T07:01:46Z</time>
      </trkpt>
      <trkpt lat="43.53257" lon="3.5011">
        <ele>39.6</ele>
        <time>2019-03-25T07:01:48Z</time>
      </trkpt>
      <trkpt lat="43.53254" lon="3.50113">
        <ele>39.6</ele>
        <time>2019-03-25T07:01:51Z</time>
      </trkpt>
      <trkpt lat="43.53251" lon="3.50115">
        <ele>39.6</ele>
        <time>2019-03-25T07:01:53Z</time>
      </trkpt>
      <trkpt lat="43.53249" lon="3.50118">
        <ele>39.6</ele>
        <time>2019-03-25T07:01:55Z</time>
      </trkpt>
      <trkpt lat="43.53247" lon="3.50121">
        <ele>39.7</ele>
        <time>2019-03-25T07:01:58Z</time>
      </trkpt>
      <trkpt lat="43.53244" lon="3.50124">
        <ele>39.7</ele>
        <time>2019-03-25T07:02:01Z</time>
      </trkpt>
      <trkpt lat="43.53242" lon="3.50126">
        <ele>39.7</ele>
        <time>2019-03-25T07:02:04Z</time>
      </trkpt>
      <trkpt lat="43.53238" lon="3.50128">
        <ele>39.7</ele>
        <time>2019-03-25T07:02:07Z</time>
      </trkpt>
      <trkpt lat="43.53237" lon="3.50124">
        <ele>39.5</ele>
        <time>2019-03-25T07:02:09Z</time>
      </trkpt>
      <trkpt lat="43.53235" lon="3.5012">
        <ele>39.4</ele>
        <time>2019-03-25T07:02:11Z</time>
      </trkpt>
      <trkpt lat="43.53235" lon="3.50115">
        <ele>39.3</ele>
        <time>2019-03-25T07:02:14Z</time>
      </trkpt>
      <trkpt lat="43.53233" lon="3.50112">
        <ele>39.2</ele>
        <time>2019-03-25T07:02:18Z</time>
      </trkpt>
      <trkpt lat="43.5323" lon="3.50109">
        <ele>39.2</ele>
        <time>2019-03-25T07:02:22Z</time>
      </trkpt>
      <trkpt lat="43.53229" lon="3.50104">
        <ele>39.1</ele>
        <time>2019-03-25T07:02:25Z</time>
      </trkpt>
      <trkpt lat="43.53229" lon="3.501">
        <ele>39</ele>
        <time>2019-03-25T07:02:28Z</time>
      </trkpt>
      <trkpt lat="43.53231" lon="3.50095">
        <ele>38.9</ele>
        <time>2019-03-25T07:02:31Z</time>
      </trkpt>
      <trkpt lat="43.53232" lon="3.5009">
        <ele>38.9</ele>
        <time>2019-03-25T07:02:34Z</time>
      </trkpt>
      <trkpt lat="43.53233" lon="3.50085">
        <ele>38.8</ele>
        <time>2019-03-25T07:02:37Z</time>
      </trkpt>
      <trkpt lat="43.53233" lon="3.50081">
        <ele>38.8</ele>
        <time>2019-03-25T07:02:40Z</time>
      </trkpt>
      <trkpt lat="43.53234" lon="3.50076">
        <ele>38.7</ele>
        <time>2019-03-25T07:02:43Z</time>
      </trkpt>
      <trkpt lat="43.53234" lon="3.50072">
        <ele>38.7</ele>
        <time>2019-03-25T07:02:45Z</time>
      </trkpt>
      <trkpt lat="43.53235" lon="3.50068">
        <ele>38.7</ele>
        <time>2019-03-25T07:02:47Z</time>
      </trkpt>
      <trkpt lat="43.53235" lon="3.50065">
        <ele>38.7</ele>
        <time>2019-03-25T07:02:49Z</time>
      </trkpt>
      <trkpt lat="43.53235" lon="3.50059">
        <ele>38.7</ele>
        <time>2019-03-25T07:02:52Z</time>
      </trkpt>
      <trkpt lat="43.53236" lon="3.50056">
        <ele>38.7</ele>
        <time>2019-03-25T07:02:54Z</time>
      </trkpt>
      <trkpt lat="43.53236" lon="3.50051">
        <ele>38.7</ele>
        <time>2019-03-25T07:02:57Z</time>
      </trkpt>
      <trkpt lat="43.53236" lon="3.50047">
        <ele>38.6</ele>
        <time>2019-03-25T07:02:59Z</time>
      </trkpt>
      <trkpt lat="43.53236" lon="3.50043">
        <ele>38.7</ele>
        <time>2019-03-25T07:03:02Z</time>
      </trkpt>
      <trkpt lat="43.53237" lon="3.50038">
        <ele>38.7</ele>
        <time>2019-03-25T07:03:06Z</time>
      </trkpt>
      <trkpt lat="43.53234" lon="3.50037">
        <ele>38.7</ele>
        <time>2019-03-25T07:03:09Z</time>
      </trkpt>
      <trkpt lat="43.53231" lon="3.50041">
        <ele>38.8</ele>
        <time>2019-03-25T07:03:12Z</time>
      </trkpt>
      <trkpt lat="43.53229" lon="3.50045">
        <ele>38.8</ele>
        <time>2019-03-25T07:03:15Z</time>
      </trkpt>
      <trkpt lat="43.53226" lon="3.50049">
        <ele>38.8</ele>
        <time>2019-03-25T07:03:18Z</time>
      </trkpt>
      <trkpt lat="43.53224" lon="3.50052">
        <ele>38.8</ele>
        <time>2019-03-25T07:03:20Z</time>
      </trkpt>
      <trkpt lat="43.53221" lon="3.50055">
        <ele>38.9</ele>
        <time>2019-03-25T07:03:22Z</time>
      </trkpt>
      <trkpt lat="43.53219" lon="3.50059">
        <ele>38.9</ele>
        <time>2019-03-25T07:03:24Z</time>
      </trkpt>
      <trkpt lat="43.53217" lon="3.50062">
        <ele>38.9</ele>
        <time>2019-03-25T07:03:26Z</time>
      </trkpt>
      <trkpt lat="43.53214" lon="3.50065">
        <ele>38.9</ele>
        <time>2019-03-25T07:03:28Z</time>
      </trkpt>
      <trkpt lat="43.53211" lon="3.50068">
        <ele>38.9</ele>
        <time>2019-03-25T07:03:31Z</time>
      </trkpt>
      <trkpt lat="43.53209" lon="3.5007">
        <ele>39</ele>
        <time>2019-03-25T07:03:34Z</time>
      </trkpt>
      <trkpt lat="43.53206" lon="3.50073">
        <ele>39</ele>
        <time>2019-03-25T07:03:37Z</time>
      </trkpt>
      <trkpt lat="43.53204" lon="3.50076">
        <ele>39</ele>
        <time>2019-03-25T07:03:40Z</time>
      </trkpt>
      <trkpt lat="43.53201" lon="3.50079">
        <ele>39</ele>
        <time>2019-03-25T07:03:43Z</time>
      </trkpt>
      <trkpt lat="43.53198" lon="3.50081">
        <ele>39</ele>
        <time>2019-03-25T07:03:46Z</time>
      </trkpt>
      <trkpt lat="43.53196" lon="3.50083">
        <ele>39</ele>
        <time>2019-03-25T07:03:48Z</time>
      </trkpt>
      <trkpt lat="43.53193" lon="3.50086">
        <ele>39.1</ele>
        <time>2019-03-25T07:03:52Z</time>
      </trkpt>
      <trkpt lat="43.53191" lon="3.50089">
        <ele>39.1</ele>
        <time>2019-03-25T07:03:54Z</time>
      </trkpt>
      <trkpt lat="43.53188" lon="3.50092">
        <ele>39.1</ele>
        <time>2019-03-25T07:03:57Z</time>
      </trkpt>
      <trkpt lat="43.53186" lon="3.50094">
        <ele>39.1</ele>
        <time>2019-03-25T07:03:59Z</time>
      </trkpt>
      <trkpt lat="43.53184" lon="3.50095">
        <ele>39.1</ele>
        <time>2019-03-25T07:04:01Z</time>
      </trkpt>
      <trkpt lat="43.53181" lon="3.50097">
        <ele>39.1</ele>
        <time>2019-03-25T07:04:03Z</time>
      </trkpt>
      <trkpt lat="43.53179" lon="3.50098">
        <ele>39.1</ele>
        <time>2019-03-25T07:04:05Z</time>
      </trkpt>
      <trkpt lat="43.53176" lon="3.501">
        <ele>39.2</ele>
        <time>2019-03-25T07:04:07Z</time>
      </trkpt>
      <trkpt lat="43.53173" lon="3.50104">
        <ele>39.2</ele>
        <time>2019-03-25T07:04:10Z</time>
      </trkpt>
      <trkpt lat="43.53171" lon="3.50106">
        <ele>39.2</ele>
        <time>2019-03-25T07:04:12Z</time>
      </trkpt>
      <trkpt lat="43.53168" lon="3.50109">
        <ele>39.2</ele>
        <time>2019-03-25T07:04:14Z</time>
      </trkpt>
      <trkpt lat="43.53166" lon="3.50112">
        <ele>39.2</ele>
        <time>2019-03-25T07:04:17Z</time>
      </trkpt>
      <trkpt lat="43.53164" lon="3.50115">
        <ele>39.2</ele>
        <time>2019-03-25T07:04:19Z</time>
      </trkpt>
      <trkpt lat="43.53161" lon="3.50118">
        <ele>39.3</ele>
        <time>2019-03-25T07:04:21Z</time>
      </trkpt>
      <trkpt lat="43.53157" lon="3.50119">
        <ele>39.3</ele>
        <time>2019-03-25T07:04:24Z</time>
      </trkpt>
      <trkpt lat="43.53154" lon="3.50121">
        <ele>39.3</ele>
        <time>2019-03-25T07:04:27Z</time>
      </trkpt>
      <trkpt lat="43.53151" lon="3.50124">
        <ele>39.3</ele>
        <time>2019-03-25T07:04:30Z</time>
      </trkpt>
      <trkpt lat="43.53148" lon="3.50127">
        <ele>39.3</ele>
        <time>2019-03-25T07:04:33Z</time>
      </trkpt>
      <trkpt lat="43.53146" lon="3.5013">
        <ele>39.4</ele>
        <time>2019-03-25T07:04:36Z</time>
      </trkpt>
      <trkpt lat="43.53142" lon="3.50133">
        <ele>39.4</ele>
        <time>2019-03-25T07:04:39Z</time>
      </trkpt>
      <trkpt lat="43.53139" lon="3.50135">
        <ele>39.4</ele>
        <time>2019-03-25T07:04:42Z</time>
      </trkpt>
      <trkpt lat="43.53136" lon="3.50137">
        <ele>39.4</ele>
        <time>2019-03-25T07:04:45Z</time>
      </trkpt>
      <trkpt lat="43.53133" lon="3.5014">
        <ele>39.5</ele>
        <time>2019-03-25T07:04:48Z</time>
      </trkpt>
      <trkpt lat="43.53129" lon="3.50143">
        <ele>39.5</ele>
        <time>2019-03-25T07:04:51Z</time>
      </trkpt>
      <trkpt lat="43.53125" lon="3.50145">
        <ele>39.5</ele>
        <time>2019-03-25T07:04:54Z</time>
      </trkpt>
      <trkpt lat="43.53122" lon="3.50146">
        <ele>39.5</ele>
        <time>2019-03-25T07:04:57Z</time>
      </trkpt>
      <trkpt lat="43.53118" lon="3.50146">
        <ele>39.5</ele>
        <time>2019-03-25T07:05:00Z</time>
      </trkpt>
      <trkpt lat="43.53115" lon="3.50145">
        <ele>39.5</ele>
        <time>2019-03-25T07:05:03Z</time>
      </trkpt>
      <trkpt lat="43.53112" lon="3.50145">
        <ele>39.5</ele>
        <time>2019-03-25T07:05:05Z</time>
      </trkpt>
      <trkpt lat="43.53108" lon="3.50143">
        <ele>39.5</ele>
        <time>2019-03-25T07:05:08Z</time>
      </trkpt>
      <trkpt lat="43.53106" lon="3.50139">
        <ele>39.5</ele>
        <time>2019-03-25T07:05:11Z</time>
      </trkpt>
      <trkpt lat="43.53103" lon="3.50137">
        <ele>39.5</ele>
        <time>2019-03-25T07:05:13Z</time>
      </trkpt>
      <trkpt lat="43.53101" lon="3.50134">
        <ele>39.5</ele>
        <time>2019-03-25T07:05:16Z</time>
      </trkpt>
      <trkpt lat="43.53098" lon="3.50131">
        <ele>39.5</ele>
        <time>2019-03-25T07:05:19Z</time>
      </trkpt>
      <trkpt lat="43.53095" lon="3.50127">
        <ele>39.5</ele>
        <time>2019-03-25T07:05:22Z</time>
      </trkpt>
      <trkpt lat="43.53093" lon="3.50124">
        <ele>39.5</ele>
        <time>2019-03-25T07:05:24Z</time>
      </trkpt>
      <trkpt lat="43.53092" lon="3.50121">
        <ele>39.4</ele>
        <time>2019-03-25T07:05:26Z</time>
      </trkpt>
      <trkpt lat="43.53089" lon="3.50117">
        <ele>39.4</ele>
        <time>2019-03-25T07:05:29Z</time>
      </trkpt>
      <trkpt lat="43.53087" lon="3.50114">
        <ele>39.4</ele>
        <time>2019-03-25T07:05:32Z</time>
      </trkpt>
      <trkpt lat="43.53085" lon="3.50109">
        <ele>39.3</ele>
        <time>2019-03-25T07:05:35Z</time>
      </trkpt>
      <trkpt lat="43.53083" lon="3.50106">
        <ele>39.3</ele>
        <time>2019-03-25T07:05:37Z</time>
      </trkpt>
      <trkpt lat="43.5308" lon="3.50103">
        <ele>39.3</ele>
        <time>2019-03-25T07:05:40Z</time>
      </trkpt>
      <trkpt lat="43.53078" lon="3.50099">
        <ele>39.2</ele>
        <time>2019-03-25T07:05:43Z</time>
      </trkpt>
      <trkpt lat="43.53076" lon="3.50096">
        <ele>39.2</ele>
        <time>2019-03-25T07:05:45Z</time>
      </trkpt>
      <trkpt lat="43.53074" lon="3.50094">
        <ele>39.1</ele>
        <time>2019-03-25T07:05:47Z</time>
      </trkpt>
      <trkpt lat="43.53072" lon="3.5009">
        <ele>39.1</ele>
        <time>2019-03-25T07:05:49Z</time>
      </trkpt>
      <trkpt lat="43.53069" lon="3.50087">
        <ele>39.1</ele>
        <time>2019-03-25T07:05:52Z</time>
      </trkpt>
      <trkpt lat="43.53066" lon="3.50084">
        <ele>39</ele>
        <time>2019-03-25T07:05:55Z</time>
      </trkpt>
      <trkpt lat="43.53063" lon="3.50081">
        <ele>39</ele>
        <time>2019-03-25T07:05:58Z</time>
      </trkpt>
      <trkpt lat="43.5306" lon="3.50078">
        <ele>39</ele>
        <time>2019-03-25T07:06:01Z</time>
      </trkpt>
      <trkpt lat="43.53056" lon="3.50076">
        <ele>38.9</ele>
        <time>2019-03-25T07:06:04Z</time>
      </trkpt>
      <trkpt lat="43.53053" lon="3.50074">
        <ele>38.9</ele>
        <time>2019-03-25T07:06:06Z</time>
      </trkpt>
      <trkpt lat="43.5305" lon="3.50073">
        <ele>38.9</ele>
        <time>2019-03-25T07:06:08Z</time>
      </trkpt>
      <trkpt lat="43.53048" lon="3.50072">
        <ele>38.9</ele>
        <time>2019-03-25T07:06:10Z</time>
      </trkpt>
      <trkpt lat="43.53044" lon="3.5007">
        <ele>38.8</ele>
        <time>2019-03-25T07:06:13Z</time>
      </trkpt>
      <trkpt lat="43.5304" lon="3.50069">
        <ele>38.8</ele>
        <time>2019-03-25T07:06:16Z</time>
      </trkpt>
      <trkpt lat="43.53037" lon="3.50069">
        <ele>38.8</ele>
        <time>2019-03-25T07:06:18Z</time>
      </trkpt>
      <trkpt lat="43.53035" lon="3.50068">
        <ele>38.8</ele>
        <time>2019-03-25T07:06:20Z</time>
      </trkpt>
      <trkpt lat="43.53031" lon="3.50067">
        <ele>38.8</ele>
        <time>2019-03-25T07:06:23Z</time>
      </trkpt>
      <trkpt lat="43.53028" lon="3.50065">
        <ele>38.8</ele>
        <time>2019-03-25T07:06:26Z</time>
      </trkpt>
      <trkpt lat="43.53025" lon="3.50064">
        <ele>38.9</ele>
        <time>2019-03-25T07:06:28Z</time>
      </trkpt>
      <trkpt lat="43.53022" lon="3.50063">
        <ele>38.9</ele>
        <time>2019-03-25T07:06:31Z</time>
      </trkpt>
      <trkpt lat="43.53019" lon="3.50062">
        <ele>38.9</ele>
        <time>2019-03-25T07:06:34Z</time>
      </trkpt>
      <trkpt lat="43.53016" lon="3.5006">
        <ele>38.9</ele>
        <time>2019-03-25T07:06:37Z</time>
      </trkpt>
      <trkpt lat="43.53013" lon="3.50059">
        <ele>38.9</ele>
        <time>2019-03-25T07:06:40Z</time>
      </trkpt>
      <trkpt lat="43.5301" lon="3.50058">
        <ele>39</ele>
        <time>2019-03-25T07:06:43Z</time>
      </trkpt>
      <trkpt lat="43.53006" lon="3.50057">
        <ele>39</ele>
        <time>2019-03-25T07:06:46Z</time>
      </trkpt>
      <trkpt lat="43.53002" lon="3.50055">
        <ele>39.1</ele>
        <time>2019-03-25T07:06:49Z</time>
      </trkpt>
      <trkpt lat="43.52999" lon="3.50053">
        <ele>39.1</ele>
        <time>2019-03-25T07:06:52Z</time>
      </trkpt>
      <trkpt lat="43.52995" lon="3.50051">
        <ele>39.2</ele>
        <time>2019-03-25T07:06:55Z</time>
      </trkpt>
      <trkpt lat="43.52992" lon="3.5005">
        <ele>39.2</ele>
        <time>2019-03-25T07:06:57Z</time>
      </trkpt>
      <trkpt lat="43.52988" lon="3.5005">
        <ele>39.3</ele>
        <time>2019-03-25T07:06:59Z</time>
      </trkpt>
      <trkpt lat="43.52984" lon="3.50048">
        <ele>39.4</ele>
        <time>2019-03-25T07:07:02Z</time>
      </trkpt>
      <trkpt lat="43.52981" lon="3.50047">
        <ele>39.5</ele>
        <time>2019-03-25T07:07:04Z</time>
      </trkpt>
      <trkpt lat="43.52979" lon="3.50046">
        <ele>39.6</ele>
        <time>2019-03-25T07:07:06Z</time>
      </trkpt>
      <trkpt lat="43.52975" lon="3.50044">
        <ele>39.6</ele>
        <time>2019-03-25T07:07:09Z</time>
      </trkpt>
      <trkpt lat="43.52971" lon="3.50043">
        <ele>39.7</ele>
        <time>2019-03-25T07:07:12Z</time>
      </trkpt>
      <trkpt lat="43.52968" lon="3.50042">
        <ele>39.8</ele>
        <time>2019-03-25T07:07:15Z</time>
      </trkpt>
      <trkpt lat="43.52966" lon="3.50042">
        <ele>39.8</ele>
        <time>2019-03-25T07:07:17Z</time>
      </trkpt>
      <trkpt lat="43.52963" lon="3.50041">
        <ele>39.9</ele>
        <time>2019-03-25T07:07:19Z</time>
      </trkpt>
      <trkpt lat="43.5296" lon="3.50042">
        <ele>39.9</ele>
        <time>2019-03-25T07:07:22Z</time>
      </trkpt>
      <trkpt lat="43.52956" lon="3.50042">
        <ele>40</ele>
        <time>2019-03-25T07:07:25Z</time>
      </trkpt>
      <trkpt lat="43.52954" lon="3.50043">
        <ele>40.1</ele>
        <time>2019-03-25T07:07:27Z</time>
      </trkpt>
      <trkpt lat="43.52951" lon="3.50044">
        <ele>40.1</ele>
        <time>2019-03-25T07:07:29Z</time>
      </trkpt>
      <trkpt lat="43.52947" lon="3.50044">
        <ele>40.2</ele>
        <time>2019-03-25T07:07:32Z</time>
      </trkpt>
      <trkpt lat="43.52944" lon="3.50046">
        <ele>40.2</ele>
        <time>2019-03-25T07:07:34Z</time>
      </trkpt>
      <trkpt lat="43.52941" lon="3.50047">
        <ele>40.3</ele>
        <time>2019-03-25T07:07:36Z</time>
      </trkpt>
      <trkpt lat="43.52937" lon="3.50048">
        <ele>40.3</ele>
        <time>2019-03-25T07:07:38Z</time>
      </trkpt>
      <trkpt lat="43.52934" lon="3.50048">
        <ele>40.3</ele>
        <time>2019-03-25T07:07:40Z</time>
      </trkpt>
      <trkpt lat="43.52932" lon="3.5005">
        <ele>40.3</ele>
        <time>2019-03-25T07:07:42Z</time>
      </trkpt>
      <trkpt lat="43.52928" lon="3.50051">
        <ele>40.4</ele>
        <time>2019-03-25T07:07:45Z</time>
      </trkpt>
      <trkpt lat="43.52924" lon="3.50052">
        <ele>40.4</ele>
        <time>2019-03-25T07:07:48Z</time>
      </trkpt>
      <trkpt lat="43.52921" lon="3.50053">
        <ele>40.4</ele>
        <time>2019-03-25T07:07:50Z</time>
      </trkpt>
      <trkpt lat="43.52918" lon="3.50053">
        <ele>40.5</ele>
        <time>2019-03-25T07:07:53Z</time>
      </trkpt>
      <trkpt lat="43.52914" lon="3.50053">
        <ele>40.5</ele>
        <time>2019-03-25T07:07:56Z</time>
      </trkpt>
      <trkpt lat="43.52911" lon="3.50054">
        <ele>40.5</ele>
        <time>2019-03-25T07:07:58Z</time>
      </trkpt>
      <trkpt lat="43.52908" lon="3.50054">
        <ele>40.5</ele>
        <time>2019-03-25T07:08:00Z</time>
      </trkpt>
      <trkpt lat="43.52905" lon="3.50054">
        <ele>40.6</ele>
        <time>2019-03-25T07:08:03Z</time>
      </trkpt>
      <trkpt lat="43.52902" lon="3.50054">
        <ele>40.6</ele>
        <time>2019-03-25T07:08:05Z</time>
      </trkpt>
      <trkpt lat="43.52899" lon="3.50055">
        <ele>40.6</ele>
        <time>2019-03-25T07:08:07Z</time>
      </trkpt>
      <trkpt lat="43.52895" lon="3.50055">
        <ele>40.6</ele>
        <time>2019-03-25T07:08:10Z</time>
      </trkpt>
      <trkpt lat="43.52893" lon="3.50056">
        <ele>40.7</ele>
        <time>2019-03-25T07:08:12Z</time>
      </trkpt>
      <trkpt lat="43.52889" lon="3.50057">
        <ele>40.7</ele>
        <time>2019-03-25T07:08:14Z</time>
      </trkpt>
      <trkpt lat="43.52886" lon="3.50058">
        <ele>40.7</ele>
        <time>2019-03-25T07:08:16Z</time>
      </trkpt>
      <trkpt lat="43.52883" lon="3.50058">
        <ele>40.7</ele>
        <time>2019-03-25T07:08:20Z</time>
      </trkpt>
      <trkpt lat="43.5288" lon="3.50058">
        <ele>40.8</ele>
        <time>2019-03-25T07:08:23Z</time>
      </trkpt>
      <trkpt lat="43.52876" lon="3.50057">
        <ele>40.8</ele>
        <time>2019-03-25T07:08:26Z</time>
      </trkpt>
      <trkpt lat="43.52873" lon="3.50056">
        <ele>40.9</ele>
        <time>2019-03-25T07:08:29Z</time>
      </trkpt>
      <trkpt lat="43.52869" lon="3.50053">
        <ele>40.7</ele>
        <time>2019-03-25T07:08:32Z</time>
      </trkpt>
      <trkpt lat="43.52866" lon="3.50051">
        <ele>40.5</ele>
        <time>2019-03-25T07:08:34Z</time>
      </trkpt>
      <trkpt lat="43.52863" lon="3.50048">
        <ele>40.3</ele>
        <time>2019-03-25T07:08:37Z</time>
      </trkpt>
      <trkpt lat="43.5286" lon="3.50046">
        <ele>40.1</ele>
        <time>2019-03-25T07:08:40Z</time>
      </trkpt>
      <trkpt lat="43.52858" lon="3.50044">
        <ele>40</ele>
        <time>2019-03-25T07:08:42Z</time>
      </trkpt>
      <trkpt lat="43.52855" lon="3.50042">
        <ele>39.8</ele>
        <time>2019-03-25T07:08:45Z</time>
      </trkpt>
      <trkpt lat="43.52852" lon="3.5004">
        <ele>39.6</ele>
        <time>2019-03-25T07:08:48Z</time>
      </trkpt>
      <trkpt lat="43.52849" lon="3.50041">
        <ele>39.5</ele>
        <time>2019-03-25T07:08:50Z</time>
      </trkpt>
      <trkpt lat="43.52845" lon="3.5004">
        <ele>39.4</ele>
        <time>2019-03-25T07:08:53Z</time>
      </trkpt>
      <trkpt lat="43.52842" lon="3.50038">
        <ele>39.2</ele>
        <time>2019-03-25T07:08:56Z</time>
      </trkpt>
      <trkpt lat="43.52839" lon="3.50038">
        <ele>39.1</ele>
        <time>2019-03-25T07:08:58Z</time>
      </trkpt>
      <trkpt lat="43.52836" lon="3.50037">
        <ele>38.9</ele>
        <time>2019-03-25T07:09:00Z</time>
      </trkpt>
      <trkpt lat="43.52833" lon="3.50036">
        <ele>38.8</ele>
        <time>2019-03-25T07:09:02Z</time>
      </trkpt>
      <trkpt lat="43.52831" lon="3.50036">
        <ele>38.7</ele>
        <time>2019-03-25T07:09:04Z</time>
      </trkpt>
      <trkpt lat="43.52828" lon="3.50036">
        <ele>38.6</ele>
        <time>2019-03-25T07:09:06Z</time>
      </trkpt>
      <trkpt lat="43.52824" lon="3.50036">
        <ele>38.6</ele>
        <time>2019-03-25T07:09:08Z</time>
      </trkpt>
      <trkpt lat="43.52821" lon="3.50035">
        <ele>38.5</ele>
        <time>2019-03-25T07:09:11Z</time>
      </trkpt>
      <trkpt lat="43.52817" lon="3.50035">
        <ele>38.5</ele>
        <time>2019-03-25T07:09:14Z</time>
      </trkpt>
      <trkpt lat="43.52814" lon="3.50035">
        <ele>38.4</ele>
        <time>2019-03-25T07:09:17Z</time>
      </trkpt>
      <trkpt lat="43.52811" lon="3.50036">
        <ele>38.4</ele>
        <time>2019-03-25T07:09:20Z</time>
      </trkpt>
      <trkpt lat="43.52807" lon="3.50036">
        <ele>38.4</ele>
        <time>2019-03-25T07:09:23Z</time>
      </trkpt>
      <trkpt lat="43.52804" lon="3.50036">
        <ele>38.4</ele>
        <time>2019-03-25T07:09:26Z</time>
      </trkpt>
      <trkpt lat="43.52801" lon="3.50038">
        <ele>38.4</ele>
        <time>2019-03-25T07:09:28Z</time>
      </trkpt>
      <trkpt lat="43.52797" lon="3.50038">
        <ele>38.4</ele>
        <time>2019-03-25T07:09:31Z</time>
      </trkpt>
      <trkpt lat="43.52795" lon="3.50039">
        <ele>38.5</ele>
        <time>2019-03-25T07:09:33Z</time>
      </trkpt>
      <trkpt lat="43.52792" lon="3.5004">
        <ele>38.6</ele>
        <time>2019-03-25T07:09:35Z</time>
      </trkpt>
      <trkpt lat="43.52789" lon="3.50041">
        <ele>38.7</ele>
        <time>2019-03-25T07:09:38Z</time>
      </trkpt>
      <trkpt lat="43.52786" lon="3.50041">
        <ele>38.7</ele>
        <time>2019-03-25T07:09:41Z</time>
      </trkpt>
      <trkpt lat="43.52782" lon="3.50043">
        <ele>38.7</ele>
        <time>2019-03-25T07:09:44Z</time>
      </trkpt>
      <trkpt lat="43.52779" lon="3.50044">
        <ele>38.7</ele>
        <time>2019-03-25T07:09:46Z</time>
      </trkpt>
      <trkpt lat="43.52776" lon="3.50044">
        <ele>38.8</ele>
        <time>2019-03-25T07:09:49Z</time>
      </trkpt>
      <trkpt lat="43.52773" lon="3.50044">
        <ele>38.8</ele>
        <time>2019-03-25T07:09:51Z</time>
      </trkpt>
      <trkpt lat="43.5277" lon="3.50045">
        <ele>38.8</ele>
        <time>2019-03-25T07:09:53Z</time>
      </trkpt>
      <trkpt lat="43.52768" lon="3.50046">
        <ele>38.8</ele>
        <time>2019-03-25T07:09:55Z</time>
      </trkpt>
      <trkpt lat="43.52765" lon="3.50047">
        <ele>38.8</ele>
        <time>2019-03-25T07:09:57Z</time>
      </trkpt>
      <trkpt lat="43.52762" lon="3.50046">
        <ele>38.8</ele>
        <time>2019-03-25T07:09:59Z</time>
      </trkpt>
      <trkpt lat="43.52758" lon="3.50046">
        <ele>38.7</ele>
        <time>2019-03-25T07:10:01Z</time>
      </trkpt>
      <trkpt lat="43.52756" lon="3.50047">
        <ele>38.7</ele>
        <time>2019-03-25T07:10:03Z</time>
      </trkpt>
      <trkpt lat="43.52752" lon="3.50048">
        <ele>38.8</ele>
        <time>2019-03-25T07:10:06Z</time>
      </trkpt>
      <trkpt lat="43.52749" lon="3.50049">
        <ele>38.9</ele>
        <time>2019-03-25T07:10:09Z</time>
      </trkpt>
      <trkpt lat="43.52746" lon="3.50051">
        <ele>38.9</ele>
        <time>2019-03-25T07:10:11Z</time>
      </trkpt>
      <trkpt lat="43.52743" lon="3.50051">
        <ele>39</ele>
        <time>2019-03-25T07:10:14Z</time>
      </trkpt>
      <trkpt lat="43.5274" lon="3.50053">
        <ele>39</ele>
        <time>2019-03-25T07:10:16Z</time>
      </trkpt>
      <trkpt lat="43.52737" lon="3.50055">
        <ele>39.1</ele>
        <time>2019-03-25T07:10:19Z</time>
      </trkpt>
      <trkpt lat="43.52734" lon="3.50057">
        <ele>39.1</ele>
        <time>2019-03-25T07:10:22Z</time>
      </trkpt>
      <trkpt lat="43.52731" lon="3.50059">
        <ele>39.2</ele>
        <time>2019-03-25T07:10:25Z</time>
      </trkpt>
      <trkpt lat="43.52728" lon="3.50061">
        <ele>39.2</ele>
        <time>2019-03-25T07:10:28Z</time>
      </trkpt>
      <trkpt lat="43.52725" lon="3.50062">
        <ele>39.3</ele>
        <time>2019-03-25T07:10:30Z</time>
      </trkpt>
      <trkpt lat="43.52722" lon="3.50062">
        <ele>39.3</ele>
        <time>2019-03-25T07:10:32Z</time>
      </trkpt>
      <trkpt lat="43.52719" lon="3.50062">
        <ele>39.3</ele>
        <time>2019-03-25T07:10:34Z</time>
      </trkpt>
      <trkpt lat="43.52716" lon="3.50061">
        <ele>39.3</ele>
        <time>2019-03-25T07:10:37Z</time>
      </trkpt>
      <trkpt lat="43.52713" lon="3.50061">
        <ele>39.2</ele>
        <time>2019-03-25T07:10:39Z</time>
      </trkpt>
      <trkpt lat="43.52709" lon="3.50059">
        <ele>39.2</ele>
        <time>2019-03-25T07:10:42Z</time>
      </trkpt>
      <trkpt lat="43.52707" lon="3.50057">
        <ele>39.1</ele>
        <time>2019-03-25T07:10:44Z</time>
      </trkpt>
      <trkpt lat="43.52703" lon="3.50056">
        <ele>39.1</ele>
        <time>2019-03-25T07:10:47Z</time>
      </trkpt>
      <trkpt lat="43.52699" lon="3.50055">
        <ele>39.1</ele>
        <time>2019-03-25T07:10:50Z</time>
      </trkpt>
      <trkpt lat="43.52697" lon="3.50054">
        <ele>39</ele>
        <time>2019-03-25T07:10:52Z</time>
      </trkpt>
      <trkpt lat="43.52694" lon="3.50053">
        <ele>39</ele>
        <time>2019-03-25T07:10:54Z</time>
      </trkpt>
      <trkpt lat="43.5269" lon="3.50053">
        <ele>39.1</ele>
        <time>2019-03-25T07:10:57Z</time>
      </trkpt>
      <trkpt lat="43.52687" lon="3.50052">
        <ele>39.1</ele>
        <time>2019-03-25T07:10:59Z</time>
      </trkpt>
      <trkpt lat="43.52684" lon="3.50052">
        <ele>39.1</ele>
        <time>2019-03-25T07:11:01Z</time>
      </trkpt>
      <trkpt lat="43.52681" lon="3.50051">
        <ele>39.1</ele>
        <time>2019-03-25T07:11:04Z</time>
      </trkpt>
      <trkpt lat="43.52677" lon="3.50051">
        <ele>39.1</ele>
        <time>2019-03-25T07:11:07Z</time>
      </trkpt>
      <trkpt lat="43.52674" lon="3.50051">
        <ele>39.1</ele>
        <time>2019-03-25T07:11:10Z</time>
      </trkpt>
      <trkpt lat="43.52671" lon="3.50051">
        <ele>39.1</ele>
        <time>2019-03-25T07:11:13Z</time>
      </trkpt>
      <trkpt lat="43.52668" lon="3.50051">
        <ele>39.1</ele>
        <time>2019-03-25T07:11:16Z</time>
      </trkpt>
      <trkpt lat="43.52664" lon="3.50048">
        <ele>39.1</ele>
        <time>2019-03-25T07:11:19Z</time>
      </trkpt>
      <trkpt lat="43.52661" lon="3.50046">
        <ele>39.1</ele>
        <time>2019-03-25T07:11:22Z</time>
      </trkpt>
      <trkpt lat="43.52658" lon="3.50043">
        <ele>39.1</ele>
        <time>2019-03-25T07:11:25Z</time>
      </trkpt>
      <trkpt lat="43.52657" lon="3.50037">
        <ele>39.1</ele>
        <time>2019-03-25T07:11:28Z</time>
      </trkpt>
      <trkpt lat="43.52658" lon="3.50033">
        <ele>39.1</ele>
        <time>2019-03-25T07:11:31Z</time>
      </trkpt>
      <trkpt lat="43.5266" lon="3.5003">
        <ele>39.1</ele>
        <time>2019-03-25T07:11:34Z</time>
      </trkpt>
      <trkpt lat="43.52662" lon="3.50026">
        <ele>39.1</ele>
        <time>2019-03-25T07:11:37Z</time>
      </trkpt>
      <trkpt lat="43.52663" lon="3.50023">
        <ele>39.1</ele>
        <time>2019-03-25T07:11:39Z</time>
      </trkpt>
      <trkpt lat="43.52664" lon="3.50019">
        <ele>39.1</ele>
        <time>2019-03-25T07:11:41Z</time>
      </trkpt>
      <trkpt lat="43.52667" lon="3.50015">
        <ele>39</ele>
        <time>2019-03-25T07:11:44Z</time>
      </trkpt>
      <trkpt lat="43.52669" lon="3.50012">
        <ele>39</ele>
        <time>2019-03-25T07:11:46Z</time>
      </trkpt>
      <trkpt lat="43.52671" lon="3.5001">
        <ele>38.9</ele>
        <time>2019-03-25T07:11:48Z</time>
      </trkpt>
      <trkpt lat="43.52674" lon="3.50007">
        <ele>38.9</ele>
        <time>2019-03-25T07:11:51Z</time>
      </trkpt>
      <trkpt lat="43.52676" lon="3.50002">
        <ele>38.8</ele>
        <time>2019-03-25T07:11:54Z</time>
      </trkpt>
      <trkpt lat="43.52677" lon="3.49998">
        <ele>38.7</ele>
        <time>2019-03-25T07:11:57Z</time>
      </trkpt>
      <trkpt lat="43.52679" lon="3.49994">
        <ele>38.7</ele>
        <time>2019-03-25T07:11:59Z</time>
      </trkpt>
      <trkpt lat="43.5268" lon="3.4999">
        <ele>38.6</ele>
        <time>2019-03-25T07:12:01Z</time>
      </trkpt>
      <trkpt lat="43.52682" lon="3.49987">
        <ele>38.6</ele>
        <time>2019-03-25T07:12:03Z</time>
      </trkpt>
      <trkpt lat="43.52686" lon="3.49983">
        <ele>38.5</ele>
        <time>2019-03-25T07:12:05Z</time>
      </trkpt>
      <trkpt lat="43.52687" lon="3.49979">
        <ele>38.5</ele>
        <time>2019-03-25T07:12:07Z</time>
      </trkpt>
      <trkpt lat="43.52688" lon="3.49974">
        <ele>38.4</ele>
        <time>2019-03-25T07:12:10Z</time>
      </trkpt>
      <trkpt lat="43.52687" lon="3.49971">
        <ele>38.3</ele>
        <time>2019-03-25T07:12:13Z</time>
      </trkpt>
      <trkpt lat="43.52684" lon="3.49967">
        <ele>38.3</ele>
        <time>2019-03-25T07:12:16Z</time>
      </trkpt>
      <trkpt lat="43.52681" lon="3.49965">
        <ele>38.3</ele>
        <time>2019-03-25T07:12:19Z</time>
      </trkpt>
      <trkpt lat="43.52677" lon="3.49963">
        <ele>38.3</ele>
        <time>2019-03-25T07:12:22Z</time>
      </trkpt>
      <trkpt lat="43.52674" lon="3.49962">
        <ele>38.3</ele>
        <time>2019-03-25T07:12:25Z</time>
      </trkpt>
      <trkpt lat="43.52672" lon="3.49959">
        <ele>38.3</ele>
        <time>2019-03-25T07:12:27Z</time>
      </trkpt>
      <trkpt lat="43.52669" lon="3.49956">
        <ele>38.3</ele>
        <time>2019-03-25T07:12:29Z</time>
      </trkpt>
      <trkpt lat="43.52667" lon="3.49953">
        <ele>38.3</ele>
        <time>2019-03-25T07:12:32Z</time>
      </trkpt>
      <trkpt lat="43.52664" lon="3.49951">
        <ele>38.3</ele>
        <time>2019-03-25T07:12:34Z</time>
      </trkpt>
      <trkpt lat="43.52661" lon="3.49949">
        <ele>38.3</ele>
        <time>2019-03-25T07:12:36Z</time>
      </trkpt>
      <trkpt lat="43.52659" lon="3.49947">
        <ele>38.3</ele>
        <time>2019-03-25T07:12:38Z</time>
      </trkpt>
      <trkpt lat="43.52657" lon="3.49944">
        <ele>38.3</ele>
        <time>2019-03-25T07:12:40Z</time>
      </trkpt>
      <trkpt lat="43.52654" lon="3.49942">
        <ele>38.3</ele>
        <time>2019-03-25T07:12:42Z</time>
      </trkpt>
      <trkpt lat="43.52652" lon="3.4994">
        <ele>38.3</ele>
        <time>2019-03-25T07:12:45Z</time>
      </trkpt>
      <trkpt lat="43.52649" lon="3.49937">
        <ele>38.3</ele>
        <time>2019-03-25T07:12:48Z</time>
      </trkpt>
      <trkpt lat="43.52646" lon="3.49935">
        <ele>38.3</ele>
        <time>2019-03-25T07:12:50Z</time>
      </trkpt>
      <trkpt lat="43.52643" lon="3.49932">
        <ele>38.3</ele>
        <time>2019-03-25T07:12:53Z</time>
      </trkpt>
      <trkpt lat="43.5264" lon="3.4993">
        <ele>38.4</ele>
        <time>2019-03-25T07:12:55Z</time>
      </trkpt>
      <trkpt lat="43.52637" lon="3.49927">
        <ele>38.5</ele>
        <time>2019-03-25T07:12:58Z</time>
      </trkpt>
      <trkpt lat="43.52634" lon="3.49924">
        <ele>38.6</ele>
        <time>2019-03-25T07:13:01Z</time>
      </trkpt>
      <trkpt lat="43.52631" lon="3.49921">
        <ele>38.7</ele>
        <time>2019-03-25T07:13:04Z</time>
      </trkpt>
      <trkpt lat="43.52629" lon="3.49919">
        <ele>38.9</ele>
        <time>2019-03-25T07:13:06Z</time>
      </trkpt>
      <trkpt lat="43.52626" lon="3.49916">
        <ele>39</ele>
        <time>2019-03-25T07:13:09Z</time>
      </trkpt>
      <trkpt lat="43.52624" lon="3.49913">
        <ele>39.2</ele>
        <time>2019-03-25T07:13:12Z</time>
      </trkpt>
      <trkpt lat="43.52621" lon="3.49911">
        <ele>39.2</ele>
        <time>2019-03-25T07:13:14Z</time>
      </trkpt>
      <trkpt lat="43.52617" lon="3.49908">
        <ele>39.4</ele>
        <time>2019-03-25T07:13:17Z</time>
      </trkpt>
      <trkpt lat="43.52615" lon="3.49906">
        <ele>39.4</ele>
        <time>2019-03-25T07:13:19Z</time>
      </trkpt>
      <trkpt lat="43.52612" lon="3.49903">
        <ele>39.6</ele>
        <time>2019-03-25T07:13:22Z</time>
      </trkpt>
      <trkpt lat="43.5261" lon="3.49899">
        <ele>39.7</ele>
        <time>2019-03-25T07:13:25Z</time>
      </trkpt>
      <trkpt lat="43.52606" lon="3.49895">
        <ele>39.8</ele>
        <time>2019-03-25T07:13:28Z</time>
      </trkpt>
      <trkpt lat="43.52604" lon="3.49892">
        <ele>39.9</ele>
        <time>2019-03-25T07:13:30Z</time>
      </trkpt>
      <trkpt lat="43.52601" lon="3.49889">
        <ele>40</ele>
        <time>2019-03-25T07:13:33Z</time>
      </trkpt>
      <trkpt lat="43.52598" lon="3.49888">
        <ele>40</ele>
        <time>2019-03-25T07:13:36Z</time>
      </trkpt>
      <trkpt lat="43.52596" lon="3.49885">
        <ele>40.1</ele>
        <time>2019-03-25T07:13:38Z</time>
      </trkpt>
      <trkpt lat="43.52593" lon="3.49883">
        <ele>40.1</ele>
        <time>2019-03-25T07:13:40Z</time>
      </trkpt>
      <trkpt lat="43.5259" lon="3.49881">
        <ele>40.1</ele>
        <time>2019-03-25T07:13:43Z</time>
      </trkpt>
      <trkpt lat="43.52587" lon="3.4988">
        <ele>40.2</ele>
        <time>2019-03-25T07:13:45Z</time>
      </trkpt>
      <trkpt lat="43.52584" lon="3.4988">
        <ele>40.4</ele>
        <time>2019-03-25T07:13:47Z</time>
      </trkpt>
      <trkpt lat="43.52581" lon="3.49881">
        <ele>40.5</ele>
        <time>2019-03-25T07:13:49Z</time>
      </trkpt>
      <trkpt lat="43.52578" lon="3.49882">
        <ele>40.6</ele>
        <time>2019-03-25T07:13:51Z</time>
      </trkpt>
      <trkpt lat="43.52575" lon="3.49886">
        <ele>40.8</ele>
        <time>2019-03-25T07:13:54Z</time>
      </trkpt>
      <trkpt lat="43.52574" lon="3.49889">
        <ele>41</ele>
        <time>2019-03-25T07:13:56Z</time>
      </trkpt>
      <trkpt lat="43.52571" lon="3.49892">
        <ele>41</ele>
        <time>2019-03-25T07:13:58Z</time>
      </trkpt>
      <trkpt lat="43.52569" lon="3.49895">
        <ele>41.2</ele>
        <time>2019-03-25T07:14:00Z</time>
      </trkpt>
      <trkpt lat="43.52567" lon="3.49897">
        <ele>41.4</ele>
        <time>2019-03-25T07:14:02Z</time>
      </trkpt>
      <trkpt lat="43.52564" lon="3.499">
        <ele>41.7</ele>
        <time>2019-03-25T07:14:05Z</time>
      </trkpt>
      <trkpt lat="43.52561" lon="3.49902">
        <ele>41.9</ele>
        <time>2019-03-25T07:14:07Z</time>
      </trkpt>
      <trkpt lat="43.52558" lon="3.49903">
        <ele>42.2</ele>
        <time>2019-03-25T07:14:10Z</time>
      </trkpt>
      <trkpt lat="43.52554" lon="3.49904">
        <ele>42.5</ele>
        <time>2019-03-25T07:14:13Z</time>
      </trkpt>
      <trkpt lat="43.52551" lon="3.49907">
        <ele>42.7</ele>
        <time>2019-03-25T07:14:16Z</time>
      </trkpt>
      <trkpt lat="43.52549" lon="3.49909">
        <ele>42.9</ele>
        <time>2019-03-25T07:14:18Z</time>
      </trkpt>
      <trkpt lat="43.52546" lon="3.49912">
        <ele>43</ele>
        <time>2019-03-25T07:14:20Z</time>
      </trkpt>
      <trkpt lat="43.52544" lon="3.49914">
        <ele>42.9</ele>
        <time>2019-03-25T07:14:22Z</time>
      </trkpt>
      <trkpt lat="43.52541" lon="3.49918">
        <ele>42.9</ele>
        <time>2019-03-25T07:14:25Z</time>
      </trkpt>
      <trkpt lat="43.52538" lon="3.49922">
        <ele>42.8</ele>
        <time>2019-03-25T07:14:28Z</time>
      </trkpt>
      <trkpt lat="43.52535" lon="3.49926">
        <ele>42.8</ele>
        <time>2019-03-25T07:14:31Z</time>
      </trkpt>
      <trkpt lat="43.52534" lon="3.4993">
        <ele>42.7</ele>
        <time>2019-03-25T07:14:33Z</time>
      </trkpt>
      <trkpt lat="43.52532" lon="3.49933">
        <ele>42.5</ele>
        <time>2019-03-25T07:14:35Z</time>
      </trkpt>
      <trkpt lat="43.5253" lon="3.49936">
        <ele>42.5</ele>
        <time>2019-03-25T07:14:38Z</time>
      </trkpt>
      <trkpt lat="43.52528" lon="3.49939">
        <ele>42.6</ele>
        <time>2019-03-25T07:14:40Z</time>
      </trkpt>
      <trkpt lat="43.52524" lon="3.49941">
        <ele>42.6</ele>
        <time>2019-03-25T07:14:43Z</time>
      </trkpt>
      <trkpt lat="43.52522" lon="3.49943">
        <ele>42.5</ele>
        <time>2019-03-25T07:14:45Z</time>
      </trkpt>
      <trkpt lat="43.52518" lon="3.49945">
        <ele>42.5</ele>
        <time>2019-03-25T07:14:48Z</time>
      </trkpt>
      <trkpt lat="43.52515" lon="3.49948">
        <ele>42.5</ele>
        <time>2019-03-25T07:14:51Z</time>
      </trkpt>
      <trkpt lat="43.52513" lon="3.4995">
        <ele>42.4</ele>
        <time>2019-03-25T07:14:53Z</time>
      </trkpt>
      <trkpt lat="43.5251" lon="3.49952">
        <ele>42.5</ele>
        <time>2019-03-25T07:14:56Z</time>
      </trkpt>
      <trkpt lat="43.52507" lon="3.49955">
        <ele>42.4</ele>
        <time>2019-03-25T07:14:59Z</time>
      </trkpt>
      <trkpt lat="43.52504" lon="3.49958">
        <ele>42.4</ele>
        <time>2019-03-25T07:15:02Z</time>
      </trkpt>
      <trkpt lat="43.52502" lon="3.49961">
        <ele>42.5</ele>
        <time>2019-03-25T07:15:04Z</time>
      </trkpt>
      <trkpt lat="43.52499" lon="3.49965">
        <ele>42.6</ele>
        <time>2019-03-25T07:15:07Z</time>
      </trkpt>
      <trkpt lat="43.52496" lon="3.49968">
        <ele>42.7</ele>
        <time>2019-03-25T07:15:10Z</time>
      </trkpt>
      <trkpt lat="43.52494" lon="3.49971">
        <ele>42.6</ele>
        <time>2019-03-25T07:15:13Z</time>
      </trkpt>
      <trkpt lat="43.52492" lon="3.49974">
        <ele>42.8</ele>
        <time>2019-03-25T07:15:15Z</time>
      </trkpt>
      <trkpt lat="43.5249" lon="3.49977">
        <ele>42.9</ele>
        <time>2019-03-25T07:15:18Z</time>
      </trkpt>
      <trkpt lat="43.52486" lon="3.49979">
        <ele>43.1</ele>
        <time>2019-03-25T07:15:21Z</time>
      </trkpt>
      <trkpt lat="43.52483" lon="3.49979">
        <ele>43.2</ele>
        <time>2019-03-25T07:15:24Z</time>
      </trkpt>
      <trkpt lat="43.5248" lon="3.49979">
        <ele>43.4</ele>
        <time>2019-03-25T07:15:26Z</time>
      </trkpt>
      <trkpt lat="43.52477" lon="3.49978">
        <ele>43.7</ele>
        <time>2019-03-25T07:15:29Z</time>
      </trkpt>
      <trkpt lat="43.52473" lon="3.49978">
        <ele>43.9</ele>
        <time>2019-03-25T07:15:32Z</time>
      </trkpt>
      <trkpt lat="43.5247" lon="3.49979">
        <ele>44.1</ele>
        <time>2019-03-25T07:15:35Z</time>
      </trkpt>
      <trkpt lat="43.52467" lon="3.49983">
        <ele>44.3</ele>
        <time>2019-03-25T07:15:38Z</time>
      </trkpt>
      <trkpt lat="43.52465" lon="3.49987">
        <ele>44.5</ele>
        <time>2019-03-25T07:15:41Z</time>
      </trkpt>
      <trkpt lat="43.52464" lon="3.4999">
        <ele>44.4</ele>
        <time>2019-03-25T07:15:43Z</time>
      </trkpt>
      <trkpt lat="43.52463" lon="3.49995">
        <ele>44.2</ele>
        <time>2019-03-25T07:15:45Z</time>
      </trkpt>
      <trkpt lat="43.52462" lon="3.49999">
        <ele>44.2</ele>
        <time>2019-03-25T07:15:48Z</time>
      </trkpt>
      <trkpt lat="43.5246" lon="3.50004">
        <ele>44</ele>
        <time>2019-03-25T07:15:51Z</time>
      </trkpt>
      <trkpt lat="43.52459" lon="3.50008">
        <ele>44</ele>
        <time>2019-03-25T07:15:54Z</time>
      </trkpt>
      <trkpt lat="43.52457" lon="3.50013">
        <ele>43.8</ele>
        <time>2019-03-25T07:15:57Z</time>
      </trkpt>
      <trkpt lat="43.52455" lon="3.50018">
        <ele>43.9</ele>
        <time>2019-03-25T07:16:00Z</time>
      </trkpt>
      <trkpt lat="43.52454" lon="3.50023">
        <ele>44</ele>
        <time>2019-03-25T07:16:02Z</time>
      </trkpt>
      <trkpt lat="43.52453" lon="3.50027">
        <ele>44.1</ele>
        <time>2019-03-25T07:16:04Z</time>
      </trkpt>
      <trkpt lat="43.52452" lon="3.5003">
        <ele>44.2</ele>
        <time>2019-03-25T07:16:06Z</time>
      </trkpt>
      <trkpt lat="43.52449" lon="3.50034">
        <ele>44.4</ele>
        <time>2019-03-25T07:16:09Z</time>
      </trkpt>
      <trkpt lat="43.52448" lon="3.50037">
        <ele>44.5</ele>
        <time>2019-03-25T07:16:11Z</time>
      </trkpt>
      <trkpt lat="43.52445" lon="3.5004">
        <ele>44.7</ele>
        <time>2019-03-25T07:16:14Z</time>
      </trkpt>
      <trkpt lat="43.52442" lon="3.50044">
        <ele>44.9</ele>
        <time>2019-03-25T07:16:17Z</time>
      </trkpt>
      <trkpt lat="43.5244" lon="3.50046">
        <ele>45.1</ele>
        <time>2019-03-25T07:16:19Z</time>
      </trkpt>
      <trkpt lat="43.52437" lon="3.50049">
        <ele>45.3</ele>
        <time>2019-03-25T07:16:22Z</time>
      </trkpt>
      <trkpt lat="43.52434" lon="3.50051">
        <ele>45.7</ele>
        <time>2019-03-25T07:16:24Z</time>
      </trkpt>
      <trkpt lat="43.52431" lon="3.5005">
        <ele>45.9</ele>
        <time>2019-03-25T07:16:27Z</time>
      </trkpt>
      <trkpt lat="43.52427" lon="3.5005">
        <ele>46.2</ele>
        <time>2019-03-25T07:16:30Z</time>
      </trkpt>
      <trkpt lat="43.52424" lon="3.5005">
        <ele>46.4</ele>
        <time>2019-03-25T07:16:33Z</time>
      </trkpt>
      <trkpt lat="43.5242" lon="3.5005">
        <ele>46.7</ele>
        <time>2019-03-25T07:16:36Z</time>
      </trkpt>
      <trkpt lat="43.52417" lon="3.5005">
        <ele>46.9</ele>
        <time>2019-03-25T07:16:38Z</time>
      </trkpt>
      <trkpt lat="43.52413" lon="3.50049">
        <ele>47.2</ele>
        <time>2019-03-25T07:16:41Z</time>
      </trkpt>
      <trkpt lat="43.5241" lon="3.5005">
        <ele>47.5</ele>
        <time>2019-03-25T07:16:44Z</time>
      </trkpt>
      <trkpt lat="43.52407" lon="3.50049">
        <ele>47.7</ele>
        <time>2019-03-25T07:16:47Z</time>
      </trkpt>
      <trkpt lat="43.52404" lon="3.50049">
        <ele>47.9</ele>
        <time>2019-03-25T07:16:50Z</time>
      </trkpt>
      <trkpt lat="43.524" lon="3.50048">
        <ele>48.1</ele>
        <time>2019-03-25T07:16:53Z</time>
      </trkpt>
      <trkpt lat="43.52397" lon="3.50048">
        <ele>48.3</ele>
        <time>2019-03-25T07:16:56Z</time>
      </trkpt>
      <trkpt lat="43.52393" lon="3.50048">
        <ele>48.5</ele>
        <time>2019-03-25T07:16:59Z</time>
      </trkpt>
      <trkpt lat="43.52389" lon="3.50047">
        <ele>48.7</ele>
        <time>2019-03-25T07:17:02Z</time>
      </trkpt>
      <trkpt lat="43.52387" lon="3.50048">
        <ele>48.8</ele>
        <time>2019-03-25T07:17:04Z</time>
      </trkpt>
      <trkpt lat="43.52382" lon="3.50048">
        <ele>49</ele>
        <time>2019-03-25T07:17:07Z</time>
      </trkpt>
      <trkpt lat="43.52379" lon="3.50048">
        <ele>49.2</ele>
        <time>2019-03-25T07:17:09Z</time>
      </trkpt>
      <trkpt lat="43.52376" lon="3.50047">
        <ele>49.4</ele>
        <time>2019-03-25T07:17:11Z</time>
      </trkpt>
      <trkpt lat="43.52373" lon="3.50046">
        <ele>49.5</ele>
        <time>2019-03-25T07:17:13Z</time>
      </trkpt>
      <trkpt lat="43.52369" lon="3.50045">
        <ele>49.6</ele>
        <time>2019-03-25T07:17:16Z</time>
      </trkpt>
      <trkpt lat="43.52366" lon="3.50042">
        <ele>49.8</ele>
        <time>2019-03-25T07:17:19Z</time>
      </trkpt>
      <trkpt lat="43.52363" lon="3.50041">
        <ele>49.9</ele>
        <time>2019-03-25T07:17:22Z</time>
      </trkpt>
      <trkpt lat="43.5236" lon="3.50042">
        <ele>50.1</ele>
        <time>2019-03-25T07:17:24Z</time>
      </trkpt>
      <trkpt lat="43.52357" lon="3.50041">
        <ele>50.2</ele>
        <time>2019-03-25T07:17:27Z</time>
      </trkpt>
      <trkpt lat="43.52354" lon="3.5004">
        <ele>50.4</ele>
        <time>2019-03-25T07:17:30Z</time>
      </trkpt>
      <trkpt lat="43.52351" lon="3.5004">
        <ele>50.6</ele>
        <time>2019-03-25T07:17:32Z</time>
      </trkpt>
      <trkpt lat="43.52347" lon="3.50038">
        <ele>50.7</ele>
        <time>2019-03-25T07:17:35Z</time>
      </trkpt>
      <trkpt lat="43.52344" lon="3.50039">
        <ele>50.8</ele>
        <time>2019-03-25T07:17:38Z</time>
      </trkpt>
      <trkpt lat="43.5234" lon="3.50039">
        <ele>50.9</ele>
        <time>2019-03-25T07:17:42Z</time>
      </trkpt>
      <trkpt lat="43.52337" lon="3.50036">
        <ele>51</ele>
        <time>2019-03-25T07:17:46Z</time>
      </trkpt>
      <trkpt lat="43.52335" lon="3.50034">
        <ele>51.2</ele>
        <time>2019-03-25T07:17:49Z</time>
      </trkpt>
      <trkpt lat="43.52332" lon="3.50035">
        <ele>51.4</ele>
        <time>2019-03-25T07:17:51Z</time>
      </trkpt>
      <trkpt lat="43.52328" lon="3.50036">
        <ele>51.7</ele>
        <time>2019-03-25T07:17:53Z</time>
      </trkpt>
      <trkpt lat="43.52324" lon="3.50036">
        <ele>52</ele>
        <time>2019-03-25T07:17:55Z</time>
      </trkpt>
      <trkpt lat="43.5232" lon="3.50037">
        <ele>52.2</ele>
        <time>2019-03-25T07:17:57Z</time>
      </trkpt>
      <trkpt lat="43.52317" lon="3.50035">
        <ele>52.4</ele>
        <time>2019-03-25T07:18:00Z</time>
      </trkpt>
      <trkpt lat="43.52314" lon="3.50033">
        <ele>52.6</ele>
        <time>2019-03-25T07:18:03Z</time>
      </trkpt>
      <trkpt lat="43.5231" lon="3.50033">
        <ele>52.8</ele>
        <time>2019-03-25T07:18:06Z</time>
      </trkpt>
      <trkpt lat="43.52308" lon="3.50032">
        <ele>53</ele>
        <time>2019-03-25T07:18:09Z</time>
      </trkpt>
      <trkpt lat="43.52305" lon="3.5003">
        <ele>53.1</ele>
        <time>2019-03-25T07:18:13Z</time>
      </trkpt>
      <trkpt lat="43.52302" lon="3.50031">
        <ele>53.3</ele>
        <time>2019-03-25T07:18:15Z</time>
      </trkpt>
      <trkpt lat="43.52298" lon="3.50032">
        <ele>53.5</ele>
        <time>2019-03-25T07:18:17Z</time>
      </trkpt>
      <trkpt lat="43.52295" lon="3.50034">
        <ele>53.6</ele>
        <time>2019-03-25T07:18:18Z</time>
      </trkpt>
      <trkpt lat="43.52292" lon="3.50035">
        <ele>53.8</ele>
        <time>2019-03-25T07:18:20Z</time>
      </trkpt>
      <trkpt lat="43.52289" lon="3.50035">
        <ele>54</ele>
        <time>2019-03-25T07:18:23Z</time>
      </trkpt>
      <trkpt lat="43.52286" lon="3.50037">
        <ele>54.4</ele>
        <time>2019-03-25T07:18:25Z</time>
      </trkpt>
      <trkpt lat="43.52283" lon="3.50036">
        <ele>54.6</ele>
        <time>2019-03-25T07:18:27Z</time>
      </trkpt>
      <trkpt lat="43.52282" lon="3.50032">
        <ele>54.9</ele>
        <time>2019-03-25T07:18:30Z</time>
      </trkpt>
      <trkpt lat="43.52279" lon="3.50031">
        <ele>55.2</ele>
        <time>2019-03-25T07:18:32Z</time>
      </trkpt>
      <trkpt lat="43.52276" lon="3.5003">
        <ele>55.4</ele>
        <time>2019-03-25T07:18:35Z</time>
      </trkpt>
      <trkpt lat="43.52272" lon="3.50028">
        <ele>55.6</ele>
        <time>2019-03-25T07:18:38Z</time>
      </trkpt>
      <trkpt lat="43.5227" lon="3.50025">
        <ele>55.8</ele>
        <time>2019-03-25T07:18:41Z</time>
      </trkpt>
      <trkpt lat="43.52266" lon="3.50023">
        <ele>56</ele>
        <time>2019-03-25T07:18:44Z</time>
      </trkpt>
      <trkpt lat="43.52262" lon="3.50022">
        <ele>56.3</ele>
        <time>2019-03-25T07:18:47Z</time>
      </trkpt>
      <trkpt lat="43.52259" lon="3.50022">
        <ele>56.5</ele>
        <time>2019-03-25T07:18:49Z</time>
      </trkpt>
      <trkpt lat="43.52256" lon="3.50021">
        <ele>56.8</ele>
        <time>2019-03-25T07:18:52Z</time>
      </trkpt>
      <trkpt lat="43.52252" lon="3.50019">
        <ele>57.1</ele>
        <time>2019-03-25T07:18:55Z</time>
      </trkpt>
      <trkpt lat="43.52248" lon="3.50019">
        <ele>57.3</ele>
        <time>2019-03-25T07:18:58Z</time>
      </trkpt>
      <trkpt lat="43.52246" lon="3.5002">
        <ele>57.5</ele>
        <time>2019-03-25T07:19:00Z</time>
      </trkpt>
      <trkpt lat="43.52243" lon="3.5002">
        <ele>57.7</ele>
        <time>2019-03-25T07:19:02Z</time>
      </trkpt>
      <trkpt lat="43.5224" lon="3.5002">
        <ele>58</ele>
        <time>2019-03-25T07:19:04Z</time>
      </trkpt>
      <trkpt lat="43.52236" lon="3.50021">
        <ele>58.1</ele>
        <time>2019-03-25T07:19:07Z</time>
      </trkpt>
      <trkpt lat="43.52232" lon="3.50021">
        <ele>58.3</ele>
        <time>2019-03-25T07:19:10Z</time>
      </trkpt>
      <trkpt lat="43.52229" lon="3.50022">
        <ele>58.5</ele>
        <time>2019-03-25T07:19:12Z</time>
      </trkpt>
      <trkpt lat="43.52226" lon="3.50024">
        <ele>58.7</ele>
        <time>2019-03-25T07:19:14Z</time>
      </trkpt>
      <trkpt lat="43.52223" lon="3.50024">
        <ele>58.9</ele>
        <time>2019-03-25T07:19:16Z</time>
      </trkpt>
      <trkpt lat="43.52219" lon="3.50025">
        <ele>59</ele>
        <time>2019-03-25T07:19:19Z</time>
      </trkpt>
      <trkpt lat="43.52216" lon="3.50027">
        <ele>59.2</ele>
        <time>2019-03-25T07:19:21Z</time>
      </trkpt>
      <trkpt lat="43.52213" lon="3.50028">
        <ele>59.3</ele>
        <time>2019-03-25T07:19:23Z</time>
      </trkpt>
      <trkpt lat="43.5221" lon="3.50029">
        <ele>59.5</ele>
        <time>2019-03-25T07:19:25Z</time>
      </trkpt>
      <trkpt lat="43.52207" lon="3.5003">
        <ele>59.8</ele>
        <time>2019-03-25T07:19:27Z</time>
      </trkpt>
      <trkpt lat="43.52204" lon="3.50032">
        <ele>60</ele>
        <time>2019-03-25T07:19:30Z</time>
      </trkpt>
      <trkpt lat="43.52201" lon="3.50032">
        <ele>60.2</ele>
        <time>2019-03-25T07:19:32Z</time>
      </trkpt>
      <trkpt lat="43.52198" lon="3.50033">
        <ele>60.4</ele>
        <time>2019-03-25T07:19:35Z</time>
      </trkpt>
      <trkpt lat="43.52194" lon="3.50034">
        <ele>60.5</ele>
        <time>2019-03-25T07:19:38Z</time>
      </trkpt>
      <trkpt lat="43.52191" lon="3.50035">
        <ele>60.7</ele>
        <time>2019-03-25T07:19:41Z</time>
      </trkpt>
      <trkpt lat="43.52188" lon="3.50037">
        <ele>60.9</ele>
        <time>2019-03-25T07:19:44Z</time>
      </trkpt>
      <trkpt lat="43.52185" lon="3.50038">
        <ele>61.1</ele>
        <time>2019-03-25T07:19:47Z</time>
      </trkpt>
      <trkpt lat="43.52181" lon="3.5004">
        <ele>61.3</ele>
        <time>2019-03-25T07:19:50Z</time>
      </trkpt>
      <trkpt lat="43.52178" lon="3.50041">
        <ele>61.5</ele>
        <time>2019-03-25T07:19:53Z</time>
      </trkpt>
      <trkpt lat="43.52174" lon="3.50043">
        <ele>61.8</ele>
        <time>2019-03-25T07:19:56Z</time>
      </trkpt>
      <trkpt lat="43.5217" lon="3.50044">
        <ele>62</ele>
        <time>2019-03-25T07:19:59Z</time>
      </trkpt>
      <trkpt lat="43.52167" lon="3.50044">
        <ele>62.1</ele>
        <time>2019-03-25T07:20:02Z</time>
      </trkpt>
      <trkpt lat="43.52164" lon="3.50045">
        <ele>62.2</ele>
        <time>2019-03-25T07:20:04Z</time>
      </trkpt>
      <trkpt lat="43.52161" lon="3.50046">
        <ele>62.5</ele>
        <time>2019-03-25T07:20:07Z</time>
      </trkpt>
      <trkpt lat="43.52158" lon="3.50047">
        <ele>62.7</ele>
        <time>2019-03-25T07:20:09Z</time>
      </trkpt>
      <trkpt lat="43.52154" lon="3.50048">
        <ele>62.9</ele>
        <time>2019-03-25T07:20:12Z</time>
      </trkpt>
      <trkpt lat="43.52151" lon="3.50049">
        <ele>63</ele>
        <time>2019-03-25T07:20:14Z</time>
      </trkpt>
      <trkpt lat="43.52148" lon="3.50051">
        <ele>63.2</ele>
        <time>2019-03-25T07:20:17Z</time>
      </trkpt>
      <trkpt lat="43.52145" lon="3.50051">
        <ele>63.4</ele>
        <time>2019-03-25T07:20:20Z</time>
      </trkpt>
      <trkpt lat="43.52141" lon="3.50052">
        <ele>63.5</ele>
        <time>2019-03-25T07:20:23Z</time>
      </trkpt>
      <trkpt lat="43.52138" lon="3.50052">
        <ele>63.6</ele>
        <time>2019-03-25T07:20:25Z</time>
      </trkpt>
      <trkpt lat="43.52134" lon="3.50052">
        <ele>63.6</ele>
        <time>2019-03-25T07:20:28Z</time>
      </trkpt>
      <trkpt lat="43.5213" lon="3.50053">
        <ele>63.6</ele>
        <time>2019-03-25T07:20:31Z</time>
      </trkpt>
      <trkpt lat="43.52127" lon="3.50053">
        <ele>63.7</ele>
        <time>2019-03-25T07:20:34Z</time>
      </trkpt>
      <trkpt lat="43.52124" lon="3.50055">
        <ele>63.8</ele>
        <time>2019-03-25T07:20:37Z</time>
      </trkpt>
      <trkpt lat="43.5212" lon="3.50056">
        <ele>64.1</ele>
        <time>2019-03-25T07:20:40Z</time>
      </trkpt>
      <trkpt lat="43.52117" lon="3.50057">
        <ele>64.3</ele>
        <time>2019-03-25T07:20:42Z</time>
      </trkpt>
      <trkpt lat="43.52115" lon="3.50057">
        <ele>64.5</ele>
        <time>2019-03-25T07:20:44Z</time>
      </trkpt>
      <trkpt lat="43.52111" lon="3.50058">
        <ele>64.8</ele>
        <time>2019-03-25T07:20:47Z</time>
      </trkpt>
      <trkpt lat="43.52108" lon="3.50059">
        <ele>65.1</ele>
        <time>2019-03-25T07:20:49Z</time>
      </trkpt>
      <trkpt lat="43.52105" lon="3.50059">
        <ele>65.3</ele>
        <time>2019-03-25T07:20:51Z</time>
      </trkpt>
      <trkpt lat="43.52101" lon="3.50059">
        <ele>65.4</ele>
        <time>2019-03-25T07:20:54Z</time>
      </trkpt>
      <trkpt lat="43.52098" lon="3.50059">
        <ele>65.6</ele>
        <time>2019-03-25T07:20:56Z</time>
      </trkpt>
      <trkpt lat="43.52095" lon="3.50059">
        <ele>65.9</ele>
        <time>2019-03-25T07:20:59Z</time>
      </trkpt>
      <trkpt lat="43.52092" lon="3.50061">
        <ele>66.1</ele>
        <time>2019-03-25T07:21:01Z</time>
      </trkpt>
      <trkpt lat="43.52089" lon="3.50061">
        <ele>66.4</ele>
        <time>2019-03-25T07:21:03Z</time>
      </trkpt>
      <trkpt lat="43.52085" lon="3.50061">
        <ele>66.7</ele>
        <time>2019-03-25T07:21:06Z</time>
      </trkpt>
      <trkpt lat="43.52082" lon="3.50061">
        <ele>67</ele>
        <time>2019-03-25T07:21:08Z</time>
      </trkpt>
      <trkpt lat="43.52078" lon="3.50062">
        <ele>67.4</ele>
        <time>2019-03-25T07:21:11Z</time>
      </trkpt>
      <trkpt lat="43.52075" lon="3.50062">
        <ele>67.7</ele>
        <time>2019-03-25T07:21:13Z</time>
      </trkpt>
      <trkpt lat="43.52072" lon="3.50062">
        <ele>68</ele>
        <time>2019-03-25T07:21:15Z</time>
      </trkpt>
      <trkpt lat="43.52069" lon="3.50062">
        <ele>68.1</ele>
        <time>2019-03-25T07:21:18Z</time>
      </trkpt>
      <trkpt lat="43.52066" lon="3.50064">
        <ele>68.3</ele>
        <time>2019-03-25T07:21:20Z</time>
      </trkpt>
      <trkpt lat="43.52063" lon="3.50065">
        <ele>68.5</ele>
        <time>2019-03-25T07:21:22Z</time>
      </trkpt>
      <trkpt lat="43.5206" lon="3.50066">
        <ele>68.9</ele>
        <time>2019-03-25T07:21:25Z</time>
      </trkpt>
      <trkpt lat="43.52057" lon="3.50066">
        <ele>69.2</ele>
        <time>2019-03-25T07:21:27Z</time>
      </trkpt>
      <trkpt lat="43.52053" lon="3.50067">
        <ele>69.7</ele>
        <time>2019-03-25T07:21:29Z</time>
      </trkpt>
      <trkpt lat="43.5205" lon="3.50068">
        <ele>70.1</ele>
        <time>2019-03-25T07:21:32Z</time>
      </trkpt>
      <trkpt lat="43.52048" lon="3.50068">
        <ele>70.4</ele>
        <time>2019-03-25T07:21:34Z</time>
      </trkpt>
      <trkpt lat="43.52045" lon="3.50068">
        <ele>70.7</ele>
        <time>2019-03-25T07:21:37Z</time>
      </trkpt>
      <trkpt lat="43.52042" lon="3.50068">
        <ele>71</ele>
        <time>2019-03-25T07:21:40Z</time>
      </trkpt>
      <trkpt lat="43.52038" lon="3.50068">
        <ele>71.4</ele>
        <time>2019-03-25T07:21:43Z</time>
      </trkpt>
      <trkpt lat="43.52034" lon="3.50069">
        <ele>72</ele>
        <time>2019-03-25T07:21:46Z</time>
      </trkpt>
      <trkpt lat="43.52031" lon="3.5007">
        <ele>72.4</ele>
        <time>2019-03-25T07:21:48Z</time>
      </trkpt>
      <trkpt lat="43.52028" lon="3.5007">
        <ele>72.8</ele>
        <time>2019-03-25T07:21:50Z</time>
      </trkpt>
      <trkpt lat="43.52024" lon="3.50071">
        <ele>73.2</ele>
        <time>2019-03-25T07:21:53Z</time>
      </trkpt>
      <trkpt lat="43.52021" lon="3.50071">
        <ele>73.5</ele>
        <time>2019-03-25T07:21:55Z</time>
      </trkpt>
      <trkpt lat="43.52018" lon="3.50072">
        <ele>73.9</ele>
        <time>2019-03-25T07:21:58Z</time>
      </trkpt>
      <trkpt lat="43.52016" lon="3.50073">
        <ele>74.3</ele>
        <time>2019-03-25T07:22:00Z</time>
      </trkpt>
      <trkpt lat="43.52013" lon="3.50074">
        <ele>74.6</ele>
        <time>2019-03-25T07:22:02Z</time>
      </trkpt>
      <trkpt lat="43.52009" lon="3.50076">
        <ele>75</ele>
        <time>2019-03-25T07:22:05Z</time>
      </trkpt>
      <trkpt lat="43.52007" lon="3.50077">
        <ele>75.4</ele>
        <time>2019-03-25T07:22:07Z</time>
      </trkpt>
      <trkpt lat="43.52003" lon="3.50077">
        <ele>75.8</ele>
        <time>2019-03-25T07:22:10Z</time>
      </trkpt>
      <trkpt lat="43.52001" lon="3.50078">
        <ele>76.2</ele>
        <time>2019-03-25T07:22:12Z</time>
      </trkpt>
      <trkpt lat="43.51998" lon="3.50078">
        <ele>76.6</ele>
        <time>2019-03-25T07:22:14Z</time>
      </trkpt>
      <trkpt lat="43.51995" lon="3.50079">
        <ele>77</ele>
        <time>2019-03-25T07:22:17Z</time>
      </trkpt>
      <trkpt lat="43.51991" lon="3.5008">
        <ele>77.4</ele>
        <time>2019-03-25T07:22:20Z</time>
      </trkpt>
      <trkpt lat="43.51987" lon="3.50082">
        <ele>77.7</ele>
        <time>2019-03-25T07:22:23Z</time>
      </trkpt>
      <trkpt lat="43.51984" lon="3.50083">
        <ele>78</ele>
        <time>2019-03-25T07:22:26Z</time>
      </trkpt>
      <trkpt lat="43.51981" lon="3.50084">
        <ele>78.2</ele>
        <time>2019-03-25T07:22:29Z</time>
      </trkpt>
      <trkpt lat="43.51978" lon="3.50084">
        <ele>78.4</ele>
        <time>2019-03-25T07:22:31Z</time>
      </trkpt>
      <trkpt lat="43.51974" lon="3.50085">
        <ele>78.6</ele>
        <time>2019-03-25T07:22:34Z</time>
      </trkpt>
      <trkpt lat="43.5197" lon="3.50086">
        <ele>79</ele>
        <time>2019-03-25T07:22:37Z</time>
      </trkpt>
      <trkpt lat="43.51967" lon="3.50086">
        <ele>79.3</ele>
        <time>2019-03-25T07:22:40Z</time>
      </trkpt>
      <trkpt lat="43.51964" lon="3.50086">
        <ele>79.4</ele>
        <time>2019-03-25T07:22:43Z</time>
      </trkpt>
      <trkpt lat="43.51961" lon="3.50086">
        <ele>79.5</ele>
        <time>2019-03-25T07:22:46Z</time>
      </trkpt>
      <trkpt lat="43.51958" lon="3.50087">
        <ele>79.6</ele>
        <time>2019-03-25T07:22:49Z</time>
      </trkpt>
      <trkpt lat="43.51955" lon="3.50088">
        <ele>79.8</ele>
        <time>2019-03-25T07:22:52Z</time>
      </trkpt>
      <trkpt lat="43.51952" lon="3.50088">
        <ele>80</ele>
        <time>2019-03-25T07:22:55Z</time>
      </trkpt>
      <trkpt lat="43.51949" lon="3.50089">
        <ele>80.2</ele>
        <time>2019-03-25T07:22:59Z</time>
      </trkpt>
      <trkpt lat="43.51945" lon="3.50089">
        <ele>80.5</ele>
        <time>2019-03-25T07:23:03Z</time>
      </trkpt>
      <trkpt lat="43.51942" lon="3.5009">
        <ele>80.8</ele>
        <time>2019-03-25T07:23:05Z</time>
      </trkpt>
      <trkpt lat="43.51939" lon="3.50091">
        <ele>81.1</ele>
        <time>2019-03-25T07:23:07Z</time>
      </trkpt>
      <trkpt lat="43.51936" lon="3.50092">
        <ele>81.4</ele>
        <time>2019-03-25T07:23:09Z</time>
      </trkpt>
      <trkpt lat="43.51933" lon="3.50093">
        <ele>81.6</ele>
        <time>2019-03-25T07:23:12Z</time>
      </trkpt>
      <trkpt lat="43.51929" lon="3.50095">
        <ele>81.7</ele>
        <time>2019-03-25T07:23:15Z</time>
      </trkpt>
      <trkpt lat="43.51926" lon="3.50098">
        <ele>81.6</ele>
        <time>2019-03-25T07:23:18Z</time>
      </trkpt>
      <trkpt lat="43.51923" lon="3.501">
        <ele>81.6</ele>
        <time>2019-03-25T07:23:20Z</time>
      </trkpt>
      <trkpt lat="43.5192" lon="3.50101">
        <ele>81.7</ele>
        <time>2019-03-25T07:23:22Z</time>
      </trkpt>
      <trkpt lat="43.51917" lon="3.50102">
        <ele>81.9</ele>
        <time>2019-03-25T07:23:24Z</time>
      </trkpt>
      <trkpt lat="43.51913" lon="3.50104">
        <ele>82</ele>
        <time>2019-03-25T07:23:27Z</time>
      </trkpt>
      <trkpt lat="43.5191" lon="3.50106">
        <ele>81.9</ele>
        <time>2019-03-25T07:23:29Z</time>
      </trkpt>
      <trkpt lat="43.51907" lon="3.5011">
        <ele>81.7</ele>
        <time>2019-03-25T07:23:31Z</time>
      </trkpt>
      <trkpt lat="43.51904" lon="3.50113">
        <ele>81.5</ele>
        <time>2019-03-25T07:23:33Z</time>
      </trkpt>
      <trkpt lat="43.51902" lon="3.50115">
        <ele>81.3</ele>
        <time>2019-03-25T07:23:35Z</time>
      </trkpt>
      <trkpt lat="43.51899" lon="3.50118">
        <ele>81.2</ele>
        <time>2019-03-25T07:23:37Z</time>
      </trkpt>
      <trkpt lat="43.51896" lon="3.5012">
        <ele>81.1</ele>
        <time>2019-03-25T07:23:39Z</time>
      </trkpt>
      <trkpt lat="43.51892" lon="3.5012">
        <ele>81.1</ele>
        <time>2019-03-25T07:23:42Z</time>
      </trkpt>
      <trkpt lat="43.5189" lon="3.50117">
        <ele>81.1</ele>
        <time>2019-03-25T07:23:44Z</time>
      </trkpt>
      <trkpt lat="43.51888" lon="3.50112">
        <ele>81.3</ele>
        <time>2019-03-25T07:23:47Z</time>
      </trkpt>
      <trkpt lat="43.51886" lon="3.50108">
        <ele>81.8</ele>
        <time>2019-03-25T07:23:49Z</time>
      </trkpt>
      <trkpt lat="43.51884" lon="3.50104">
        <ele>82.3</ele>
        <time>2019-03-25T07:23:52Z</time>
      </trkpt>
      <trkpt lat="43.51882" lon="3.50099">
        <ele>82.8</ele>
        <time>2019-03-25T07:23:55Z</time>
      </trkpt>
      <trkpt lat="43.51879" lon="3.50095">
        <ele>83.3</ele>
        <time>2019-03-25T07:23:58Z</time>
      </trkpt>
      <trkpt lat="43.51878" lon="3.50092">
        <ele>83.7</ele>
        <time>2019-03-25T07:24:00Z</time>
      </trkpt>
      <trkpt lat="43.51876" lon="3.50088">
        <ele>84.1</ele>
        <time>2019-03-25T07:24:03Z</time>
      </trkpt>
      <trkpt lat="43.51874" lon="3.50084">
        <ele>84.6</ele>
        <time>2019-03-25T07:24:06Z</time>
      </trkpt>
      <trkpt lat="43.51872" lon="3.50081">
        <ele>85.1</ele>
        <time>2019-03-25T07:24:08Z</time>
      </trkpt>
      <trkpt lat="43.5187" lon="3.50077">
        <ele>85.6</ele>
        <time>2019-03-25T07:24:10Z</time>
      </trkpt>
      <trkpt lat="43.51868" lon="3.50073">
        <ele>86.1</ele>
        <time>2019-03-25T07:24:12Z</time>
      </trkpt>
      <trkpt lat="43.51866" lon="3.5007">
        <ele>86.6</ele>
        <time>2019-03-25T07:24:14Z</time>
      </trkpt>
      <trkpt lat="43.51864" lon="3.50066">
        <ele>87.1</ele>
        <time>2019-03-25T07:24:17Z</time>
      </trkpt>
      <trkpt lat="43.51862" lon="3.50063">
        <ele>87.4</ele>
        <time>2019-03-25T07:24:20Z</time>
      </trkpt>
      <trkpt lat="43.51859" lon="3.5006">
        <ele>87.8</ele>
        <time>2019-03-25T07:24:26Z</time>
      </trkpt>
      <trkpt lat="43.51857" lon="3.50057">
        <ele>88.2</ele>
        <time>2019-03-25T07:24:28Z</time>
      </trkpt>
      <trkpt lat="43.51854" lon="3.50054">
        <ele>88.7</ele>
        <time>2019-03-25T07:24:31Z</time>
      </trkpt>
      <trkpt lat="43.51851" lon="3.50051">
        <ele>89.2</ele>
        <time>2019-03-25T07:24:34Z</time>
      </trkpt>
      <trkpt lat="43.51849" lon="3.50047">
        <ele>89.5</ele>
        <time>2019-03-25T07:24:37Z</time>
      </trkpt>
      <trkpt lat="43.51847" lon="3.50043">
        <ele>89.8</ele>
        <time>2019-03-25T07:24:40Z</time>
      </trkpt>
      <trkpt lat="43.51845" lon="3.5004">
        <ele>90.2</ele>
        <time>2019-03-25T07:24:43Z</time>
      </trkpt>
      <trkpt lat="43.51842" lon="3.50037">
        <ele>90.6</ele>
        <time>2019-03-25T07:24:46Z</time>
      </trkpt>
      <trkpt lat="43.51839" lon="3.50036">
        <ele>91</ele>
        <time>2019-03-25T07:24:48Z</time>
      </trkpt>
      <trkpt lat="43.51837" lon="3.50032">
        <ele>91.6</ele>
        <time>2019-03-25T07:24:51Z</time>
      </trkpt>
      <trkpt lat="43.51835" lon="3.50029">
        <ele>92</ele>
        <time>2019-03-25T07:24:53Z</time>
      </trkpt>
      <trkpt lat="43.51833" lon="3.50027">
        <ele>92.4</ele>
        <time>2019-03-25T07:24:55Z</time>
      </trkpt>
      <trkpt lat="43.5183" lon="3.50023">
        <ele>92.8</ele>
        <time>2019-03-25T07:24:58Z</time>
      </trkpt>
      <trkpt lat="43.51827" lon="3.50021">
        <ele>93.1</ele>
        <time>2019-03-25T07:25:01Z</time>
      </trkpt>
      <trkpt lat="43.51823" lon="3.50018">
        <ele>93.6</ele>
        <time>2019-03-25T07:25:04Z</time>
      </trkpt>
      <trkpt lat="43.51821" lon="3.50014">
        <ele>93.9</ele>
        <time>2019-03-25T07:25:07Z</time>
      </trkpt>
      <trkpt lat="43.51821" lon="3.50009">
        <ele>94.3</ele>
        <time>2019-03-25T07:25:10Z</time>
      </trkpt>
      <trkpt lat="43.5182" lon="3.50006">
        <ele>94.6</ele>
        <time>2019-03-25T07:25:12Z</time>
      </trkpt>
      <trkpt lat="43.5182" lon="3.50002">
        <ele>94.7</ele>
        <time>2019-03-25T07:25:14Z</time>
      </trkpt>
      <trkpt lat="43.5182" lon="3.49998">
        <ele>94.7</ele>
        <time>2019-03-25T07:25:16Z</time>
      </trkpt>
      <trkpt lat="43.51822" lon="3.49995">
        <ele>94.6</ele>
        <time>2019-03-25T07:25:18Z</time>
      </trkpt>
      <trkpt lat="43.51825" lon="3.49993">
        <ele>94.6</ele>
        <time>2019-03-25T07:25:20Z</time>
      </trkpt>
      <trkpt lat="43.51827" lon="3.49989">
        <ele>94.3</ele>
        <time>2019-03-25T07:25:23Z</time>
      </trkpt>
      <trkpt lat="43.5183" lon="3.49986">
        <ele>94.1</ele>
        <time>2019-03-25T07:25:26Z</time>
      </trkpt>
      <trkpt lat="43.51833" lon="3.49983">
        <ele>93.8</ele>
        <time>2019-03-25T07:25:29Z</time>
      </trkpt>
      <trkpt lat="43.51835" lon="3.49981">
        <ele>93.7</ele>
        <time>2019-03-25T07:25:32Z</time>
      </trkpt>
      <trkpt lat="43.51837" lon="3.49978">
        <ele>93.5</ele>
        <time>2019-03-25T07:25:35Z</time>
      </trkpt>
      <trkpt lat="43.51839" lon="3.49975">
        <ele>93.1</ele>
        <time>2019-03-25T07:25:38Z</time>
      </trkpt>
      <trkpt lat="43.5184" lon="3.49971">
        <ele>92.8</ele>
        <time>2019-03-25T07:25:41Z</time>
      </trkpt>
      <trkpt lat="43.51841" lon="3.49966">
        <ele>92.3</ele>
        <time>2019-03-25T07:25:44Z</time>
      </trkpt>
      <trkpt lat="43.51842" lon="3.49963">
        <ele>92</ele>
        <time>2019-03-25T07:25:46Z</time>
      </trkpt>
      <trkpt lat="43.51843" lon="3.49957">
        <ele>91.5</ele>
        <time>2019-03-25T07:25:49Z</time>
      </trkpt>
      <trkpt lat="43.51844" lon="3.49953">
        <ele>91.3</ele>
        <time>2019-03-25T07:25:51Z</time>
      </trkpt>
      <trkpt lat="43.51844" lon="3.49948">
        <ele>92.4</ele>
        <time>2019-03-25T07:25:54Z</time>
      </trkpt>
      <trkpt lat="43.51842" lon="3.49944">
        <ele>92.9</ele>
        <time>2019-03-25T07:25:57Z</time>
      </trkpt>
      <trkpt lat="43.51839" lon="3.49941">
        <ele>93.4</ele>
        <time>2019-03-25T07:26:00Z</time>
      </trkpt>
      <trkpt lat="43.51836" lon="3.49941">
        <ele>93.9</ele>
        <time>2019-03-25T07:26:03Z</time>
      </trkpt>
      <trkpt lat="43.51832" lon="3.49939">
        <ele>94.4</ele>
        <time>2019-03-25T07:26:06Z</time>
      </trkpt>
      <trkpt lat="43.51829" lon="3.49938">
        <ele>94.8</ele>
        <time>2019-03-25T07:26:09Z</time>
      </trkpt>
      <trkpt lat="43.51826" lon="3.49938">
        <ele>95.2</ele>
        <time>2019-03-25T07:26:12Z</time>
      </trkpt>
      <trkpt lat="43.51824" lon="3.49936">
        <ele>95.6</ele>
        <time>2019-03-25T07:26:16Z</time>
      </trkpt>
      <trkpt lat="43.5182" lon="3.49936">
        <ele>96.1</ele>
        <time>2019-03-25T07:26:20Z</time>
      </trkpt>
      <trkpt lat="43.51817" lon="3.49935">
        <ele>96.6</ele>
        <time>2019-03-25T07:26:23Z</time>
      </trkpt>
      <trkpt lat="43.51813" lon="3.49934">
        <ele>97.3</ele>
        <time>2019-03-25T07:26:26Z</time>
      </trkpt>
      <trkpt lat="43.51811" lon="3.49932">
        <ele>97.6</ele>
        <time>2019-03-25T07:26:28Z</time>
      </trkpt>
      <trkpt lat="43.51808" lon="3.4993">
        <ele>97.9</ele>
        <time>2019-03-25T07:26:30Z</time>
      </trkpt>
      <trkpt lat="43.51805" lon="3.49929">
        <ele>98.4</ele>
        <time>2019-03-25T07:26:33Z</time>
      </trkpt>
      <trkpt lat="43.51801" lon="3.49928">
        <ele>98.7</ele>
        <time>2019-03-25T07:26:36Z</time>
      </trkpt>
      <trkpt lat="43.51799" lon="3.49927">
        <ele>99</ele>
        <time>2019-03-25T07:26:38Z</time>
      </trkpt>
      <trkpt lat="43.51796" lon="3.49927">
        <ele>99.6</ele>
        <time>2019-03-25T07:26:43Z</time>
      </trkpt>
      <trkpt lat="43.51792" lon="3.49926">
        <ele>100.2</ele>
        <time>2019-03-25T07:26:46Z</time>
      </trkpt>
      <trkpt lat="43.51789" lon="3.49926">
        <ele>100.7</ele>
        <time>2019-03-25T07:26:50Z</time>
      </trkpt>
      <trkpt lat="43.51786" lon="3.49927">
        <ele>101.3</ele>
        <time>2019-03-25T07:26:53Z</time>
      </trkpt>
      <trkpt lat="43.51783" lon="3.49926">
        <ele>101.7</ele>
        <time>2019-03-25T07:26:56Z</time>
      </trkpt>
      <trkpt lat="43.51779" lon="3.49927">
        <ele>102.2</ele>
        <time>2019-03-25T07:27:00Z</time>
      </trkpt>
      <trkpt lat="43.51776" lon="3.49927">
        <ele>102.7</ele>
        <time>2019-03-25T07:27:04Z</time>
      </trkpt>
      <trkpt lat="43.51772" lon="3.49927">
        <ele>103.2</ele>
        <time>2019-03-25T07:27:07Z</time>
      </trkpt>
      <trkpt lat="43.5177" lon="3.49925">
        <ele>103.6</ele>
        <time>2019-03-25T07:27:09Z</time>
      </trkpt>
      <trkpt lat="43.51767" lon="3.49922">
        <ele>103.9</ele>
        <time>2019-03-25T07:27:11Z</time>
      </trkpt>
      <trkpt lat="43.51765" lon="3.49921">
        <ele>104.2</ele>
        <time>2019-03-25T07:27:13Z</time>
      </trkpt>
      <trkpt lat="43.51761" lon="3.49921">
        <ele>104.5</ele>
        <time>2019-03-25T07:27:15Z</time>
      </trkpt>
      <trkpt lat="43.51758" lon="3.4992">
        <ele>104.7</ele>
        <time>2019-03-25T07:27:17Z</time>
      </trkpt>
      <trkpt lat="43.51755" lon="3.49919">
        <ele>104.9</ele>
        <time>2019-03-25T07:27:19Z</time>
      </trkpt>
      <trkpt lat="43.51752" lon="3.49916">
        <ele>105.1</ele>
        <time>2019-03-25T07:27:21Z</time>
      </trkpt>
      <trkpt lat="43.51749" lon="3.49914">
        <ele>105.2</ele>
        <time>2019-03-25T07:27:23Z</time>
      </trkpt>
      <trkpt lat="43.51747" lon="3.49911">
        <ele>105.4</ele>
        <time>2019-03-25T07:27:25Z</time>
      </trkpt>
      <trkpt lat="43.51744" lon="3.49909">
        <ele>105.6</ele>
        <time>2019-03-25T07:27:28Z</time>
      </trkpt>
      <trkpt lat="43.51741" lon="3.49909">
        <ele>105.7</ele>
        <time>2019-03-25T07:27:31Z</time>
      </trkpt>
      <trkpt lat="43.51738" lon="3.49908">
        <ele>105.8</ele>
        <time>2019-03-25T07:27:34Z</time>
      </trkpt>
      <trkpt lat="43.51735" lon="3.49906">
        <ele>105.9</ele>
        <time>2019-03-25T07:27:36Z</time>
      </trkpt>
      <trkpt lat="43.51732" lon="3.49904">
        <ele>106</ele>
        <time>2019-03-25T07:27:39Z</time>
      </trkpt>
      <trkpt lat="43.51729" lon="3.49902">
        <ele>106.1</ele>
        <time>2019-03-25T07:27:42Z</time>
      </trkpt>
      <trkpt lat="43.51727" lon="3.499">
        <ele>106.2</ele>
        <time>2019-03-25T07:27:45Z</time>
      </trkpt>
      <trkpt lat="43.51723" lon="3.49897">
        <ele>106.3</ele>
        <time>2019-03-25T07:27:48Z</time>
      </trkpt>
      <trkpt lat="43.5172" lon="3.49894">
        <ele>106.3</ele>
        <time>2019-03-25T07:27:50Z</time>
      </trkpt>
      <trkpt lat="43.51717" lon="3.49892">
        <ele>106.4</ele>
        <time>2019-03-25T07:27:52Z</time>
      </trkpt>
      <trkpt lat="43.51715" lon="3.4989">
        <ele>106.4</ele>
        <time>2019-03-25T07:27:54Z</time>
      </trkpt>
      <trkpt lat="43.51713" lon="3.49887">
        <ele>106.4</ele>
        <time>2019-03-25T07:27:56Z</time>
      </trkpt>
      <trkpt lat="43.51711" lon="3.49885">
        <ele>106.4</ele>
        <time>2019-03-25T07:27:58Z</time>
      </trkpt>
      <trkpt lat="43.51708" lon="3.49882">
        <ele>106.4</ele>
        <time>2019-03-25T07:28:01Z</time>
      </trkpt>
      <trkpt lat="43.51706" lon="3.4988">
        <ele>106.5</ele>
        <time>2019-03-25T07:28:03Z</time>
      </trkpt>
      <trkpt lat="43.51702" lon="3.49878">
        <ele>106.5</ele>
        <time>2019-03-25T07:28:06Z</time>
      </trkpt>
      <trkpt lat="43.517" lon="3.49876">
        <ele>106.4</ele>
        <time>2019-03-25T07:28:08Z</time>
      </trkpt>
      <trkpt lat="43.51697" lon="3.49873">
        <ele>106.4</ele>
        <time>2019-03-25T07:28:10Z</time>
      </trkpt>
      <trkpt lat="43.51696" lon="3.49868">
        <ele>106.6</ele>
        <time>2019-03-25T07:28:13Z</time>
      </trkpt>
      <trkpt lat="43.51697" lon="3.49862">
        <ele>106.7</ele>
        <time>2019-03-25T07:28:16Z</time>
      </trkpt>
      <trkpt lat="43.51698" lon="3.49859">
        <ele>106.7</ele>
        <time>2019-03-25T07:28:18Z</time>
      </trkpt>
      <trkpt lat="43.51699" lon="3.49854">
        <ele>106.8</ele>
        <time>2019-03-25T07:28:21Z</time>
      </trkpt>
      <trkpt lat="43.51699" lon="3.4985">
        <ele>106.8</ele>
        <time>2019-03-25T07:28:23Z</time>
      </trkpt>
      <trkpt lat="43.51699" lon="3.49846">
        <ele>106.9</ele>
        <time>2019-03-25T07:28:25Z</time>
      </trkpt>
      <trkpt lat="43.51699" lon="3.49842">
        <ele>106.9</ele>
        <time>2019-03-25T07:28:27Z</time>
      </trkpt>
      <trkpt lat="43.51698" lon="3.49838">
        <ele>106.9</ele>
        <time>2019-03-25T07:28:29Z</time>
      </trkpt>
      <trkpt lat="43.51698" lon="3.49834">
        <ele>106.9</ele>
        <time>2019-03-25T07:28:31Z</time>
      </trkpt>
      <trkpt lat="43.51698" lon="3.49829">
        <ele>107</ele>
        <time>2019-03-25T07:28:34Z</time>
      </trkpt>
      <trkpt lat="43.51699" lon="3.49824">
        <ele>107.1</ele>
        <time>2019-03-25T07:28:37Z</time>
      </trkpt>
      <trkpt lat="43.51699" lon="3.49818">
        <ele>107.1</ele>
        <time>2019-03-25T07:28:40Z</time>
      </trkpt>
      <trkpt lat="43.51699" lon="3.49813">
        <ele>107.3</ele>
        <time>2019-03-25T07:28:43Z</time>
      </trkpt>
      <trkpt lat="43.51699" lon="3.49809">
        <ele>107.3</ele>
        <time>2019-03-25T07:28:45Z</time>
      </trkpt>
      <trkpt lat="43.517" lon="3.49803">
        <ele>107.5</ele>
        <time>2019-03-25T07:28:48Z</time>
      </trkpt>
      <trkpt lat="43.517" lon="3.498">
        <ele>107.6</ele>
        <time>2019-03-25T07:28:50Z</time>
      </trkpt>
      <trkpt lat="43.517" lon="3.49796">
        <ele>107.7</ele>
        <time>2019-03-25T07:28:52Z</time>
      </trkpt>
      <trkpt lat="43.517" lon="3.4979">
        <ele>107.8</ele>
        <time>2019-03-25T07:28:55Z</time>
      </trkpt>
      <trkpt lat="43.517" lon="3.49785">
        <ele>107.9</ele>
        <time>2019-03-25T07:28:58Z</time>
      </trkpt>
      <trkpt lat="43.51701" lon="3.49781">
        <ele>108</ele>
        <time>2019-03-25T07:29:01Z</time>
      </trkpt>
      <trkpt lat="43.51702" lon="3.49776">
        <ele>108.2</ele>
        <time>2019-03-25T07:29:04Z</time>
      </trkpt>
      <trkpt lat="43.51702" lon="3.49772">
        <ele>108.3</ele>
        <time>2019-03-25T07:29:06Z</time>
      </trkpt>
      <trkpt lat="43.51703" lon="3.49768">
        <ele>108.4</ele>
        <time>2019-03-25T07:29:08Z</time>
      </trkpt>
      <trkpt lat="43.51703" lon="3.49763">
        <ele>108.4</ele>
        <time>2019-03-25T07:29:11Z</time>
      </trkpt>
      <trkpt lat="43.51703" lon="3.49758">
        <ele>108.5</ele>
        <time>2019-03-25T07:29:13Z</time>
      </trkpt>
      <trkpt lat="43.51703" lon="3.49753">
        <ele>108.7</ele>
        <time>2019-03-25T07:29:15Z</time>
      </trkpt>
      <trkpt lat="43.51705" lon="3.49749">
        <ele>108.8</ele>
        <time>2019-03-25T07:29:18Z</time>
      </trkpt>
      <trkpt lat="43.51707" lon="3.49746">
        <ele>109</ele>
        <time>2019-03-25T07:29:20Z</time>
      </trkpt>
      <trkpt lat="43.51709" lon="3.49742">
        <ele>109.2</ele>
        <time>2019-03-25T07:29:22Z</time>
      </trkpt>
      <trkpt lat="43.5171" lon="3.49737">
        <ele>109.4</ele>
        <time>2019-03-25T07:29:25Z</time>
      </trkpt>
      <trkpt lat="43.51711" lon="3.49732">
        <ele>109.6</ele>
        <time>2019-03-25T07:29:28Z</time>
      </trkpt>
      <trkpt lat="43.51712" lon="3.49728">
        <ele>109.7</ele>
        <time>2019-03-25T07:29:30Z</time>
      </trkpt>
      <trkpt lat="43.51714" lon="3.49724">
        <ele>109.9</ele>
        <time>2019-03-25T07:29:33Z</time>
      </trkpt>
      <trkpt lat="43.51716" lon="3.49721">
        <ele>110</ele>
        <time>2019-03-25T07:29:35Z</time>
      </trkpt>
      <trkpt lat="43.51717" lon="3.49717">
        <ele>110.2</ele>
        <time>2019-03-25T07:29:38Z</time>
      </trkpt>
      <trkpt lat="43.51719" lon="3.49712">
        <ele>110.3</ele>
        <time>2019-03-25T07:29:41Z</time>
      </trkpt>
      <trkpt lat="43.5172" lon="3.49707">
        <ele>110.5</ele>
        <time>2019-03-25T07:29:44Z</time>
      </trkpt>
      <trkpt lat="43.51721" lon="3.49703">
        <ele>110.5</ele>
        <time>2019-03-25T07:29:47Z</time>
      </trkpt>
      <trkpt lat="43.51722" lon="3.49698">
        <ele>110.6</ele>
        <time>2019-03-25T07:29:50Z</time>
      </trkpt>
      <trkpt lat="43.51723" lon="3.49693">
        <ele>110.6</ele>
        <time>2019-03-25T07:29:53Z</time>
      </trkpt>
      <trkpt lat="43.51724" lon="3.49689">
        <ele>110.7</ele>
        <time>2019-03-25T07:29:56Z</time>
      </trkpt>
      <trkpt lat="43.51724" lon="3.49684">
        <ele>110.8</ele>
        <time>2019-03-25T07:29:59Z</time>
      </trkpt>
      <trkpt lat="43.51725" lon="3.49678">
        <ele>110.9</ele>
        <time>2019-03-25T07:30:02Z</time>
      </trkpt>
      <trkpt lat="43.51726" lon="3.49674">
        <ele>110.9</ele>
        <time>2019-03-25T07:30:04Z</time>
      </trkpt>
      <trkpt lat="43.51727" lon="3.49669">
        <ele>111</ele>
        <time>2019-03-25T07:30:07Z</time>
      </trkpt>
      <trkpt lat="43.51727" lon="3.49665">
        <ele>111</ele>
        <time>2019-03-25T07:30:09Z</time>
      </trkpt>
      <trkpt lat="43.51729" lon="3.4966">
        <ele>111</ele>
        <time>2019-03-25T07:30:12Z</time>
      </trkpt>
      <trkpt lat="43.51729" lon="3.49656">
        <ele>111</ele>
        <time>2019-03-25T07:30:14Z</time>
      </trkpt>
      <trkpt lat="43.5173" lon="3.49652">
        <ele>111</ele>
        <time>2019-03-25T07:30:16Z</time>
      </trkpt>
      <trkpt lat="43.5173" lon="3.49647">
        <ele>111</ele>
        <time>2019-03-25T07:30:19Z</time>
      </trkpt>
      <trkpt lat="43.51731" lon="3.49643">
        <ele>111.1</ele>
        <time>2019-03-25T07:30:21Z</time>
      </trkpt>
      <trkpt lat="43.51731" lon="3.49638">
        <ele>111.2</ele>
        <time>2019-03-25T07:30:24Z</time>
      </trkpt>
      <trkpt lat="43.51729" lon="3.49634">
        <ele>111.2</ele>
        <time>2019-03-25T07:30:26Z</time>
      </trkpt>
      <trkpt lat="43.51728" lon="3.49631">
        <ele>111.2</ele>
        <time>2019-03-25T07:30:28Z</time>
      </trkpt>
      <trkpt lat="43.51728" lon="3.49626">
        <ele>111.2</ele>
        <time>2019-03-25T07:30:32Z</time>
      </trkpt>
      <trkpt lat="43.51727" lon="3.49622">
        <ele>111.2</ele>
        <time>2019-03-25T07:30:34Z</time>
      </trkpt>
      <trkpt lat="43.51725" lon="3.49618">
        <ele>111.2</ele>
        <time>2019-03-25T07:30:36Z</time>
      </trkpt>
      <trkpt lat="43.51723" lon="3.49615">
        <ele>111.1</ele>
        <time>2019-03-25T07:30:38Z</time>
      </trkpt>
      <trkpt lat="43.51721" lon="3.4961">
        <ele>111</ele>
        <time>2019-03-25T07:30:41Z</time>
      </trkpt>
      <trkpt lat="43.51721" lon="3.49605">
        <ele>110.9</ele>
        <time>2019-03-25T07:30:44Z</time>
      </trkpt>
      <trkpt lat="43.5172" lon="3.49601">
        <ele>110.8</ele>
        <time>2019-03-25T07:30:46Z</time>
      </trkpt>
      <trkpt lat="43.51719" lon="3.49597">
        <ele>110.7</ele>
        <time>2019-03-25T07:30:48Z</time>
      </trkpt>
      <trkpt lat="43.51719" lon="3.49592">
        <ele>110.6</ele>
        <time>2019-03-25T07:30:51Z</time>
      </trkpt>
      <trkpt lat="43.51718" lon="3.49588">
        <ele>110.5</ele>
        <time>2019-03-25T07:30:54Z</time>
      </trkpt>
      <trkpt lat="43.51718" lon="3.49582">
        <ele>110.3</ele>
        <time>2019-03-25T07:30:57Z</time>
      </trkpt>
      <trkpt lat="43.51717" lon="3.49579">
        <ele>110.1</ele>
        <time>2019-03-25T07:30:59Z</time>
      </trkpt>
      <trkpt lat="43.51715" lon="3.49575">
        <ele>110</ele>
        <time>2019-03-25T07:31:01Z</time>
      </trkpt>
      <trkpt lat="43.51712" lon="3.49572">
        <ele>109.8</ele>
        <time>2019-03-25T07:31:03Z</time>
      </trkpt>
      <trkpt lat="43.5171" lon="3.49568">
        <ele>109.7</ele>
        <time>2019-03-25T07:31:05Z</time>
      </trkpt>
      <trkpt lat="43.51708" lon="3.49565">
        <ele>109.6</ele>
        <time>2019-03-25T07:31:07Z</time>
      </trkpt>
      <trkpt lat="43.51706" lon="3.49562">
        <ele>109.4</ele>
        <time>2019-03-25T07:31:10Z</time>
      </trkpt>
      <trkpt lat="43.51704" lon="3.49559">
        <ele>109.3</ele>
        <time>2019-03-25T07:31:12Z</time>
      </trkpt>
      <trkpt lat="43.51702" lon="3.49555">
        <ele>109.2</ele>
        <time>2019-03-25T07:31:15Z</time>
      </trkpt>
      <trkpt lat="43.51699" lon="3.49551">
        <ele>109</ele>
        <time>2019-03-25T07:31:18Z</time>
      </trkpt>
      <trkpt lat="43.51697" lon="3.49547">
        <ele>108.8</ele>
        <time>2019-03-25T07:31:21Z</time>
      </trkpt>
      <trkpt lat="43.51696" lon="3.49544">
        <ele>108.7</ele>
        <time>2019-03-25T07:31:23Z</time>
      </trkpt>
      <trkpt lat="43.51694" lon="3.4954">
        <ele>108.6</ele>
        <time>2019-03-25T07:31:25Z</time>
      </trkpt>
      <trkpt lat="43.51692" lon="3.49536">
        <ele>108.5</ele>
        <time>2019-03-25T07:31:28Z</time>
      </trkpt>
      <trkpt lat="43.51691" lon="3.49532">
        <ele>108.4</ele>
        <time>2019-03-25T07:31:31Z</time>
      </trkpt>
      <trkpt lat="43.51689" lon="3.49528">
        <ele>108.3</ele>
        <time>2019-03-25T07:31:34Z</time>
      </trkpt>
      <trkpt lat="43.51688" lon="3.49526">
        <ele>108.2</ele>
        <time>2019-03-25T07:31:36Z</time>
      </trkpt>
      <trkpt lat="43.51686" lon="3.49523">
        <ele>108.2</ele>
        <time>2019-03-25T07:31:38Z</time>
      </trkpt>
      <trkpt lat="43.51683" lon="3.4952">
        <ele>108.1</ele>
        <time>2019-03-25T07:31:41Z</time>
      </trkpt>
      <trkpt lat="43.51681" lon="3.49517">
        <ele>108.1</ele>
        <time>2019-03-25T07:31:43Z</time>
      </trkpt>
      <trkpt lat="43.51679" lon="3.49514">
        <ele>108</ele>
        <time>2019-03-25T07:31:45Z</time>
      </trkpt>
      <trkpt lat="43.51678" lon="3.4951">
        <ele>108</ele>
        <time>2019-03-25T07:31:47Z</time>
      </trkpt>
      <trkpt lat="43.51676" lon="3.49507">
        <ele>108</ele>
        <time>2019-03-25T07:31:49Z</time>
      </trkpt>
      <trkpt lat="43.51675" lon="3.49502">
        <ele>107.9</ele>
        <time>2019-03-25T07:31:52Z</time>
      </trkpt>
      <trkpt lat="43.51674" lon="3.49498">
        <ele>107.9</ele>
        <time>2019-03-25T07:31:54Z</time>
      </trkpt>
      <trkpt lat="43.51674" lon="3.49494">
        <ele>107.9</ele>
        <time>2019-03-25T07:31:56Z</time>
      </trkpt>
      <trkpt lat="43.51673" lon="3.4949">
        <ele>107.8</ele>
        <time>2019-03-25T07:31:58Z</time>
      </trkpt>
      <trkpt lat="43.51672" lon="3.49486">
        <ele>107.8</ele>
        <time>2019-03-25T07:32:01Z</time>
      </trkpt>
      <trkpt lat="43.51671" lon="3.49481">
        <ele>107.8</ele>
        <time>2019-03-25T07:32:04Z</time>
      </trkpt>
      <trkpt lat="43.5167" lon="3.49477">
        <ele>107.8</ele>
        <time>2019-03-25T07:32:06Z</time>
      </trkpt>
      <trkpt lat="43.51668" lon="3.49474">
        <ele>107.8</ele>
        <time>2019-03-25T07:32:08Z</time>
      </trkpt>
      <trkpt lat="43.51668" lon="3.4947">
        <ele>107.7</ele>
        <time>2019-03-25T07:32:10Z</time>
      </trkpt>
      <trkpt lat="43.51667" lon="3.49466">
        <ele>107.7</ele>
        <time>2019-03-25T07:32:12Z</time>
      </trkpt>
      <trkpt lat="43.51665" lon="3.49461">
        <ele>107.6</ele>
        <time>2019-03-25T07:32:15Z</time>
      </trkpt>
      <trkpt lat="43.51665" lon="3.49457">
        <ele>107.6</ele>
        <time>2019-03-25T07:32:17Z</time>
      </trkpt>
      <trkpt lat="43.51663" lon="3.49453">
        <ele>107.6</ele>
        <time>2019-03-25T07:32:19Z</time>
      </trkpt>
      <trkpt lat="43.51663" lon="3.49449">
        <ele>107.6</ele>
        <time>2019-03-25T07:32:21Z</time>
      </trkpt>
      <trkpt lat="43.51662" lon="3.49444">
        <ele>107.5</ele>
        <time>2019-03-25T07:32:24Z</time>
      </trkpt>
      <trkpt lat="43.51661" lon="3.4944">
        <ele>107.5</ele>
        <time>2019-03-25T07:32:26Z</time>
      </trkpt>
      <trkpt lat="43.5166" lon="3.49436">
        <ele>107.4</ele>
        <time>2019-03-25T07:32:28Z</time>
      </trkpt>
      <trkpt lat="43.51659" lon="3.49432">
        <ele>107.4</ele>
        <time>2019-03-25T07:32:30Z</time>
      </trkpt>
      <trkpt lat="43.51658" lon="3.49428">
        <ele>107.3</ele>
        <time>2019-03-25T07:32:32Z</time>
      </trkpt>
      <trkpt lat="43.5166" lon="3.49424">
        <ele>107.3</ele>
        <time>2019-03-25T07:32:35Z</time>
      </trkpt>
      <trkpt lat="43.51659" lon="3.49419">
        <ele>107.2</ele>
        <time>2019-03-25T07:32:38Z</time>
      </trkpt>
      <trkpt lat="43.51658" lon="3.49415">
        <ele>107.1</ele>
        <time>2019-03-25T07:32:40Z</time>
      </trkpt>
      <trkpt lat="43.51657" lon="3.4941">
        <ele>107</ele>
        <time>2019-03-25T07:32:42Z</time>
      </trkpt>
      <trkpt lat="43.51656" lon="3.49406">
        <ele>106.9</ele>
        <time>2019-03-25T07:32:44Z</time>
      </trkpt>
      <trkpt lat="43.51655" lon="3.49402">
        <ele>106.9</ele>
        <time>2019-03-25T07:32:46Z</time>
      </trkpt>
      <trkpt lat="43.51655" lon="3.49398">
        <ele>106.8</ele>
        <time>2019-03-25T07:32:49Z</time>
      </trkpt>
      <trkpt lat="43.51655" lon="3.49394">
        <ele>106.7</ele>
        <time>2019-03-25T07:32:52Z</time>
      </trkpt>
      <trkpt lat="43.51654" lon="3.49389">
        <ele>106.6</ele>
        <time>2019-03-25T07:32:55Z</time>
      </trkpt>
      <trkpt lat="43.51654" lon="3.49385">
        <ele>106.5</ele>
        <time>2019-03-25T07:32:59Z</time>
      </trkpt>
      <trkpt lat="43.51653" lon="3.49379">
        <ele>106.4</ele>
        <time>2019-03-25T07:33:02Z</time>
      </trkpt>
      <trkpt lat="43.51652" lon="3.49375">
        <ele>106.3</ele>
        <time>2019-03-25T07:33:04Z</time>
      </trkpt>
      <trkpt lat="43.51652" lon="3.49371">
        <ele>106.2</ele>
        <time>2019-03-25T07:33:06Z</time>
      </trkpt>
      <trkpt lat="43.51651" lon="3.49366">
        <ele>106.1</ele>
        <time>2019-03-25T07:33:08Z</time>
      </trkpt>
      <trkpt lat="43.51651" lon="3.49361">
        <ele>105.9</ele>
        <time>2019-03-25T07:33:10Z</time>
      </trkpt>
      <trkpt lat="43.5165" lon="3.49356">
        <ele>105.8</ele>
        <time>2019-03-25T07:33:12Z</time>
      </trkpt>
      <trkpt lat="43.51648" lon="3.49351">
        <ele>105.6</ele>
        <time>2019-03-25T07:33:14Z</time>
      </trkpt>
      <trkpt lat="43.51647" lon="3.49346">
        <ele>105.6</ele>
        <time>2019-03-25T07:33:16Z</time>
      </trkpt>
      <trkpt lat="43.51647" lon="3.49343">
        <ele>105.4</ele>
        <time>2019-03-25T07:33:18Z</time>
      </trkpt>
      <trkpt lat="43.51647" lon="3.49338">
        <ele>105.3</ele>
        <time>2019-03-25T07:33:21Z</time>
      </trkpt>
      <trkpt lat="43.51647" lon="3.49333">
        <ele>105.2</ele>
        <time>2019-03-25T07:33:24Z</time>
      </trkpt>
      <trkpt lat="43.51646" lon="3.49329">
        <ele>105.1</ele>
        <time>2019-03-25T07:33:26Z</time>
      </trkpt>
      <trkpt lat="43.51646" lon="3.49325">
        <ele>105</ele>
        <time>2019-03-25T07:33:28Z</time>
      </trkpt>
      <trkpt lat="43.51646" lon="3.49321">
        <ele>104.9</ele>
        <time>2019-03-25T07:33:31Z</time>
      </trkpt>
      <trkpt lat="43.51646" lon="3.49316">
        <ele>104.7</ele>
        <time>2019-03-25T07:33:34Z</time>
      </trkpt>
      <trkpt lat="43.51646" lon="3.49312">
        <ele>104.6</ele>
        <time>2019-03-25T07:33:36Z</time>
      </trkpt>
      <trkpt lat="43.51646" lon="3.49307">
        <ele>104.4</ele>
        <time>2019-03-25T07:33:39Z</time>
      </trkpt>
      <trkpt lat="43.51647" lon="3.49302">
        <ele>104.3</ele>
        <time>2019-03-25T07:33:42Z</time>
      </trkpt>
      <trkpt lat="43.51649" lon="3.49298">
        <ele>104.1</ele>
        <time>2019-03-25T07:33:44Z</time>
      </trkpt>
      <trkpt lat="43.51648" lon="3.49293">
        <ele>104</ele>
        <time>2019-03-25T07:33:46Z</time>
      </trkpt>
      <trkpt lat="43.51648" lon="3.49289">
        <ele>103.8</ele>
        <time>2019-03-25T07:33:48Z</time>
      </trkpt>
      <trkpt lat="43.51648" lon="3.49285">
        <ele>103.6</ele>
        <time>2019-03-25T07:33:50Z</time>
      </trkpt>
      <trkpt lat="43.51649" lon="3.4928">
        <ele>103.4</ele>
        <time>2019-03-25T07:33:52Z</time>
      </trkpt>
      <trkpt lat="43.51649" lon="3.49276">
        <ele>103.3</ele>
        <time>2019-03-25T07:33:54Z</time>
      </trkpt>
      <trkpt lat="43.51649" lon="3.49272">
        <ele>103.1</ele>
        <time>2019-03-25T07:33:57Z</time>
      </trkpt>
      <trkpt lat="43.5165" lon="3.49267">
        <ele>102.9</ele>
        <time>2019-03-25T07:34:00Z</time>
      </trkpt>
      <trkpt lat="43.51651" lon="3.49263">
        <ele>102.8</ele>
        <time>2019-03-25T07:34:02Z</time>
      </trkpt>
      <trkpt lat="43.51651" lon="3.49258">
        <ele>102.8</ele>
        <time>2019-03-25T07:34:05Z</time>
      </trkpt>
      <trkpt lat="43.51652" lon="3.49253">
        <ele>102.8</ele>
        <time>2019-03-25T07:34:08Z</time>
      </trkpt>
      <trkpt lat="43.51652" lon="3.49249">
        <ele>102.8</ele>
        <time>2019-03-25T07:34:11Z</time>
      </trkpt>
      <trkpt lat="43.51652" lon="3.49244">
        <ele>102.8</ele>
        <time>2019-03-25T07:34:14Z</time>
      </trkpt>
      <trkpt lat="43.51652" lon="3.49239">
        <ele>102.7</ele>
        <time>2019-03-25T07:34:16Z</time>
      </trkpt>
      <trkpt lat="43.51652" lon="3.49235">
        <ele>102.6</ele>
        <time>2019-03-25T07:34:18Z</time>
      </trkpt>
      <trkpt lat="43.51653" lon="3.49231">
        <ele>102.4</ele>
        <time>2019-03-25T07:34:20Z</time>
      </trkpt>
      <trkpt lat="43.51653" lon="3.49226">
        <ele>102.3</ele>
        <time>2019-03-25T07:34:23Z</time>
      </trkpt>
      <trkpt lat="43.51654" lon="3.4922">
        <ele>102.1</ele>
        <time>2019-03-25T07:34:26Z</time>
      </trkpt>
      <trkpt lat="43.51653" lon="3.49215">
        <ele>102</ele>
        <time>2019-03-25T07:34:29Z</time>
      </trkpt>
      <trkpt lat="43.51653" lon="3.4921">
        <ele>101.9</ele>
        <time>2019-03-25T07:34:32Z</time>
      </trkpt>
      <trkpt lat="43.51653" lon="3.49206">
        <ele>101.8</ele>
        <time>2019-03-25T07:34:34Z</time>
      </trkpt>
      <trkpt lat="43.51653" lon="3.49202">
        <ele>101.7</ele>
        <time>2019-03-25T07:34:36Z</time>
      </trkpt>
      <trkpt lat="43.51654" lon="3.49198">
        <ele>101.6</ele>
        <time>2019-03-25T07:34:39Z</time>
      </trkpt>
      <trkpt lat="43.51654" lon="3.49194">
        <ele>101.4</ele>
        <time>2019-03-25T07:34:41Z</time>
      </trkpt>
      <trkpt lat="43.51653" lon="3.4919">
        <ele>101.3</ele>
        <time>2019-03-25T07:34:44Z</time>
      </trkpt>
      <trkpt lat="43.51653" lon="3.49185">
        <ele>101.2</ele>
        <time>2019-03-25T07:34:46Z</time>
      </trkpt>
      <trkpt lat="43.51653" lon="3.4918">
        <ele>101.1</ele>
        <time>2019-03-25T07:34:49Z</time>
      </trkpt>
      <trkpt lat="43.51653" lon="3.49174">
        <ele>101</ele>
        <time>2019-03-25T07:34:52Z</time>
      </trkpt>
      <trkpt lat="43.51653" lon="3.4917">
        <ele>100.9</ele>
        <time>2019-03-25T07:34:54Z</time>
      </trkpt>
      <trkpt lat="43.51654" lon="3.49165">
        <ele>100.7</ele>
        <time>2019-03-25T07:34:56Z</time>
      </trkpt>
      <trkpt lat="43.51654" lon="3.49161">
        <ele>100.6</ele>
        <time>2019-03-25T07:34:58Z</time>
      </trkpt>
      <trkpt lat="43.51655" lon="3.49156">
        <ele>100.5</ele>
        <time>2019-03-25T07:35:01Z</time>
      </trkpt>
      <trkpt lat="43.51655" lon="3.49152">
        <ele>100.4</ele>
        <time>2019-03-25T07:35:03Z</time>
      </trkpt>
      <trkpt lat="43.51656" lon="3.49147">
        <ele>100.3</ele>
        <time>2019-03-25T07:35:06Z</time>
      </trkpt>
      <trkpt lat="43.51657" lon="3.49141">
        <ele>100.2</ele>
        <time>2019-03-25T07:35:09Z</time>
      </trkpt>
      <trkpt lat="43.51657" lon="3.49138">
        <ele>100.1</ele>
        <time>2019-03-25T07:35:11Z</time>
      </trkpt>
      <trkpt lat="43.51658" lon="3.49134">
        <ele>100</ele>
        <time>2019-03-25T07:35:13Z</time>
      </trkpt>
      <trkpt lat="43.51659" lon="3.4913">
        <ele>100</ele>
        <time>2019-03-25T07:35:15Z</time>
      </trkpt>
      <trkpt lat="43.51659" lon="3.49124">
        <ele>99.9</ele>
        <time>2019-03-25T07:35:18Z</time>
      </trkpt>
      <trkpt lat="43.51659" lon="3.4912">
        <ele>99.8</ele>
        <time>2019-03-25T07:35:20Z</time>
      </trkpt>
      <trkpt lat="43.5166" lon="3.49115">
        <ele>99.7</ele>
        <time>2019-03-25T07:35:23Z</time>
      </trkpt>
      <trkpt lat="43.5166" lon="3.49111">
        <ele>99.5</ele>
        <time>2019-03-25T07:35:25Z</time>
      </trkpt>
      <trkpt lat="43.5166" lon="3.49106">
        <ele>99.4</ele>
        <time>2019-03-25T07:35:28Z</time>
      </trkpt>
      <trkpt lat="43.51661" lon="3.49101">
        <ele>99.2</ele>
        <time>2019-03-25T07:35:31Z</time>
      </trkpt>
      <trkpt lat="43.51661" lon="3.49097">
        <ele>99</ele>
        <time>2019-03-25T07:35:34Z</time>
      </trkpt>
      <trkpt lat="43.51662" lon="3.49093">
        <ele>98.9</ele>
        <time>2019-03-25T07:35:36Z</time>
      </trkpt>
      <trkpt lat="43.51664" lon="3.49089">
        <ele>98.8</ele>
        <time>2019-03-25T07:35:38Z</time>
      </trkpt>
      <trkpt lat="43.51665" lon="3.49085">
        <ele>98.2</ele>
        <time>2019-03-25T07:35:40Z</time>
      </trkpt>
      <trkpt lat="43.51667" lon="3.49081">
        <ele>98</ele>
        <time>2019-03-25T07:35:42Z</time>
      </trkpt>
      <trkpt lat="43.51668" lon="3.49077">
        <ele>97.9</ele>
        <time>2019-03-25T07:35:44Z</time>
      </trkpt>
      <trkpt lat="43.5167" lon="3.49073">
        <ele>97.6</ele>
        <time>2019-03-25T07:35:46Z</time>
      </trkpt>
      <trkpt lat="43.51671" lon="3.4907">
        <ele>97.4</ele>
        <time>2019-03-25T07:35:48Z</time>
      </trkpt>
      <trkpt lat="43.51673" lon="3.49065">
        <ele>97</ele>
        <time>2019-03-25T07:35:51Z</time>
      </trkpt>
      <trkpt lat="43.51675" lon="3.49061">
        <ele>96.7</ele>
        <time>2019-03-25T07:35:54Z</time>
      </trkpt>
      <trkpt lat="43.51676" lon="3.49056">
        <ele>96.3</ele>
        <time>2019-03-25T07:35:57Z</time>
      </trkpt>
      <trkpt lat="43.51676" lon="3.49051">
        <ele>96</ele>
        <time>2019-03-25T07:36:00Z</time>
      </trkpt>
      <trkpt lat="43.51677" lon="3.49048">
        <ele>95.7</ele>
        <time>2019-03-25T07:36:02Z</time>
      </trkpt>
      <trkpt lat="43.51677" lon="3.49044">
        <ele>95.4</ele>
        <time>2019-03-25T07:36:04Z</time>
      </trkpt>
      <trkpt lat="43.51678" lon="3.4904">
        <ele>95</ele>
        <time>2019-03-25T07:36:06Z</time>
      </trkpt>
      <trkpt lat="43.51677" lon="3.49035">
        <ele>94.8</ele>
        <time>2019-03-25T07:36:09Z</time>
      </trkpt>
      <trkpt lat="43.51678" lon="3.4903">
        <ele>94.4</ele>
        <time>2019-03-25T07:36:12Z</time>
      </trkpt>
      <trkpt lat="43.51679" lon="3.49025">
        <ele>94.1</ele>
        <time>2019-03-25T07:36:14Z</time>
      </trkpt>
      <trkpt lat="43.5168" lon="3.49021">
        <ele>93.9</ele>
        <time>2019-03-25T07:36:16Z</time>
      </trkpt>
      <trkpt lat="43.51681" lon="3.49017">
        <ele>93.7</ele>
        <time>2019-03-25T07:36:18Z</time>
      </trkpt>
      <trkpt lat="43.51681" lon="3.49013">
        <ele>93.4</ele>
        <time>2019-03-25T07:36:20Z</time>
      </trkpt>
      <trkpt lat="43.51682" lon="3.49009">
        <ele>93.2</ele>
        <time>2019-03-25T07:36:22Z</time>
      </trkpt>
      <trkpt lat="43.51682" lon="3.49004">
        <ele>92.9</ele>
        <time>2019-03-25T07:36:25Z</time>
      </trkpt>
      <trkpt lat="43.51683" lon="3.49001">
        <ele>92.7</ele>
        <time>2019-03-25T07:36:27Z</time>
      </trkpt>
      <trkpt lat="43.51684" lon="3.48997">
        <ele>92.5</ele>
        <time>2019-03-25T07:36:29Z</time>
      </trkpt>
      <trkpt lat="43.51684" lon="3.48992">
        <ele>92.4</ele>
        <time>2019-03-25T07:36:31Z</time>
      </trkpt>
      <trkpt lat="43.51683" lon="3.48988">
        <ele>92.2</ele>
        <time>2019-03-25T07:36:33Z</time>
      </trkpt>
      <trkpt lat="43.51683" lon="3.48983">
        <ele>92</ele>
        <time>2019-03-25T07:36:36Z</time>
      </trkpt>
      <trkpt lat="43.51683" lon="3.48978">
        <ele>91.8</ele>
        <time>2019-03-25T07:36:39Z</time>
      </trkpt>
      <trkpt lat="43.51683" lon="3.48973">
        <ele>91.7</ele>
        <time>2019-03-25T07:36:43Z</time>
      </trkpt>
      <trkpt lat="43.51683" lon="3.4897">
        <ele>91.5</ele>
        <time>2019-03-25T07:36:45Z</time>
      </trkpt>
      <trkpt lat="43.51682" lon="3.48966">
        <ele>91.4</ele>
        <time>2019-03-25T07:36:47Z</time>
      </trkpt>
      <trkpt lat="43.51681" lon="3.48962">
        <ele>91.3</ele>
        <time>2019-03-25T07:36:50Z</time>
      </trkpt>
      <trkpt lat="43.51678" lon="3.48958">
        <ele>91.3</ele>
        <time>2019-03-25T07:36:52Z</time>
      </trkpt>
      <trkpt lat="43.51676" lon="3.48955">
        <ele>91.3</ele>
        <time>2019-03-25T07:36:54Z</time>
      </trkpt>
      <trkpt lat="43.51673" lon="3.48952">
        <ele>91.3</ele>
        <time>2019-03-25T07:36:57Z</time>
      </trkpt>
      <trkpt lat="43.51671" lon="3.48947">
        <ele>91.2</ele>
        <time>2019-03-25T07:37:00Z</time>
      </trkpt>
      <trkpt lat="43.5167" lon="3.48944">
        <ele>91.1</ele>
        <time>2019-03-25T07:37:02Z</time>
      </trkpt>
      <trkpt lat="43.5167" lon="3.48938">
        <ele>91.1</ele>
        <time>2019-03-25T07:37:05Z</time>
      </trkpt>
      <trkpt lat="43.51669" lon="3.48933">
        <ele>91</ele>
        <time>2019-03-25T07:37:08Z</time>
      </trkpt>
      <trkpt lat="43.51669" lon="3.48928">
        <ele>91</ele>
        <time>2019-03-25T07:37:10Z</time>
      </trkpt>
      <trkpt lat="43.51669" lon="3.48924">
        <ele>91</ele>
        <time>2019-03-25T07:37:12Z</time>
      </trkpt>
      <trkpt lat="43.5167" lon="3.4892">
        <ele>91</ele>
        <time>2019-03-25T07:37:14Z</time>
      </trkpt>
      <trkpt lat="43.5167" lon="3.48916">
        <ele>91</ele>
        <time>2019-03-25T07:37:16Z</time>
      </trkpt>
      <trkpt lat="43.51671" lon="3.48912">
        <ele>91</ele>
        <time>2019-03-25T07:37:18Z</time>
      </trkpt>
      <trkpt lat="43.51671" lon="3.48908">
        <ele>91</ele>
        <time>2019-03-25T07:37:20Z</time>
      </trkpt>
      <trkpt lat="43.51672" lon="3.48904">
        <ele>91.1</ele>
        <time>2019-03-25T07:37:22Z</time>
      </trkpt>
      <trkpt lat="43.51673" lon="3.489">
        <ele>91.1</ele>
        <time>2019-03-25T07:37:24Z</time>
      </trkpt>
      <trkpt lat="43.51673" lon="3.48896">
        <ele>91.1</ele>
        <time>2019-03-25T07:37:26Z</time>
      </trkpt>
      <trkpt lat="43.51673" lon="3.48892">
        <ele>91.1</ele>
        <time>2019-03-25T07:37:28Z</time>
      </trkpt>
      <trkpt lat="43.51673" lon="3.48887">
        <ele>91.2</ele>
        <time>2019-03-25T07:37:31Z</time>
      </trkpt>
      <trkpt lat="43.51674" lon="3.48882">
        <ele>91.3</ele>
        <time>2019-03-25T07:37:34Z</time>
      </trkpt>
      <trkpt lat="43.51673" lon="3.48877">
        <ele>91.4</ele>
        <time>2019-03-25T07:37:37Z</time>
      </trkpt>
      <trkpt lat="43.51673" lon="3.48873">
        <ele>91.5</ele>
        <time>2019-03-25T07:37:39Z</time>
      </trkpt>
      <trkpt lat="43.51674" lon="3.48869">
        <ele>91.6</ele>
        <time>2019-03-25T07:37:42Z</time>
      </trkpt>
      <trkpt lat="43.51673" lon="3.48864">
        <ele>91.7</ele>
        <time>2019-03-25T07:37:45Z</time>
      </trkpt>
      <trkpt lat="43.51673" lon="3.48859">
        <ele>91.8</ele>
        <time>2019-03-25T07:37:47Z</time>
      </trkpt>
      <trkpt lat="43.51673" lon="3.48855">
        <ele>91.8</ele>
        <time>2019-03-25T07:37:49Z</time>
      </trkpt>
      <trkpt lat="43.51674" lon="3.4885">
        <ele>91.8</ele>
        <time>2019-03-25T07:37:52Z</time>
      </trkpt>
      <trkpt lat="43.51675" lon="3.48846">
        <ele>91.7</ele>
        <time>2019-03-25T07:37:54Z</time>
      </trkpt>
      <trkpt lat="43.51676" lon="3.48842">
        <ele>91.7</ele>
        <time>2019-03-25T07:37:57Z</time>
      </trkpt>
      <trkpt lat="43.51677" lon="3.48837">
        <ele>91.6</ele>
        <time>2019-03-25T07:38:00Z</time>
      </trkpt>
      <trkpt lat="43.51679" lon="3.48832">
        <ele>91.5</ele>
        <time>2019-03-25T07:38:03Z</time>
      </trkpt>
      <trkpt lat="43.5168" lon="3.48828">
        <ele>91.4</ele>
        <time>2019-03-25T07:38:05Z</time>
      </trkpt>
      <trkpt lat="43.51682" lon="3.48825">
        <ele>91.3</ele>
        <time>2019-03-25T07:38:07Z</time>
      </trkpt>
      <trkpt lat="43.51685" lon="3.48821">
        <ele>91</ele>
        <time>2019-03-25T07:38:10Z</time>
      </trkpt>
      <trkpt lat="43.51688" lon="3.48818">
        <ele>90.8</ele>
        <time>2019-03-25T07:38:12Z</time>
      </trkpt>
      <trkpt lat="43.51688" lon="3.48814">
        <ele>90.5</ele>
        <time>2019-03-25T07:38:14Z</time>
      </trkpt>
      <trkpt lat="43.51691" lon="3.4881">
        <ele>90.2</ele>
        <time>2019-03-25T07:38:17Z</time>
      </trkpt>
      <trkpt lat="43.51693" lon="3.48807">
        <ele>89.9</ele>
        <time>2019-03-25T07:38:20Z</time>
      </trkpt>
      <trkpt lat="43.51696" lon="3.48802">
        <ele>89.7</ele>
        <time>2019-03-25T07:38:23Z</time>
      </trkpt>
      <trkpt lat="43.51698" lon="3.488">
        <ele>89.5</ele>
        <time>2019-03-25T07:38:25Z</time>
      </trkpt>
      <trkpt lat="43.51699" lon="3.48795">
        <ele>89.5</ele>
        <time>2019-03-25T07:38:28Z</time>
      </trkpt>
      <trkpt lat="43.51699" lon="3.48791">
        <ele>89.6</ele>
        <time>2019-03-25T07:38:30Z</time>
      </trkpt>
      <trkpt lat="43.51697" lon="3.48787">
        <ele>89.6</ele>
        <time>2019-03-25T07:38:32Z</time>
      </trkpt>
      <trkpt lat="43.51696" lon="3.48784">
        <ele>89.8</ele>
        <time>2019-03-25T07:38:34Z</time>
      </trkpt>
      <trkpt lat="43.51695" lon="3.4878">
        <ele>89.9</ele>
        <time>2019-03-25T07:38:36Z</time>
      </trkpt>
      <trkpt lat="43.51694" lon="3.48776">
        <ele>90</ele>
        <time>2019-03-25T07:38:38Z</time>
      </trkpt>
      <trkpt lat="43.51693" lon="3.48772">
        <ele>90.1</ele>
        <time>2019-03-25T07:38:40Z</time>
      </trkpt>
      <trkpt lat="43.51692" lon="3.48767">
        <ele>90.3</ele>
        <time>2019-03-25T07:38:43Z</time>
      </trkpt>
      <trkpt lat="43.51691" lon="3.48763">
        <ele>90.4</ele>
        <time>2019-03-25T07:38:45Z</time>
      </trkpt>
      <trkpt lat="43.51689" lon="3.48758">
        <ele>90.4</ele>
        <time>2019-03-25T07:38:48Z</time>
      </trkpt>
      <trkpt lat="43.51689" lon="3.48754">
        <ele>90.4</ele>
        <time>2019-03-25T07:38:51Z</time>
      </trkpt>
      <trkpt lat="43.5169" lon="3.48749">
        <ele>90.3</ele>
        <time>2019-03-25T07:38:55Z</time>
      </trkpt>
      <trkpt lat="43.51688" lon="3.48746">
        <ele>90.3</ele>
        <time>2019-03-25T07:38:57Z</time>
      </trkpt>
      <trkpt lat="43.51688" lon="3.48742">
        <ele>90.2</ele>
        <time>2019-03-25T07:38:59Z</time>
      </trkpt>
      <trkpt lat="43.51688" lon="3.48737">
        <ele>90.2</ele>
        <time>2019-03-25T07:39:02Z</time>
      </trkpt>
      <trkpt lat="43.51688" lon="3.48733">
        <ele>90.2</ele>
        <time>2019-03-25T07:39:04Z</time>
      </trkpt>
      <trkpt lat="43.51689" lon="3.48728">
        <ele>90.2</ele>
        <time>2019-03-25T07:39:07Z</time>
      </trkpt>
      <trkpt lat="43.51689" lon="3.48723">
        <ele>89</ele>
        <time>2019-03-25T07:39:09Z</time>
      </trkpt>
      <trkpt lat="43.51689" lon="3.48719">
        <ele>88.6</ele>
        <time>2019-03-25T07:39:11Z</time>
      </trkpt>
      <trkpt lat="43.51689" lon="3.48714">
        <ele>88.2</ele>
        <time>2019-03-25T07:39:14Z</time>
      </trkpt>
      <trkpt lat="43.51691" lon="3.4871">
        <ele>87.9</ele>
        <time>2019-03-25T07:39:17Z</time>
      </trkpt>
      <trkpt lat="43.51692" lon="3.48706">
        <ele>87.5</ele>
        <time>2019-03-25T07:39:19Z</time>
      </trkpt>
      <trkpt lat="43.51693" lon="3.48702">
        <ele>87.2</ele>
        <time>2019-03-25T07:39:22Z</time>
      </trkpt>
      <trkpt lat="43.51695" lon="3.48697">
        <ele>86.7</ele>
        <time>2019-03-25T07:39:25Z</time>
      </trkpt>
      <trkpt lat="43.51697" lon="3.48694">
        <ele>86.4</ele>
        <time>2019-03-25T07:39:27Z</time>
      </trkpt>
      <trkpt lat="43.51699" lon="3.48691">
        <ele>86.1</ele>
        <time>2019-03-25T07:39:29Z</time>
      </trkpt>
      <trkpt lat="43.51701" lon="3.48688">
        <ele>85.7</ele>
        <time>2019-03-25T07:39:31Z</time>
      </trkpt>
      <trkpt lat="43.51703" lon="3.48685">
        <ele>85.3</ele>
        <time>2019-03-25T07:39:33Z</time>
      </trkpt>
      <trkpt lat="43.51705" lon="3.48682">
        <ele>84.9</ele>
        <time>2019-03-25T07:39:35Z</time>
      </trkpt>
      <trkpt lat="43.51709" lon="3.48679">
        <ele>84.3</ele>
        <time>2019-03-25T07:39:37Z</time>
      </trkpt>
      <trkpt lat="43.51711" lon="3.48676">
        <ele>84</ele>
        <time>2019-03-25T07:39:39Z</time>
      </trkpt>
      <trkpt lat="43.51712" lon="3.48672">
        <ele>83.5</ele>
        <time>2019-03-25T07:39:42Z</time>
      </trkpt>
      <trkpt lat="43.51713" lon="3.48669">
        <ele>83.2</ele>
        <time>2019-03-25T07:39:44Z</time>
      </trkpt>
      <trkpt lat="43.51716" lon="3.48666">
        <ele>82.8</ele>
        <time>2019-03-25T07:39:46Z</time>
      </trkpt>
      <trkpt lat="43.51719" lon="3.48664">
        <ele>82.3</ele>
        <time>2019-03-25T07:39:49Z</time>
      </trkpt>
      <trkpt lat="43.51722" lon="3.48661">
        <ele>81.8</ele>
        <time>2019-03-25T07:39:52Z</time>
      </trkpt>
      <trkpt lat="43.51725" lon="3.48659">
        <ele>81.3</ele>
        <time>2019-03-25T07:39:55Z</time>
      </trkpt>
      <trkpt lat="43.51727" lon="3.48656">
        <ele>80.9</ele>
        <time>2019-03-25T07:39:58Z</time>
      </trkpt>
      <trkpt lat="43.51729" lon="3.48653">
        <ele>80.4</ele>
        <time>2019-03-25T07:40:01Z</time>
      </trkpt>
      <trkpt lat="43.51731" lon="3.48649">
        <ele>79.9</ele>
        <time>2019-03-25T07:40:04Z</time>
      </trkpt>
      <trkpt lat="43.51734" lon="3.48645">
        <ele>79.3</ele>
        <time>2019-03-25T07:40:07Z</time>
      </trkpt>
      <trkpt lat="43.51737" lon="3.48643">
        <ele>78.9</ele>
        <time>2019-03-25T07:40:09Z</time>
      </trkpt>
      <trkpt lat="43.5174" lon="3.4864">
        <ele>78.3</ele>
        <time>2019-03-25T07:40:12Z</time>
      </trkpt>
      <trkpt lat="43.51743" lon="3.48636">
        <ele>77.7</ele>
        <time>2019-03-25T07:40:15Z</time>
      </trkpt>
      <trkpt lat="43.51744" lon="3.48631">
        <ele>77.2</ele>
        <time>2019-03-25T07:40:18Z</time>
      </trkpt>
      <trkpt lat="43.51745" lon="3.48627">
        <ele>76.7</ele>
        <time>2019-03-25T07:40:21Z</time>
      </trkpt>
      <trkpt lat="43.51747" lon="3.48622">
        <ele>76.2</ele>
        <time>2019-03-25T07:40:24Z</time>
      </trkpt>
      <trkpt lat="43.51749" lon="3.48619">
        <ele>75.8</ele>
        <time>2019-03-25T07:40:26Z</time>
      </trkpt>
      <trkpt lat="43.5175" lon="3.48616">
        <ele>75.5</ele>
        <time>2019-03-25T07:40:29Z</time>
      </trkpt>
      <trkpt lat="43.51752" lon="3.4861">
        <ele>75.2</ele>
        <time>2019-03-25T07:40:32Z</time>
      </trkpt>
      <trkpt lat="43.51752" lon="3.48607">
        <ele>75</ele>
        <time>2019-03-25T07:40:34Z</time>
      </trkpt>
      <trkpt lat="43.51752" lon="3.48601">
        <ele>74.7</ele>
        <time>2019-03-25T07:40:37Z</time>
      </trkpt>
      <trkpt lat="43.51752" lon="3.48597">
        <ele>74.5</ele>
        <time>2019-03-25T07:40:39Z</time>
      </trkpt>
      <trkpt lat="43.51752" lon="3.48593">
        <ele>74.3</ele>
        <time>2019-03-25T07:40:41Z</time>
      </trkpt>
      <trkpt lat="43.51752" lon="3.48589">
        <ele>74.2</ele>
        <time>2019-03-25T07:40:43Z</time>
      </trkpt>
      <trkpt lat="43.51751" lon="3.48585">
        <ele>74</ele>
        <time>2019-03-25T07:40:45Z</time>
      </trkpt>
      <trkpt lat="43.5175" lon="3.48581">
        <ele>73.8</ele>
        <time>2019-03-25T07:40:47Z</time>
      </trkpt>
      <trkpt lat="43.51748" lon="3.48578">
        <ele>73.7</ele>
        <time>2019-03-25T07:40:53Z</time>
      </trkpt>
      <trkpt lat="43.5175" lon="3.48582">
        <ele>73.5</ele>
        <time>2019-03-25T07:41:19Z</time>
      </trkpt>
      <trkpt lat="43.51752" lon="3.48584">
        <ele>73.4</ele>
        <time>2019-03-25T07:41:41Z</time>
      </trkpt>
      <trkpt lat="43.51754" lon="3.48588">
        <ele>73.4</ele>
        <time>2019-03-25T07:41:43Z</time>
      </trkpt>
      <trkpt lat="43.51757" lon="3.48591">
        <ele>73.4</ele>
        <time>2019-03-25T07:41:46Z</time>
      </trkpt>
      <trkpt lat="43.51759" lon="3.48589">
        <ele>73.4</ele>
        <time>2019-03-25T07:41:49Z</time>
      </trkpt>
      <trkpt lat="43.51762" lon="3.48583">
        <ele>72.9</ele>
        <time>2019-03-25T07:41:52Z</time>
      </trkpt>
      <trkpt lat="43.51763" lon="3.4858">
        <ele>72.7</ele>
        <time>2019-03-25T07:41:54Z</time>
      </trkpt>
      <trkpt lat="43.51765" lon="3.48577">
        <ele>72.4</ele>
        <time>2019-03-25T07:41:56Z</time>
      </trkpt>
      <trkpt lat="43.51767" lon="3.48572">
        <ele>72.1</ele>
        <time>2019-03-25T07:41:59Z</time>
      </trkpt>
      <trkpt lat="43.51769" lon="3.48569">
        <ele>71.9</ele>
        <time>2019-03-25T07:42:09Z</time>
      </trkpt>
      <trkpt lat="43.51771" lon="3.48565">
        <ele>71.6</ele>
        <time>2019-03-25T07:42:11Z</time>
      </trkpt>
      <trkpt lat="43.51774" lon="3.48563">
        <ele>71.2</ele>
        <time>2019-03-25T07:42:14Z</time>
      </trkpt>
      <trkpt lat="43.51777" lon="3.48564">
        <ele>70.8</ele>
        <time>2019-03-25T07:42:20Z</time>
      </trkpt>
      <trkpt lat="43.5178" lon="3.48564">
        <ele>70.5</ele>
        <time>2019-03-25T07:42:25Z</time>
      </trkpt>
      <trkpt lat="43.51781" lon="3.48569">
        <ele>70</ele>
        <time>2019-03-25T07:42:30Z</time>
      </trkpt>
      <trkpt lat="43.51782" lon="3.48573">
        <ele>69.7</ele>
        <time>2019-03-25T07:42:44Z</time>
      </trkpt>
      <trkpt lat="43.51782" lon="3.48577">
        <ele>69.4</ele>
        <time>2019-03-25T07:42:48Z</time>
      </trkpt>
      <trkpt lat="43.51782" lon="3.48581">
        <ele>69.1</ele>
        <time>2019-03-25T07:42:52Z</time>
      </trkpt>
      <trkpt lat="43.51784" lon="3.48584">
        <ele>68.8</ele>
        <time>2019-03-25T07:42:58Z</time>
      </trkpt>
      <trkpt lat="43.51786" lon="3.48587">
        <ele>68.5</ele>
        <time>2019-03-25T07:43:03Z</time>
      </trkpt>
      <trkpt lat="43.51787" lon="3.4859">
        <ele>68.4</ele>
        <time>2019-03-25T07:43:08Z</time>
      </trkpt>
      <trkpt lat="43.51787" lon="3.48595">
        <ele>68.3</ele>
        <time>2019-03-25T07:43:21Z</time>
      </trkpt>
      <trkpt lat="43.51785" lon="3.4859">
        <ele>68.3</ele>
        <time>2019-03-25T07:43:28Z</time>
      </trkpt>
      <trkpt lat="43.51782" lon="3.4859">
        <ele>68.4</ele>
        <time>2019-03-25T07:43:31Z</time>
      </trkpt>
      <trkpt lat="43.51779" lon="3.48587">
        <ele>68.4</ele>
        <time>2019-03-25T07:43:35Z</time>
      </trkpt>
      <trkpt lat="43.51779" lon="3.48583">
        <ele>68.5</ele>
        <time>2019-03-25T07:43:41Z</time>
      </trkpt>
      <trkpt lat="43.51779" lon="3.4858">
        <ele>68.5</ele>
        <time>2019-03-25T07:43:44Z</time>
      </trkpt>
      <trkpt lat="43.51779" lon="3.48574">
        <ele>68.6</ele>
        <time>2019-03-25T07:43:47Z</time>
      </trkpt>
      <trkpt lat="43.51781" lon="3.48572">
        <ele>68.6</ele>
        <time>2019-03-25T07:43:55Z</time>
      </trkpt>
      <trkpt lat="43.51785" lon="3.48573">
        <ele>68.5</ele>
        <time>2019-03-25T07:44:00Z</time>
      </trkpt>
      <trkpt lat="43.51787" lon="3.48575">
        <ele>68.3</ele>
        <time>2019-03-25T07:44:03Z</time>
      </trkpt>
      <trkpt lat="43.51784" lon="3.48574">
        <ele>68.2</ele>
        <time>2019-03-25T07:44:21Z</time>
      </trkpt>
      <trkpt lat="43.51781" lon="3.48573">
        <ele>68.2</ele>
        <time>2019-03-25T07:44:27Z</time>
      </trkpt>
      <trkpt lat="43.51778" lon="3.48575">
        <ele>68.2</ele>
        <time>2019-03-25T07:44:40Z</time>
      </trkpt>
      <trkpt lat="43.51778" lon="3.4857">
        <ele>67.9</ele>
        <time>2019-03-25T07:45:19Z</time>
      </trkpt>
      <trkpt lat="43.51777" lon="3.48565">
        <ele>67.6</ele>
        <time>2019-03-25T07:45:23Z</time>
      </trkpt>
      <trkpt lat="43.51775" lon="3.4856">
        <ele>67.5</ele>
        <time>2019-03-25T07:45:25Z</time>
      </trkpt>
      <trkpt lat="43.51773" lon="3.48557">
        <ele>67.5</ele>
        <time>2019-03-25T07:45:27Z</time>
      </trkpt>
      <trkpt lat="43.51775" lon="3.48554">
        <ele>67.3</ele>
        <time>2019-03-25T07:45:39Z</time>
      </trkpt>
      <trkpt lat="43.51779" lon="3.48553">
        <ele>66.7</ele>
        <time>2019-03-25T07:45:42Z</time>
      </trkpt>
      <trkpt lat="43.51782" lon="3.48551">
        <ele>65.8</ele>
        <time>2019-03-25T07:45:45Z</time>
      </trkpt>
      <trkpt lat="43.51786" lon="3.48549">
        <ele>65.1</ele>
        <time>2019-03-25T07:45:50Z</time>
      </trkpt>
      <trkpt lat="43.51787" lon="3.48541">
        <ele>64.9</ele>
        <time>2019-03-25T07:46:14Z</time>
      </trkpt>
      <trkpt lat="43.51786" lon="3.48537">
        <ele>64.8</ele>
        <time>2019-03-25T07:46:16Z</time>
      </trkpt>
      <trkpt lat="43.51785" lon="3.48532">
        <ele>64.7</ele>
        <time>2019-03-25T07:46:19Z</time>
      </trkpt>
      <trkpt lat="43.51784" lon="3.48527">
        <ele>65</ele>
        <time>2019-03-25T07:46:22Z</time>
      </trkpt>
      <trkpt lat="43.51784" lon="3.4852">
        <ele>65.3</ele>
        <time>2019-03-25T07:46:25Z</time>
      </trkpt>
      <trkpt lat="43.51786" lon="3.48518">
        <ele>65.5</ele>
        <time>2019-03-25T07:46:27Z</time>
      </trkpt>
      <trkpt lat="43.51788" lon="3.48514">
        <ele>65.7</ele>
        <time>2019-03-25T07:46:30Z</time>
      </trkpt>
      <trkpt lat="43.51789" lon="3.4851">
        <ele>66.3</ele>
        <time>2019-03-25T07:46:33Z</time>
      </trkpt>
      <trkpt lat="43.51789" lon="3.48505">
        <ele>66.9</ele>
        <time>2019-03-25T07:46:36Z</time>
      </trkpt>
      <trkpt lat="43.51789" lon="3.48501">
        <ele>67.1</ele>
        <time>2019-03-25T07:46:38Z</time>
      </trkpt>
      <trkpt lat="43.51789" lon="3.48496">
        <ele>67.3</ele>
        <time>2019-03-25T07:46:40Z</time>
      </trkpt>
      <trkpt lat="43.5179" lon="3.48492">
        <ele>67.4</ele>
        <time>2019-03-25T07:46:42Z</time>
      </trkpt>
      <trkpt lat="43.5179" lon="3.48487">
        <ele>67.4</ele>
        <time>2019-03-25T07:46:44Z</time>
      </trkpt>
      <trkpt lat="43.51789" lon="3.48482">
        <ele>67.5</ele>
        <time>2019-03-25T07:46:46Z</time>
      </trkpt>
      <trkpt lat="43.51789" lon="3.48478">
        <ele>67.6</ele>
        <time>2019-03-25T07:46:48Z</time>
      </trkpt>
      <trkpt lat="43.5179" lon="3.48474">
        <ele>67.8</ele>
        <time>2019-03-25T07:46:50Z</time>
      </trkpt>
      <trkpt lat="43.51792" lon="3.48471">
        <ele>68</ele>
        <time>2019-03-25T07:46:53Z</time>
      </trkpt>
      <trkpt lat="43.51794" lon="3.48468">
        <ele>68.3</ele>
        <time>2019-03-25T07:46:57Z</time>
      </trkpt>
      <trkpt lat="43.51795" lon="3.48464">
        <ele>68.7</ele>
        <time>2019-03-25T07:47:00Z</time>
      </trkpt>
      <trkpt lat="43.51798" lon="3.48461">
        <ele>69.1</ele>
        <time>2019-03-25T07:47:03Z</time>
      </trkpt>
      <trkpt lat="43.51801" lon="3.48461">
        <ele>69.2</ele>
        <time>2019-03-25T07:47:05Z</time>
      </trkpt>
      <trkpt lat="43.51804" lon="3.48461">
        <ele>69.3</ele>
        <time>2019-03-25T07:47:07Z</time>
      </trkpt>
      <trkpt lat="43.51807" lon="3.48459">
        <ele>69.5</ele>
        <time>2019-03-25T07:47:10Z</time>
      </trkpt>
      <trkpt lat="43.51806" lon="3.48455">
        <ele>69.7</ele>
        <time>2019-03-25T07:47:13Z</time>
      </trkpt>
      <trkpt lat="43.51805" lon="3.4845">
        <ele>70</ele>
        <time>2019-03-25T07:47:16Z</time>
      </trkpt>
      <trkpt lat="43.51804" lon="3.48446">
        <ele>70.3</ele>
        <time>2019-03-25T07:47:19Z</time>
      </trkpt>
      <trkpt lat="43.51803" lon="3.48442">
        <ele>70.6</ele>
        <time>2019-03-25T07:47:21Z</time>
      </trkpt>
      <trkpt lat="43.51801" lon="3.48439">
        <ele>70.4</ele>
        <time>2019-03-25T07:47:24Z</time>
      </trkpt>
      <trkpt lat="43.51798" lon="3.48434">
        <ele>70.2</ele>
        <time>2019-03-25T07:47:27Z</time>
      </trkpt>
      <trkpt lat="43.51796" lon="3.48431">
        <ele>69.9</ele>
        <time>2019-03-25T07:47:29Z</time>
      </trkpt>
      <trkpt lat="43.51793" lon="3.48429">
        <ele>70.1</ele>
        <time>2019-03-25T07:47:32Z</time>
      </trkpt>
      <trkpt lat="43.51791" lon="3.48426">
        <ele>70.4</ele>
        <time>2019-03-25T07:47:35Z</time>
      </trkpt>
      <trkpt lat="43.51788" lon="3.48423">
        <ele>70.7</ele>
        <time>2019-03-25T07:47:37Z</time>
      </trkpt>
      <trkpt lat="43.51787" lon="3.48419">
        <ele>71.1</ele>
        <time>2019-03-25T07:47:41Z</time>
      </trkpt>
      <trkpt lat="43.51786" lon="3.48414">
        <ele>71.4</ele>
        <time>2019-03-25T07:47:44Z</time>
      </trkpt>
      <trkpt lat="43.51784" lon="3.4841">
        <ele>71.3</ele>
        <time>2019-03-25T07:47:47Z</time>
      </trkpt>
      <trkpt lat="43.51782" lon="3.48407">
        <ele>71.2</ele>
        <time>2019-03-25T07:47:49Z</time>
      </trkpt>
      <trkpt lat="43.5178" lon="3.48403">
        <ele>70.8</ele>
        <time>2019-03-25T07:47:51Z</time>
      </trkpt>
      <trkpt lat="43.51779" lon="3.484">
        <ele>70.3</ele>
        <time>2019-03-25T07:47:54Z</time>
      </trkpt>
      <trkpt lat="43.51777" lon="3.48396">
        <ele>69.9</ele>
        <time>2019-03-25T07:47:57Z</time>
      </trkpt>
      <trkpt lat="43.51775" lon="3.48392">
        <ele>69.2</ele>
        <time>2019-03-25T07:48:01Z</time>
      </trkpt>
      <trkpt lat="43.51773" lon="3.48389">
        <ele>68.7</ele>
        <time>2019-03-25T07:48:03Z</time>
      </trkpt>
      <trkpt lat="43.51771" lon="3.48387">
        <ele>68.6</ele>
        <time>2019-03-25T07:48:05Z</time>
      </trkpt>
      <trkpt lat="43.51769" lon="3.48383">
        <ele>68.5</ele>
        <time>2019-03-25T07:48:08Z</time>
      </trkpt>
      <trkpt lat="43.51768" lon="3.48378">
        <ele>68.9</ele>
        <time>2019-03-25T07:48:11Z</time>
      </trkpt>
      <trkpt lat="43.51767" lon="3.48374">
        <ele>69.3</ele>
        <time>2019-03-25T07:48:13Z</time>
      </trkpt>
      <trkpt lat="43.51766" lon="3.4837">
        <ele>69.7</ele>
        <time>2019-03-25T07:48:15Z</time>
      </trkpt>
      <trkpt lat="43.51764" lon="3.48367">
        <ele>70</ele>
        <time>2019-03-25T07:48:17Z</time>
      </trkpt>
      <trkpt lat="43.51761" lon="3.48364">
        <ele>70.4</ele>
        <time>2019-03-25T07:48:20Z</time>
      </trkpt>
      <trkpt lat="43.51758" lon="3.48364">
        <ele>70.8</ele>
        <time>2019-03-25T07:48:23Z</time>
      </trkpt>
      <trkpt lat="43.51755" lon="3.48362">
        <ele>70.5</ele>
        <time>2019-03-25T07:48:25Z</time>
      </trkpt>
      <trkpt lat="43.51752" lon="3.4836">
        <ele>70.2</ele>
        <time>2019-03-25T07:48:27Z</time>
      </trkpt>
      <trkpt lat="43.51749" lon="3.48357">
        <ele>69.8</ele>
        <time>2019-03-25T07:48:29Z</time>
      </trkpt>
      <trkpt lat="43.51749" lon="3.48354">
        <ele>69.4</ele>
        <time>2019-03-25T07:48:31Z</time>
      </trkpt>
      <trkpt lat="43.51748" lon="3.48348">
        <ele>68.9</ele>
        <time>2019-03-25T07:48:34Z</time>
      </trkpt>
      <trkpt lat="43.51746" lon="3.48344">
        <ele>68.5</ele>
        <time>2019-03-25T07:48:37Z</time>
      </trkpt>
      <trkpt lat="43.51744" lon="3.48341">
        <ele>68.2</ele>
        <time>2019-03-25T07:48:40Z</time>
      </trkpt>
      <trkpt lat="43.51743" lon="3.48337">
        <ele>67.9</ele>
        <time>2019-03-25T07:48:43Z</time>
      </trkpt>
      <trkpt lat="43.51742" lon="3.48332">
        <ele>67.5</ele>
        <time>2019-03-25T07:48:45Z</time>
      </trkpt>
      <trkpt lat="43.51743" lon="3.48328">
        <ele>67.1</ele>
        <time>2019-03-25T07:48:47Z</time>
      </trkpt>
      <trkpt lat="43.51743" lon="3.48323">
        <ele>66.7</ele>
        <time>2019-03-25T07:48:49Z</time>
      </trkpt>
      <trkpt lat="43.51742" lon="3.48317">
        <ele>66.1</ele>
        <time>2019-03-25T07:48:52Z</time>
      </trkpt>
      <trkpt lat="43.51743" lon="3.48312">
        <ele>65.7</ele>
        <time>2019-03-25T07:48:55Z</time>
      </trkpt>
      <trkpt lat="43.51741" lon="3.48309">
        <ele>65.5</ele>
        <time>2019-03-25T07:48:57Z</time>
      </trkpt>
      <trkpt lat="43.5174" lon="3.48305">
        <ele>65.2</ele>
        <time>2019-03-25T07:49:00Z</time>
      </trkpt>
      <trkpt lat="43.51742" lon="3.48301">
        <ele>64.9</ele>
        <time>2019-03-25T07:49:03Z</time>
      </trkpt>
      <trkpt lat="43.5174" lon="3.48297">
        <ele>64.4</ele>
        <time>2019-03-25T07:49:05Z</time>
      </trkpt>
      <trkpt lat="43.5174" lon="3.48293">
        <ele>64</ele>
        <time>2019-03-25T07:49:07Z</time>
      </trkpt>
      <trkpt lat="43.5174" lon="3.48289">
        <ele>63.7</ele>
        <time>2019-03-25T07:49:09Z</time>
      </trkpt>
      <trkpt lat="43.51741" lon="3.48285">
        <ele>63.4</ele>
        <time>2019-03-25T07:49:11Z</time>
      </trkpt>
      <trkpt lat="43.51742" lon="3.48282">
        <ele>63.2</ele>
        <time>2019-03-25T07:49:13Z</time>
      </trkpt>
      <trkpt lat="43.51744" lon="3.48278">
        <ele>62.8</ele>
        <time>2019-03-25T07:49:16Z</time>
      </trkpt>
      <trkpt lat="43.51746" lon="3.48275">
        <ele>62.4</ele>
        <time>2019-03-25T07:49:19Z</time>
      </trkpt>
      <trkpt lat="43.51748" lon="3.48272">
        <ele>62.1</ele>
        <time>2019-03-25T07:49:22Z</time>
      </trkpt>
      <trkpt lat="43.5175" lon="3.4827">
        <ele>62</ele>
        <time>2019-03-25T07:49:25Z</time>
      </trkpt>
      <trkpt lat="43.51753" lon="3.48266">
        <ele>61.8</ele>
        <time>2019-03-25T07:49:28Z</time>
      </trkpt>
      <trkpt lat="43.51754" lon="3.48261">
        <ele>61.6</ele>
        <time>2019-03-25T07:49:32Z</time>
      </trkpt>
      <trkpt lat="43.51756" lon="3.48258">
        <ele>61.4</ele>
        <time>2019-03-25T07:49:34Z</time>
      </trkpt>
      <trkpt lat="43.51758" lon="3.48253">
        <ele>61.2</ele>
        <time>2019-03-25T07:49:37Z</time>
      </trkpt>
      <trkpt lat="43.5176" lon="3.48248">
        <ele>60.9</ele>
        <time>2019-03-25T07:49:40Z</time>
      </trkpt>
      <trkpt lat="43.51761" lon="3.48244">
        <ele>60.6</ele>
        <time>2019-03-25T07:49:43Z</time>
      </trkpt>
      <trkpt lat="43.51762" lon="3.4824">
        <ele>60.2</ele>
        <time>2019-03-25T07:49:46Z</time>
      </trkpt>
      <trkpt lat="43.51763" lon="3.48236">
        <ele>59.8</ele>
        <time>2019-03-25T07:49:48Z</time>
      </trkpt>
      <trkpt lat="43.51763" lon="3.48232">
        <ele>59.2</ele>
        <time>2019-03-25T07:49:51Z</time>
      </trkpt>
      <trkpt lat="43.51765" lon="3.48228">
        <ele>59</ele>
        <time>2019-03-25T07:49:54Z</time>
      </trkpt>
      <trkpt lat="43.51766" lon="3.48224">
        <ele>58.7</ele>
        <time>2019-03-25T07:49:57Z</time>
      </trkpt>
      <trkpt lat="43.51767" lon="3.4822">
        <ele>58.5</ele>
        <time>2019-03-25T07:50:00Z</time>
      </trkpt>
      <trkpt lat="43.51769" lon="3.48216">
        <ele>58.4</ele>
        <time>2019-03-25T07:50:02Z</time>
      </trkpt>
      <trkpt lat="43.5177" lon="3.48213">
        <ele>58.3</ele>
        <time>2019-03-25T07:50:04Z</time>
      </trkpt>
      <trkpt lat="43.51772" lon="3.48207">
        <ele>57.9</ele>
        <time>2019-03-25T07:50:07Z</time>
      </trkpt>
      <trkpt lat="43.51771" lon="3.48203">
        <ele>57.9</ele>
        <time>2019-03-25T07:50:10Z</time>
      </trkpt>
      <trkpt lat="43.51771" lon="3.48199">
        <ele>58</ele>
        <time>2019-03-25T07:50:13Z</time>
      </trkpt>
      <trkpt lat="43.51772" lon="3.48194">
        <ele>58.1</ele>
        <time>2019-03-25T07:50:17Z</time>
      </trkpt>
      <trkpt lat="43.51772" lon="3.4819">
        <ele>58.2</ele>
        <time>2019-03-25T07:50:21Z</time>
      </trkpt>
      <trkpt lat="43.51775" lon="3.48185">
        <ele>58.1</ele>
        <time>2019-03-25T07:50:23Z</time>
      </trkpt>
      <trkpt lat="43.51776" lon="3.48181">
        <ele>58</ele>
        <time>2019-03-25T07:50:25Z</time>
      </trkpt>
      <trkpt lat="43.51777" lon="3.48177">
        <ele>57.8</ele>
        <time>2019-03-25T07:50:27Z</time>
      </trkpt>
      <trkpt lat="43.51779" lon="3.48175">
        <ele>57.7</ele>
        <time>2019-03-25T07:50:30Z</time>
      </trkpt>
      <trkpt lat="43.51782" lon="3.48172">
        <ele>57.5</ele>
        <time>2019-03-25T07:50:33Z</time>
      </trkpt>
      <trkpt lat="43.51784" lon="3.48169">
        <ele>57.3</ele>
        <time>2019-03-25T07:50:35Z</time>
      </trkpt>
      <trkpt lat="43.51786" lon="3.48167">
        <ele>57.2</ele>
        <time>2019-03-25T07:50:38Z</time>
      </trkpt>
      <trkpt lat="43.51789" lon="3.48164">
        <ele>57.2</ele>
        <time>2019-03-25T07:50:40Z</time>
      </trkpt>
      <trkpt lat="43.51791" lon="3.48161">
        <ele>57.2</ele>
        <time>2019-03-25T07:50:43Z</time>
      </trkpt>
      <trkpt lat="43.51793" lon="3.48158">
        <ele>57.1</ele>
        <time>2019-03-25T07:50:45Z</time>
      </trkpt>
      <trkpt lat="43.51795" lon="3.48155">
        <ele>56.8</ele>
        <time>2019-03-25T07:50:47Z</time>
      </trkpt>
      <trkpt lat="43.51798" lon="3.48154">
        <ele>56.4</ele>
        <time>2019-03-25T07:50:49Z</time>
      </trkpt>
      <trkpt lat="43.51801" lon="3.48152">
        <ele>56.2</ele>
        <time>2019-03-25T07:50:51Z</time>
      </trkpt>
      <trkpt lat="43.51803" lon="3.4815">
        <ele>55.9</ele>
        <time>2019-03-25T07:50:54Z</time>
      </trkpt>
      <trkpt lat="43.51806" lon="3.48148">
        <ele>55.5</ele>
        <time>2019-03-25T07:50:57Z</time>
      </trkpt>
      <trkpt lat="43.51809" lon="3.48146">
        <ele>55.1</ele>
        <time>2019-03-25T07:51:00Z</time>
      </trkpt>
      <trkpt lat="43.51812" lon="3.48143">
        <ele>54.6</ele>
        <time>2019-03-25T07:51:03Z</time>
      </trkpt>
      <trkpt lat="43.51815" lon="3.48141">
        <ele>54.2</ele>
        <time>2019-03-25T07:51:05Z</time>
      </trkpt>
      <trkpt lat="43.51818" lon="3.48139">
        <ele>53.8</ele>
        <time>2019-03-25T07:51:08Z</time>
      </trkpt>
      <trkpt lat="43.51821" lon="3.48135">
        <ele>53.3</ele>
        <time>2019-03-25T07:51:11Z</time>
      </trkpt>
      <trkpt lat="43.51823" lon="3.48132">
        <ele>52.8</ele>
        <time>2019-03-25T07:51:13Z</time>
      </trkpt>
      <trkpt lat="43.51826" lon="3.4813">
        <ele>52.6</ele>
        <time>2019-03-25T07:51:15Z</time>
      </trkpt>
      <trkpt lat="43.51828" lon="3.48128">
        <ele>52.5</ele>
        <time>2019-03-25T07:51:17Z</time>
      </trkpt>
      <trkpt lat="43.51831" lon="3.48125">
        <ele>52.2</ele>
        <time>2019-03-25T07:51:19Z</time>
      </trkpt>
      <trkpt lat="43.51834" lon="3.48124">
        <ele>51.9</ele>
        <time>2019-03-25T07:51:21Z</time>
      </trkpt>
      <trkpt lat="43.51836" lon="3.4812">
        <ele>51.4</ele>
        <time>2019-03-25T07:51:25Z</time>
      </trkpt>
      <trkpt lat="43.51838" lon="3.48116">
        <ele>51.1</ele>
        <time>2019-03-25T07:51:28Z</time>
      </trkpt>
      <trkpt lat="43.5184" lon="3.48112">
        <ele>50.7</ele>
        <time>2019-03-25T07:51:31Z</time>
      </trkpt>
      <trkpt lat="43.51843" lon="3.4811">
        <ele>50.4</ele>
        <time>2019-03-25T07:51:34Z</time>
      </trkpt>
      <trkpt lat="43.51846" lon="3.4811">
        <ele>50.1</ele>
        <time>2019-03-25T07:51:37Z</time>
      </trkpt>
      <trkpt lat="43.51849" lon="3.48109">
        <ele>49.8</ele>
        <time>2019-03-25T07:51:39Z</time>
      </trkpt>
      <trkpt lat="43.51851" lon="3.48106">
        <ele>49.4</ele>
        <time>2019-03-25T07:51:41Z</time>
      </trkpt>
      <trkpt lat="43.51854" lon="3.48103">
        <ele>48.9</ele>
        <time>2019-03-25T07:51:44Z</time>
      </trkpt>
      <trkpt lat="43.51855" lon="3.481">
        <ele>48.3</ele>
        <time>2019-03-25T07:51:46Z</time>
      </trkpt>
      <trkpt lat="43.51858" lon="3.48097">
        <ele>47.7</ele>
        <time>2019-03-25T07:51:48Z</time>
      </trkpt>
      <trkpt lat="43.5186" lon="3.48095">
        <ele>47.2</ele>
        <time>2019-03-25T07:51:50Z</time>
      </trkpt>
      <trkpt lat="43.51862" lon="3.48091">
        <ele>46.7</ele>
        <time>2019-03-25T07:51:52Z</time>
      </trkpt>
      <trkpt lat="43.51863" lon="3.48088">
        <ele>46.3</ele>
        <time>2019-03-25T07:51:54Z</time>
      </trkpt>
      <trkpt lat="43.51865" lon="3.48085">
        <ele>45.9</ele>
        <time>2019-03-25T07:51:56Z</time>
      </trkpt>
      <trkpt lat="43.51866" lon="3.4808">
        <ele>45.3</ele>
        <time>2019-03-25T07:51:59Z</time>
      </trkpt>
      <trkpt lat="43.51869" lon="3.48076">
        <ele>44.5</ele>
        <time>2019-03-25T07:52:02Z</time>
      </trkpt>
      <trkpt lat="43.51872" lon="3.48075">
        <ele>43.8</ele>
        <time>2019-03-25T07:52:05Z</time>
      </trkpt>
      <trkpt lat="43.51875" lon="3.48074">
        <ele>43.1</ele>
        <time>2019-03-25T07:52:09Z</time>
      </trkpt>
      <trkpt lat="43.51878" lon="3.48073">
        <ele>42.5</ele>
        <time>2019-03-25T07:52:12Z</time>
      </trkpt>
      <trkpt lat="43.5188" lon="3.48068">
        <ele>41.8</ele>
        <time>2019-03-25T07:52:14Z</time>
      </trkpt>
      <trkpt lat="43.51882" lon="3.48064">
        <ele>41</ele>
        <time>2019-03-25T07:52:16Z</time>
      </trkpt>
      <trkpt lat="43.51883" lon="3.4806">
        <ele>40.4</ele>
        <time>2019-03-25T07:52:18Z</time>
      </trkpt>
      <trkpt lat="43.51884" lon="3.48055">
        <ele>39.7</ele>
        <time>2019-03-25T07:52:20Z</time>
      </trkpt>
      <trkpt lat="43.51886" lon="3.48052">
        <ele>39.1</ele>
        <time>2019-03-25T07:52:22Z</time>
      </trkpt>
      <trkpt lat="43.51887" lon="3.48048">
        <ele>38.2</ele>
        <time>2019-03-25T07:52:25Z</time>
      </trkpt>
      <trkpt lat="43.5189" lon="3.48044">
        <ele>37.2</ele>
        <time>2019-03-25T07:52:28Z</time>
      </trkpt>
      <trkpt lat="43.51892" lon="3.48041">
        <ele>36.8</ele>
        <time>2019-03-25T07:52:30Z</time>
      </trkpt>
      <trkpt lat="43.51894" lon="3.48038">
        <ele>36.3</ele>
        <time>2019-03-25T07:52:32Z</time>
      </trkpt>
      <trkpt lat="43.51897" lon="3.48036">
        <ele>35.5</ele>
        <time>2019-03-25T07:52:35Z</time>
      </trkpt>
      <trkpt lat="43.519" lon="3.48031">
        <ele>34.6</ele>
        <time>2019-03-25T07:52:38Z</time>
      </trkpt>
      <trkpt lat="43.51902" lon="3.48028">
        <ele>34.1</ele>
        <time>2019-03-25T07:52:40Z</time>
      </trkpt>
      <trkpt lat="43.51904" lon="3.48026">
        <ele>33.6</ele>
        <time>2019-03-25T07:52:43Z</time>
      </trkpt>
      <trkpt lat="43.51907" lon="3.48023">
        <ele>32.9</ele>
        <time>2019-03-25T07:52:46Z</time>
      </trkpt>
      <trkpt lat="43.5191" lon="3.4802">
        <ele>32.2</ele>
        <time>2019-03-25T07:52:49Z</time>
      </trkpt>
      <trkpt lat="43.51914" lon="3.48019">
        <ele>31.7</ele>
        <time>2019-03-25T07:52:52Z</time>
      </trkpt>
      <trkpt lat="43.51917" lon="3.48019">
        <ele>31.2</ele>
        <time>2019-03-25T07:52:54Z</time>
      </trkpt>
      <trkpt lat="43.5192" lon="3.48018">
        <ele>30.7</ele>
        <time>2019-03-25T07:52:56Z</time>
      </trkpt>
      <trkpt lat="43.51921" lon="3.48014">
        <ele>29.8</ele>
        <time>2019-03-25T07:52:58Z</time>
      </trkpt>
      <trkpt lat="43.51921" lon="3.4801">
        <ele>29.4</ele>
        <time>2019-03-25T07:53:00Z</time>
      </trkpt>
      <trkpt lat="43.5192" lon="3.48006">
        <ele>29.5</ele>
        <time>2019-03-25T07:53:04Z</time>
      </trkpt>
      <trkpt lat="43.51916" lon="3.48003">
        <ele>29.6</ele>
        <time>2019-03-25T07:53:14Z</time>
      </trkpt>
      <trkpt lat="43.51913" lon="3.48001">
        <ele>30.2</ele>
        <time>2019-03-25T07:53:16Z</time>
      </trkpt>
      <trkpt lat="43.5191" lon="3.47997">
        <ele>30.2</ele>
        <time>2019-03-25T07:53:19Z</time>
      </trkpt>
      <trkpt lat="43.51909" lon="3.47993">
        <ele>29.7</ele>
        <time>2019-03-25T07:53:22Z</time>
      </trkpt>
      <trkpt lat="43.51912" lon="3.47993">
        <ele>29.3</ele>
        <time>2019-03-25T07:53:24Z</time>
      </trkpt>
      <trkpt lat="43.51915" lon="3.47992">
        <ele>28.8</ele>
        <time>2019-03-25T07:53:29Z</time>
      </trkpt>
      <trkpt lat="43.51917" lon="3.47988">
        <ele>28.3</ele>
        <time>2019-03-25T07:53:33Z</time>
      </trkpt>
      <trkpt lat="43.51914" lon="3.47985">
        <ele>28.3</ele>
        <time>2019-03-25T07:53:37Z</time>
      </trkpt>
      <trkpt lat="43.51912" lon="3.47982">
        <ele>27.8</ele>
        <time>2019-03-25T07:53:40Z</time>
      </trkpt>
      <trkpt lat="43.51909" lon="3.47981">
        <ele>28.3</ele>
        <time>2019-03-25T07:53:43Z</time>
      </trkpt>
      <trkpt lat="43.51912" lon="3.47979">
        <ele>27.8</ele>
        <time>2019-03-25T07:53:48Z</time>
      </trkpt>
      <trkpt lat="43.51914" lon="3.47976">
        <ele>27.3</ele>
        <time>2019-03-25T07:53:53Z</time>
      </trkpt>
      <trkpt lat="43.51917" lon="3.47975">
        <ele>26.9</ele>
        <time>2019-03-25T07:53:56Z</time>
      </trkpt>
      <trkpt lat="43.5192" lon="3.47973">
        <ele>26</ele>
        <time>2019-03-25T07:53:59Z</time>
      </trkpt>
      <trkpt lat="43.51923" lon="3.47972">
        <ele>25.6</ele>
        <time>2019-03-25T07:54:02Z</time>
      </trkpt>
      <trkpt lat="43.51926" lon="3.47972">
        <ele>25.3</ele>
        <time>2019-03-25T07:54:05Z</time>
      </trkpt>
      <trkpt lat="43.51929" lon="3.47972">
        <ele>25</ele>
        <time>2019-03-25T07:54:08Z</time>
      </trkpt>
      <trkpt lat="43.51932" lon="3.47975">
        <ele>24.8</ele>
        <time>2019-03-25T07:54:12Z</time>
      </trkpt>
      <trkpt lat="43.51935" lon="3.47974">
        <ele>24.6</ele>
        <time>2019-03-25T07:54:15Z</time>
      </trkpt>
      <trkpt lat="43.51938" lon="3.47977">
        <ele>24.7</ele>
        <time>2019-03-25T07:54:20Z</time>
      </trkpt>
      <trkpt lat="43.5194" lon="3.47982">
        <ele>24.9</ele>
        <time>2019-03-25T07:54:23Z</time>
      </trkpt>
      <trkpt lat="43.51942" lon="3.47985">
        <ele>25.4</ele>
        <time>2019-03-25T07:54:25Z</time>
      </trkpt>
      <trkpt lat="43.51944" lon="3.47987">
        <ele>25.2</ele>
        <time>2019-03-25T07:54:30Z</time>
      </trkpt>
      <trkpt lat="43.51947" lon="3.47988">
        <ele>25.4</ele>
        <time>2019-03-25T07:54:33Z</time>
      </trkpt>
      <trkpt lat="43.51951" lon="3.4799">
        <ele>25.3</ele>
        <time>2019-03-25T07:54:36Z</time>
      </trkpt>
      <trkpt lat="43.51953" lon="3.47992">
        <ele>25.5</ele>
        <time>2019-03-25T07:54:39Z</time>
      </trkpt>
      <trkpt lat="43.51956" lon="3.47995">
        <ele>25.4</ele>
        <time>2019-03-25T07:54:43Z</time>
      </trkpt>
      <trkpt lat="43.51959" lon="3.47995">
        <ele>25.2</ele>
        <time>2019-03-25T07:54:46Z</time>
      </trkpt>
      <trkpt lat="43.51963" lon="3.47992">
        <ele>25.1</ele>
        <time>2019-03-25T07:54:48Z</time>
      </trkpt>
      <trkpt lat="43.51964" lon="3.47988">
        <ele>24.8</ele>
        <time>2019-03-25T07:54:51Z</time>
      </trkpt>
      <trkpt lat="43.51966" lon="3.47985">
        <ele>24.4</ele>
        <time>2019-03-25T07:54:53Z</time>
      </trkpt>
      <trkpt lat="43.5197" lon="3.47986">
        <ele>24.2</ele>
        <time>2019-03-25T07:54:56Z</time>
      </trkpt>
      <trkpt lat="43.51973" lon="3.47989">
        <ele>24.2</ele>
        <time>2019-03-25T07:54:58Z</time>
      </trkpt>
      <trkpt lat="43.51975" lon="3.47992">
        <ele>24.2</ele>
        <time>2019-03-25T07:55:00Z</time>
      </trkpt>
      <trkpt lat="43.51977" lon="3.47995">
        <ele>24.2</ele>
        <time>2019-03-25T07:55:02Z</time>
      </trkpt>
      <trkpt lat="43.51979" lon="3.47999">
        <ele>24.1</ele>
        <time>2019-03-25T07:55:05Z</time>
      </trkpt>
      <trkpt lat="43.51981" lon="3.48002">
        <ele>24.1</ele>
        <time>2019-03-25T07:55:07Z</time>
      </trkpt>
      <trkpt lat="43.51983" lon="3.48006">
        <ele>24.1</ele>
        <time>2019-03-25T07:55:09Z</time>
      </trkpt>
      <trkpt lat="43.51986" lon="3.48011">
        <ele>24.1</ele>
        <time>2019-03-25T07:55:11Z</time>
      </trkpt>
      <trkpt lat="43.51989" lon="3.48015">
        <ele>24</ele>
        <time>2019-03-25T07:55:13Z</time>
      </trkpt>
      <trkpt lat="43.51992" lon="3.48018">
        <ele>24</ele>
        <time>2019-03-25T07:55:16Z</time>
      </trkpt>
      <trkpt lat="43.51994" lon="3.48022">
        <ele>23.9</ele>
        <time>2019-03-25T07:55:20Z</time>
      </trkpt>
      <trkpt lat="43.51996" lon="3.48027">
        <ele>23.9</ele>
        <time>2019-03-25T07:55:23Z</time>
      </trkpt>
      <trkpt lat="43.51998" lon="3.4803">
        <ele>23.8</ele>
        <time>2019-03-25T07:55:26Z</time>
      </trkpt>
      <trkpt lat="43.52001" lon="3.48033">
        <ele>23.8</ele>
        <time>2019-03-25T07:55:28Z</time>
      </trkpt>
      <trkpt lat="43.52004" lon="3.48037">
        <ele>23.7</ele>
        <time>2019-03-25T07:55:31Z</time>
      </trkpt>
      <trkpt lat="43.52005" lon="3.4804">
        <ele>23.7</ele>
        <time>2019-03-25T07:55:33Z</time>
      </trkpt>
      <trkpt lat="43.52007" lon="3.48044">
        <ele>23.6</ele>
        <time>2019-03-25T07:55:36Z</time>
      </trkpt>
      <trkpt lat="43.52009" lon="3.48049">
        <ele>23.5</ele>
        <time>2019-03-25T07:55:39Z</time>
      </trkpt>
      <trkpt lat="43.5201" lon="3.48052">
        <ele>23.5</ele>
        <time>2019-03-25T07:55:41Z</time>
      </trkpt>
      <trkpt lat="43.52012" lon="3.48055">
        <ele>23.4</ele>
        <time>2019-03-25T07:55:43Z</time>
      </trkpt>
      <trkpt lat="43.52013" lon="3.48058">
        <ele>23.4</ele>
        <time>2019-03-25T07:55:45Z</time>
      </trkpt>
      <trkpt lat="43.52015" lon="3.48063">
        <ele>23.3</ele>
        <time>2019-03-25T07:55:48Z</time>
      </trkpt>
      <trkpt lat="43.52015" lon="3.48068">
        <ele>23.2</ele>
        <time>2019-03-25T07:55:50Z</time>
      </trkpt>
      <trkpt lat="43.52016" lon="3.48073">
        <ele>23.1</ele>
        <time>2019-03-25T07:55:52Z</time>
      </trkpt>
      <trkpt lat="43.52015" lon="3.48077">
        <ele>23.1</ele>
        <time>2019-03-25T07:55:54Z</time>
      </trkpt>
      <trkpt lat="43.52013" lon="3.48081">
        <ele>23.1</ele>
        <time>2019-03-25T07:55:57Z</time>
      </trkpt>
      <trkpt lat="43.52012" lon="3.48086">
        <ele>23.2</ele>
        <time>2019-03-25T07:56:00Z</time>
      </trkpt>
      <trkpt lat="43.52011" lon="3.4809">
        <ele>23.2</ele>
        <time>2019-03-25T07:56:02Z</time>
      </trkpt>
      <trkpt lat="43.52011" lon="3.48095">
        <ele>23.1</ele>
        <time>2019-03-25T07:56:05Z</time>
      </trkpt>
      <trkpt lat="43.5201" lon="3.481">
        <ele>23.1</ele>
        <time>2019-03-25T07:56:08Z</time>
      </trkpt>
      <trkpt lat="43.5201" lon="3.48104">
        <ele>23.2</ele>
        <time>2019-03-25T07:56:10Z</time>
      </trkpt>
      <trkpt lat="43.52009" lon="3.48109">
        <ele>23.2</ele>
        <time>2019-03-25T07:56:12Z</time>
      </trkpt>
      <trkpt lat="43.52009" lon="3.48114">
        <ele>23.1</ele>
        <time>2019-03-25T07:56:14Z</time>
      </trkpt>
      <trkpt lat="43.52009" lon="3.48118">
        <ele>23</ele>
        <time>2019-03-25T07:56:16Z</time>
      </trkpt>
      <trkpt lat="43.5201" lon="3.48123">
        <ele>22.9</ele>
        <time>2019-03-25T07:56:19Z</time>
      </trkpt>
      <trkpt lat="43.5201" lon="3.48128">
        <ele>22.9</ele>
        <time>2019-03-25T07:56:21Z</time>
      </trkpt>
      <trkpt lat="43.52009" lon="3.48132">
        <ele>22.9</ele>
        <time>2019-03-25T07:56:23Z</time>
      </trkpt>
      <trkpt lat="43.5201" lon="3.48137">
        <ele>22.9</ele>
        <time>2019-03-25T07:56:25Z</time>
      </trkpt>
      <trkpt lat="43.5201" lon="3.48142">
        <ele>22.9</ele>
        <time>2019-03-25T07:56:28Z</time>
      </trkpt>
      <trkpt lat="43.5201" lon="3.48146">
        <ele>22.9</ele>
        <time>2019-03-25T07:56:31Z</time>
      </trkpt>
      <trkpt lat="43.52011" lon="3.4815">
        <ele>22.9</ele>
        <time>2019-03-25T07:56:33Z</time>
      </trkpt>
      <trkpt lat="43.52011" lon="3.48155">
        <ele>22.9</ele>
        <time>2019-03-25T07:56:36Z</time>
      </trkpt>
      <trkpt lat="43.52011" lon="3.4816">
        <ele>22.9</ele>
        <time>2019-03-25T07:56:39Z</time>
      </trkpt>
      <trkpt lat="43.52011" lon="3.48165">
        <ele>22.9</ele>
        <time>2019-03-25T07:56:41Z</time>
      </trkpt>
      <trkpt lat="43.52011" lon="3.4817">
        <ele>22.9</ele>
        <time>2019-03-25T07:56:43Z</time>
      </trkpt>
      <trkpt lat="43.52012" lon="3.48175">
        <ele>22.9</ele>
        <time>2019-03-25T07:56:45Z</time>
      </trkpt>
      <trkpt lat="43.52012" lon="3.48179">
        <ele>22.9</ele>
        <time>2019-03-25T07:56:47Z</time>
      </trkpt>
      <trkpt lat="43.52011" lon="3.48183">
        <ele>22.9</ele>
        <time>2019-03-25T07:56:49Z</time>
      </trkpt>
      <trkpt lat="43.52011" lon="3.48189">
        <ele>22.9</ele>
        <time>2019-03-25T07:56:52Z</time>
      </trkpt>
      <trkpt lat="43.52012" lon="3.48193">
        <ele>22.9</ele>
        <time>2019-03-25T07:56:54Z</time>
      </trkpt>
      <trkpt lat="43.52012" lon="3.48197">
        <ele>22.9</ele>
        <time>2019-03-25T07:56:56Z</time>
      </trkpt>
      <trkpt lat="43.52012" lon="3.48201">
        <ele>22.9</ele>
        <time>2019-03-25T07:56:58Z</time>
      </trkpt>
      <trkpt lat="43.52012" lon="3.48206">
        <ele>23</ele>
        <time>2019-03-25T07:57:01Z</time>
      </trkpt>
      <trkpt lat="43.52012" lon="3.4821">
        <ele>23</ele>
        <time>2019-03-25T07:57:03Z</time>
      </trkpt>
      <trkpt lat="43.52013" lon="3.48214">
        <ele>23</ele>
        <time>2019-03-25T07:57:05Z</time>
      </trkpt>
      <trkpt lat="43.52013" lon="3.48218">
        <ele>23</ele>
        <time>2019-03-25T07:57:07Z</time>
      </trkpt>
      <trkpt lat="43.52013" lon="3.48223">
        <ele>23.1</ele>
        <time>2019-03-25T07:57:10Z</time>
      </trkpt>
      <trkpt lat="43.52014" lon="3.48227">
        <ele>23.1</ele>
        <time>2019-03-25T07:57:12Z</time>
      </trkpt>
      <trkpt lat="43.52014" lon="3.48231">
        <ele>23.1</ele>
        <time>2019-03-25T07:57:14Z</time>
      </trkpt>
      <trkpt lat="43.52013" lon="3.48236">
        <ele>23.2</ele>
        <time>2019-03-25T07:57:16Z</time>
      </trkpt>
      <trkpt lat="43.52013" lon="3.48241">
        <ele>23.2</ele>
        <time>2019-03-25T07:57:19Z</time>
      </trkpt>
      <trkpt lat="43.52012" lon="3.48246">
        <ele>23.3</ele>
        <time>2019-03-25T07:57:22Z</time>
      </trkpt>
      <trkpt lat="43.52012" lon="3.4825">
        <ele>23.3</ele>
        <time>2019-03-25T07:57:24Z</time>
      </trkpt>
      <trkpt lat="43.52012" lon="3.48255">
        <ele>23.4</ele>
        <time>2019-03-25T07:57:26Z</time>
      </trkpt>
      <trkpt lat="43.52012" lon="3.48259">
        <ele>23.4</ele>
        <time>2019-03-25T07:57:28Z</time>
      </trkpt>
      <trkpt lat="43.52013" lon="3.48264">
        <ele>23.5</ele>
        <time>2019-03-25T07:57:31Z</time>
      </trkpt>
      <trkpt lat="43.52013" lon="3.48269">
        <ele>23.6</ele>
        <time>2019-03-25T07:57:34Z</time>
      </trkpt>
      <trkpt lat="43.52013" lon="3.48273">
        <ele>23.7</ele>
        <time>2019-03-25T07:57:36Z</time>
      </trkpt>
      <trkpt lat="43.52013" lon="3.48278">
        <ele>23.7</ele>
        <time>2019-03-25T07:57:39Z</time>
      </trkpt>
      <trkpt lat="43.52013" lon="3.48283">
        <ele>23.9</ele>
        <time>2019-03-25T07:57:42Z</time>
      </trkpt>
      <trkpt lat="43.52012" lon="3.48287">
        <ele>24</ele>
        <time>2019-03-25T07:57:44Z</time>
      </trkpt>
      <trkpt lat="43.52012" lon="3.48291">
        <ele>24.2</ele>
        <time>2019-03-25T07:57:46Z</time>
      </trkpt>
      <trkpt lat="43.52012" lon="3.48296">
        <ele>24.4</ele>
        <time>2019-03-25T07:57:49Z</time>
      </trkpt>
      <trkpt lat="43.52011" lon="3.48302">
        <ele>24.7</ele>
        <time>2019-03-25T07:57:52Z</time>
      </trkpt>
      <trkpt lat="43.52011" lon="3.48306">
        <ele>25</ele>
        <time>2019-03-25T07:57:54Z</time>
      </trkpt>
      <trkpt lat="43.52011" lon="3.4831">
        <ele>25.3</ele>
        <time>2019-03-25T07:57:56Z</time>
      </trkpt>
      <trkpt lat="43.52009" lon="3.48313">
        <ele>25.6</ele>
        <time>2019-03-25T07:57:58Z</time>
      </trkpt>
      <trkpt lat="43.52008" lon="3.48317">
        <ele>25.7</ele>
        <time>2019-03-25T07:58:00Z</time>
      </trkpt>
      <trkpt lat="43.52007" lon="3.48321">
        <ele>25.9</ele>
        <time>2019-03-25T07:58:02Z</time>
      </trkpt>
      <trkpt lat="43.52007" lon="3.48326">
        <ele>26.2</ele>
        <time>2019-03-25T07:58:04Z</time>
      </trkpt>
      <trkpt lat="43.52005" lon="3.4833">
        <ele>26.6</ele>
        <time>2019-03-25T07:58:07Z</time>
      </trkpt>
      <trkpt lat="43.52005" lon="3.48334">
        <ele>26.9</ele>
        <time>2019-03-25T07:58:09Z</time>
      </trkpt>
      <trkpt lat="43.52004" lon="3.48338">
        <ele>27</ele>
        <time>2019-03-25T07:58:11Z</time>
      </trkpt>
      <trkpt lat="43.52003" lon="3.48342">
        <ele>27.2</ele>
        <time>2019-03-25T07:58:13Z</time>
      </trkpt>
      <trkpt lat="43.52003" lon="3.48346">
        <ele>27.4</ele>
        <time>2019-03-25T07:58:15Z</time>
      </trkpt>
      <trkpt lat="43.52001" lon="3.4835">
        <ele>27.8</ele>
        <time>2019-03-25T07:58:18Z</time>
      </trkpt>
      <trkpt lat="43.52" lon="3.48356">
        <ele>28.1</ele>
        <time>2019-03-25T07:58:21Z</time>
      </trkpt>
      <trkpt lat="43.52001" lon="3.48361">
        <ele>28.4</ele>
        <time>2019-03-25T07:58:24Z</time>
      </trkpt>
      <trkpt lat="43.52002" lon="3.48365">
        <ele>28.6</ele>
        <time>2019-03-25T07:58:26Z</time>
      </trkpt>
      <trkpt lat="43.52002" lon="3.48369">
        <ele>28.7</ele>
        <time>2019-03-25T07:58:28Z</time>
      </trkpt>
      <trkpt lat="43.52003" lon="3.48373">
        <ele>28.9</ele>
        <time>2019-03-25T07:58:30Z</time>
      </trkpt>
      <trkpt lat="43.52003" lon="3.48378">
        <ele>29</ele>
        <time>2019-03-25T07:58:33Z</time>
      </trkpt>
      <trkpt lat="43.52005" lon="3.48382">
        <ele>29</ele>
        <time>2019-03-25T07:58:36Z</time>
      </trkpt>
      <trkpt lat="43.52005" lon="3.48387">
        <ele>29.3</ele>
        <time>2019-03-25T07:58:39Z</time>
      </trkpt>
      <trkpt lat="43.52005" lon="3.48391">
        <ele>29.6</ele>
        <time>2019-03-25T07:58:41Z</time>
      </trkpt>
      <trkpt lat="43.52006" lon="3.48396">
        <ele>29.8</ele>
        <time>2019-03-25T07:58:44Z</time>
      </trkpt>
      <trkpt lat="43.52007" lon="3.48401">
        <ele>29.9</ele>
        <time>2019-03-25T07:58:46Z</time>
      </trkpt>
      <trkpt lat="43.52007" lon="3.48405">
        <ele>29.9</ele>
        <time>2019-03-25T07:58:48Z</time>
      </trkpt>
      <trkpt lat="43.52006" lon="3.48408">
        <ele>30.2</ele>
        <time>2019-03-25T07:58:50Z</time>
      </trkpt>
      <trkpt lat="43.52006" lon="3.48413">
        <ele>30.5</ele>
        <time>2019-03-25T07:58:52Z</time>
      </trkpt>
      <trkpt lat="43.52006" lon="3.48417">
        <ele>30.7</ele>
        <time>2019-03-25T07:58:54Z</time>
      </trkpt>
      <trkpt lat="43.52006" lon="3.48421">
        <ele>30.9</ele>
        <time>2019-03-25T07:58:56Z</time>
      </trkpt>
      <trkpt lat="43.52007" lon="3.48426">
        <ele>31.2</ele>
        <time>2019-03-25T07:58:58Z</time>
      </trkpt>
      <trkpt lat="43.52007" lon="3.48431">
        <ele>31.5</ele>
        <time>2019-03-25T07:59:00Z</time>
      </trkpt>
      <trkpt lat="43.52008" lon="3.48434">
        <ele>31.7</ele>
        <time>2019-03-25T07:59:02Z</time>
      </trkpt>
      <trkpt lat="43.52008" lon="3.4844">
        <ele>32.1</ele>
        <time>2019-03-25T07:59:05Z</time>
      </trkpt>
      <trkpt lat="43.52008" lon="3.48444">
        <ele>32.4</ele>
        <time>2019-03-25T07:59:07Z</time>
      </trkpt>
      <trkpt lat="43.52009" lon="3.48448">
        <ele>32.7</ele>
        <time>2019-03-25T07:59:09Z</time>
      </trkpt>
      <trkpt lat="43.5201" lon="3.48453">
        <ele>32.9</ele>
        <time>2019-03-25T07:59:12Z</time>
      </trkpt>
      <trkpt lat="43.52011" lon="3.48457">
        <ele>33.1</ele>
        <time>2019-03-25T07:59:15Z</time>
      </trkpt>
      <trkpt lat="43.52012" lon="3.48462">
        <ele>33.4</ele>
        <time>2019-03-25T07:59:18Z</time>
      </trkpt>
      <trkpt lat="43.52013" lon="3.48466">
        <ele>33.7</ele>
        <time>2019-03-25T07:59:21Z</time>
      </trkpt>
      <trkpt lat="43.52016" lon="3.48468">
        <ele>33.9</ele>
        <time>2019-03-25T07:59:24Z</time>
      </trkpt>
      <trkpt lat="43.52019" lon="3.4847">
        <ele>33.8</ele>
        <time>2019-03-25T07:59:26Z</time>
      </trkpt>
      <trkpt lat="43.52022" lon="3.48469">
        <ele>33.7</ele>
        <time>2019-03-25T07:59:29Z</time>
      </trkpt>
      <trkpt lat="43.52025" lon="3.48469">
        <ele>33.5</ele>
        <time>2019-03-25T07:59:31Z</time>
      </trkpt>
      <trkpt lat="43.52028" lon="3.4847">
        <ele>33.3</ele>
        <time>2019-03-25T07:59:34Z</time>
      </trkpt>
      <trkpt lat="43.52031" lon="3.4847">
        <ele>33.2</ele>
        <time>2019-03-25T07:59:38Z</time>
      </trkpt>
      <trkpt lat="43.52035" lon="3.48471">
        <ele>33</ele>
        <time>2019-03-25T07:59:42Z</time>
      </trkpt>
      <trkpt lat="43.52038" lon="3.48472">
        <ele>32.8</ele>
        <time>2019-03-25T07:59:46Z</time>
      </trkpt>
      <trkpt lat="43.52041" lon="3.48473">
        <ele>33.1</ele>
        <time>2019-03-25T07:59:48Z</time>
      </trkpt>
      <trkpt lat="43.52044" lon="3.48473">
        <ele>32.9</ele>
        <time>2019-03-25T07:59:50Z</time>
      </trkpt>
      <trkpt lat="43.52047" lon="3.48475">
        <ele>32.8</ele>
        <time>2019-03-25T07:59:53Z</time>
      </trkpt>
      <trkpt lat="43.5205" lon="3.48477">
        <ele>32.6</ele>
        <time>2019-03-25T07:59:55Z</time>
      </trkpt>
      <trkpt lat="43.52053" lon="3.48479">
        <ele>32.7</ele>
        <time>2019-03-25T07:59:57Z</time>
      </trkpt>
      <trkpt lat="43.52056" lon="3.48481">
        <ele>32.5</ele>
        <time>2019-03-25T07:59:59Z</time>
      </trkpt>
      <trkpt lat="43.52058" lon="3.48484">
        <ele>32.9</ele>
        <time>2019-03-25T08:00:02Z</time>
      </trkpt>
      <trkpt lat="43.5206" lon="3.48488">
        <ele>33</ele>
        <time>2019-03-25T08:00:04Z</time>
      </trkpt>
      <trkpt lat="43.52063" lon="3.4849">
        <ele>33.1</ele>
        <time>2019-03-25T08:00:06Z</time>
      </trkpt>
      <trkpt lat="43.52066" lon="3.48491">
        <ele>32.9</ele>
        <time>2019-03-25T08:00:09Z</time>
      </trkpt>
      <trkpt lat="43.52069" lon="3.48489">
        <ele>32.4</ele>
        <time>2019-03-25T08:00:11Z</time>
      </trkpt>
      <trkpt lat="43.52072" lon="3.48487">
        <ele>32.2</ele>
        <time>2019-03-25T08:00:13Z</time>
      </trkpt>
      <trkpt lat="43.52074" lon="3.48483">
        <ele>31.6</ele>
        <time>2019-03-25T08:00:15Z</time>
      </trkpt>
      <trkpt lat="43.52074" lon="3.48478">
        <ele>31.3</ele>
        <time>2019-03-25T08:00:17Z</time>
      </trkpt>
      <trkpt lat="43.52074" lon="3.48473">
        <ele>30.9</ele>
        <time>2019-03-25T08:00:19Z</time>
      </trkpt>
      <trkpt lat="43.52074" lon="3.48469">
        <ele>30.6</ele>
        <time>2019-03-25T08:00:21Z</time>
      </trkpt>
      <trkpt lat="43.52076" lon="3.48464">
        <ele>29.9</ele>
        <time>2019-03-25T08:00:24Z</time>
      </trkpt>
      <trkpt lat="43.52079" lon="3.4846">
        <ele>29.7</ele>
        <time>2019-03-25T08:00:26Z</time>
      </trkpt>
      <trkpt lat="43.52082" lon="3.48458">
        <ele>29.1</ele>
        <time>2019-03-25T08:00:28Z</time>
      </trkpt>
      <trkpt lat="43.52085" lon="3.48455">
        <ele>28.6</ele>
        <time>2019-03-25T08:00:31Z</time>
      </trkpt>
      <trkpt lat="43.52088" lon="3.48453">
        <ele>28.3</ele>
        <time>2019-03-25T08:00:34Z</time>
      </trkpt>
      <trkpt lat="43.52092" lon="3.48451">
        <ele>27.8</ele>
        <time>2019-03-25T08:00:37Z</time>
      </trkpt>
      <trkpt lat="43.52093" lon="3.48448">
        <ele>27.6</ele>
        <time>2019-03-25T08:00:40Z</time>
      </trkpt>
      <trkpt lat="43.52097" lon="3.48446">
        <ele>27.1</ele>
        <time>2019-03-25T08:00:42Z</time>
      </trkpt>
      <trkpt lat="43.521" lon="3.48447">
        <ele>26.9</ele>
        <time>2019-03-25T08:00:44Z</time>
      </trkpt>
      <trkpt lat="43.52103" lon="3.48447">
        <ele>26.7</ele>
        <time>2019-03-25T08:00:48Z</time>
      </trkpt>
      <trkpt lat="43.52105" lon="3.48451">
        <ele>26.8</ele>
        <time>2019-03-25T08:00:52Z</time>
      </trkpt>
      <trkpt lat="43.52107" lon="3.48455">
        <ele>27.1</ele>
        <time>2019-03-25T08:00:55Z</time>
      </trkpt>
      <trkpt lat="43.52108" lon="3.4846">
        <ele>27.1</ele>
        <time>2019-03-25T08:00:58Z</time>
      </trkpt>
      <trkpt lat="43.5211" lon="3.48462">
        <ele>27.4</ele>
        <time>2019-03-25T08:01:00Z</time>
      </trkpt>
      <trkpt lat="43.52126" lon="3.48474">
        <ele>28</ele>
      </trkpt>
      <trkpt lat="43.52142" lon="3.48489">
        <ele>28</ele>
      </trkpt>
      <trkpt lat="43.52156" lon="3.48501">
        <ele>30</ele>
      </trkpt>
      <trkpt lat="43.52168" lon="3.48519">
        <ele>28</ele>
      </trkpt>
      <trkpt lat="43.52183" lon="3.48532">
        <ele>27.8</ele>
      </trkpt>
      <trkpt lat="43.52203" lon="3.48549">
        <ele>27.4</ele>
      </trkpt>
      <trkpt lat="43.52233" lon="3.48572">
        <ele>25.5</ele>
      </trkpt>
      <trkpt lat="43.52259" lon="3.48593">
        <ele>23.5</ele>
      </trkpt>
      <trkpt lat="43.52284" lon="3.4861">
        <ele>24</ele>
      </trkpt>
      <trkpt lat="43.52304" lon="3.48627">
        <ele>24.2</ele>
      </trkpt>
      <trkpt lat="43.52322" lon="3.48642">
        <ele>24.5</ele>
      </trkpt>
      <trkpt lat="43.52347" lon="3.48662">
        <ele>24.6</ele>
      </trkpt>
      <trkpt lat="43.52364" lon="3.48676">
        <ele>25.5</ele>
      </trkpt>
      <trkpt lat="43.52379" lon="3.48689">
        <ele>25.6</ele>
      </trkpt>
      <trkpt lat="43.52389" lon="3.48699">
        <ele>25.6</ele>
      </trkpt>
      <trkpt lat="43.52393" lon="3.48709">
        <ele>25.7</ele>
      </trkpt>
      <trkpt lat="43.52385" lon="3.48734">
        <ele>25.9</ele>
      </trkpt>
      <trkpt lat="43.52378" lon="3.48756">
        <ele>27.9</ele>
      </trkpt>
      <trkpt lat="43.52372" lon="3.48777">
        <ele>28.4</ele>
      </trkpt>
      <trkpt lat="43.52364" lon="3.48797">
        <ele>28.9</ele>
      </trkpt>
      <trkpt lat="43.52362" lon="3.48813">
        <ele>29.4</ele>
      </trkpt>
      <trkpt lat="43.52366" lon="3.48825">
        <ele>29.6</ele>
      </trkpt>
      <trkpt lat="43.52375" lon="3.48827">
        <ele>29.5</ele>
      </trkpt>
      <trkpt lat="43.52386" lon="3.48829">
        <ele>29.6</ele>
      </trkpt>
      <trkpt lat="43.52398" lon="3.48833">
        <ele>30</ele>
      </trkpt>
      <trkpt lat="43.52408" lon="3.48837">
        <ele>32</ele>
      </trkpt>
      <trkpt lat="43.52418" lon="3.48842">
        <ele>32</ele>
      </trkpt>
      <trkpt lat="43.52432" lon="3.48843">
        <ele>33</ele>
      </trkpt>
      <trkpt lat="43.52424" lon="3.48834">
        <ele>32</ele>
      </trkpt>
      <trkpt lat="43.52417" lon="3.48834">
        <ele>31</ele>
      </trkpt>
      <trkpt lat="43.52406" lon="3.4883">
        <ele>30</ele>
      </trkpt>
      <trkpt lat="43.52395" lon="3.48827">
        <ele>30</ele>
      </trkpt>
      <trkpt lat="43.52378" lon="3.48822">
        <ele>29</ele>
      </trkpt>
      <trkpt lat="43.5237" lon="3.48822">
        <ele>29</ele>
      </trkpt>
      <trkpt lat="43.52362" lon="3.48811">
        <ele>29</ele>
      </trkpt>
      <trkpt lat="43.52367" lon="3.48796">
        <ele>29</ele>
      </trkpt>
      <trkpt lat="43.52376" lon="3.48813">
        <ele>29</ele>
      </trkpt>
      <trkpt lat="43.52387" lon="3.48813">
        <ele>29</ele>
      </trkpt>
      <trkpt lat="43.52413" lon="3.48818">
        <ele>30</ele>
      </trkpt>
      <trkpt lat="43.52442" lon="3.48826">
        <ele>28</ele>
      </trkpt>
      <trkpt lat="43.52457" lon="3.4883">
        <ele>27</ele>
      </trkpt>
      <trkpt lat="43.52476" lon="3.48843">
        <ele>31</ele>
      </trkpt>
      <trkpt lat="43.52493" lon="3.48854">
        <ele>31</ele>
      </trkpt>
      <trkpt lat="43.52521" lon="3.48872">
        <ele>31</ele>
      </trkpt>
      <trkpt lat="43.52538" lon="3.48885">
        <ele>31</ele>
      </trkpt>
      <trkpt lat="43.52554" lon="3.48895">
        <ele>31</ele>
      </trkpt>
      <trkpt lat="43.52573" lon="3.48898">
        <ele>30</ele>
      </trkpt>
      <trkpt lat="43.52593" lon="3.48906">
        <ele>28</ele>
      </trkpt>
      <trkpt lat="43.5261" lon="3.48916">
        <ele>28</ele>
      </trkpt>
      <trkpt lat="43.52622" lon="3.48922">
        <ele>30</ele>
      </trkpt>
      <trkpt lat="43.52644" lon="3.48867">
        <ele>26</ele>
      </trkpt>
      <trkpt lat="43.5275" lon="3.48933">
        <ele>27</ele>
      </trkpt>
      <trkpt lat="43.52772" lon="3.48908">
        <ele>26</ele>
      </trkpt>
      <trkpt lat="43.52791" lon="3.48876">
        <ele>25</ele>
      </trkpt>
      <trkpt lat="43.52804" lon="3.48855">
        <ele>25</ele>
      </trkpt>
      <trkpt lat="43.5282" lon="3.48837">
        <ele>25</ele>
      </trkpt>
      <trkpt lat="43.52837" lon="3.48827">
        <ele>24</ele>
      </trkpt>
      <trkpt lat="43.5285" lon="3.48812">
        <ele>24</ele>
      </trkpt>
      <trkpt lat="43.52867" lon="3.48802">
        <ele>24</ele>
      </trkpt>
      <trkpt lat="43.5288" lon="3.4885">
        <ele>24</ele>
      </trkpt>
      <trkpt lat="43.52897" lon="3.48896">
        <ele>24</ele>
      </trkpt>
      <trkpt lat="43.52912" lon="3.48929">
        <ele>25</ele>
      </trkpt>
      <trkpt lat="43.52923" lon="3.48955">
        <ele>26</ele>
      </trkpt>
      <trkpt lat="43.52933" lon="3.48974">
        <ele>26</ele>
      </trkpt>
      <trkpt lat="43.52946" lon="3.48999">
        <ele>27</ele>
      </trkpt>
      <trkpt lat="43.52961" lon="3.49027">
        <ele>29</ele>
      </trkpt>
      <trkpt lat="43.52971" lon="3.49044">
        <ele>29</ele>
      </trkpt>
      <trkpt lat="43.52984" lon="3.49062">
        <ele>29</ele>
      </trkpt>
      <trkpt lat="43.52996" lon="3.49073">
        <ele>29</ele>
      </trkpt>
      <trkpt lat="43.53008" lon="3.49085">
        <ele>29</ele>
      </trkpt>
      <trkpt lat="43.5302" lon="3.4909">
        <ele>28</ele>
      </trkpt>
      <trkpt lat="43.53031" lon="3.49096">
        <ele>28</ele>
      </trkpt>
      <trkpt lat="43.5304" lon="3.49099">
        <ele>28</ele>
      </trkpt>
      <trkpt lat="43.53056" lon="3.49098">
        <ele>27</ele>
      </trkpt>
      <trkpt lat="43.53061" lon="3.49108">
        <ele>27</ele>
      </trkpt>
      <trkpt lat="43.53066" lon="3.49126">
        <ele>27</ele>
      </trkpt>
      <trkpt lat="43.53122" lon="3.49164">
        <ele>27</ele>
      </trkpt>
      <trkpt lat="43.53164" lon="3.49196">
        <ele>28</ele>
      </trkpt>
      <trkpt lat="43.53203" lon="3.49224">
        <ele>28</ele>
      </trkpt>
      <trkpt lat="43.53236" lon="3.49256">
        <ele>29</ele>
      </trkpt>
      <trkpt lat="43.53259" lon="3.49282">
        <ele>28</ele>
      </trkpt>
      <trkpt lat="43.53276" lon="3.49308">
        <ele>29</ele>
      </trkpt>
      <trkpt lat="43.53289" lon="3.49342">
        <ele>30</ele>
      </trkpt>
      <trkpt lat="43.53303" lon="3.49384">
        <ele>31</ele>
      </trkpt>
      <trkpt lat="43.53315" lon="3.49421">
        <ele>31</ele>
      </trkpt>
      <trkpt lat="43.53324" lon="3.49454">
        <ele>31</ele>
      </trkpt>
      <trkpt lat="43.53333" lon="3.49488">
        <ele>31</ele>
      </trkpt>
      <trkpt lat="43.53348" lon="3.49541">
        <ele>30</ele>
      </trkpt>
      <trkpt lat="43.53356" lon="3.49565">
        <ele>30</ele>
      </trkpt>
      <trkpt lat="43.53373" lon="3.49576">
        <ele>29</ele>
      </trkpt>
      <trkpt lat="43.53392" lon="3.4958">
        <ele>29</ele>
      </trkpt>
      <trkpt lat="43.53408" lon="3.49588">
        <ele>29</ele>
      </trkpt>
      <trkpt lat="43.53424" lon="3.49609">
        <ele>29</ele>
      </trkpt>
      <trkpt lat="43.5345" lon="3.49646">
        <ele>30</ele>
      </trkpt>
      <trkpt lat="43.53482" lon="3.49693">
        <ele>32</ele>
      </trkpt>
      <trkpt lat="43.53518" lon="3.49749">
        <ele>33</ele>
      </trkpt>
      <trkpt lat="43.5353" lon="3.49766">
        <ele>35</ele>
      </trkpt>
      <trkpt lat="43.53544" lon="3.49786">
        <ele>36</ele>
      </trkpt>
      <trkpt lat="43.53553" lon="3.49792">
        <ele>36</ele>
      </trkpt>
      <trkpt lat="43.53562" lon="3.49813">
        <ele>37</ele>
      </trkpt>
      <trkpt lat="43.53566" lon="3.49821">
        <ele>37</ele>
      </trkpt>
      <trkpt lat="43.53571" lon="3.49837">
        <ele>39</ele>
      </trkpt>
      <trkpt lat="43.5357" lon="3.49852">
        <ele>39</ele>
      </trkpt>
      <trkpt lat="43.53563" lon="3.49861">
        <ele>39</ele>
      </trkpt>
      <trkpt lat="43.53549" lon="3.49877">
        <ele>39.1</ele>
      </trkpt>
      <trkpt lat="43.53568" lon="3.49856">
        <ele>39</ele>
      </trkpt>
      <trkpt lat="43.53581" lon="3.4985">
        <ele>39</ele>
      </trkpt>
      <trkpt lat="43.53593" lon="3.49875">
        <ele>41</ele>
      </trkpt>
      <trkpt lat="43.5361" lon="3.49915">
        <ele>41</ele>
      </trkpt>
      <trkpt lat="43.53638" lon="3.49973">
        <ele>44</ele>
      </trkpt>
      <trkpt lat="43.53658" lon="3.50014">
        <ele>47</ele>
      </trkpt>
      <trkpt lat="43.53662" lon="3.50029">
        <ele>47</ele>
      </trkpt>
      <trkpt lat="43.53623" lon="3.50064">
        <ele>46</ele>
      </trkpt>
      <trkpt lat="43.53597" lon="3.50089">
        <ele>48</ele>
      </trkpt>
      <trkpt lat="43.53578" lon="3.50118">
        <ele>46</ele>
      </trkpt>
      <trkpt lat="43.53557" lon="3.50158">
        <ele>47</ele>
      </trkpt>
      <trkpt lat="43.53539" lon="3.50188">
        <ele>50</ele>
      </trkpt>
      <trkpt lat="43.53515" lon="3.50214">
        <ele>50</ele>
      </trkpt>
      <trkpt lat="43.53487" lon="3.50245">
        <ele>47</ele>
      </trkpt>
      <trkpt lat="43.53463" lon="3.5026">
        <ele>48</ele>
      </trkpt>
      <trkpt lat="43.5344" lon="3.50278">
        <ele>48</ele>
      </trkpt>
      <trkpt lat="43.5343" lon="3.50282">
        <ele>48</ele>
      </trkpt>
      <trkpt lat="43.53424" lon="3.50284">
        <ele>47.9</ele>
      </trkpt>
      <trkpt lat="43.53406" lon="3.5024">
        <ele>44</ele>
      </trkpt>
      <trkpt lat="43.53398" lon="3.50218">
        <ele>43</ele>
      </trkpt>
      <trkpt lat="43.53394" lon="3.50207">
        <ele>43</ele>
      </trkpt>
      <trkpt lat="43.53389" lon="3.50201">
        <ele>43</ele>
      </trkpt>
      <trkpt lat="43.5338" lon="3.50199">
        <ele>43</ele>
        <time>2019-03-25T08:46:29Z</time>
      </trkpt>
      <trkpt lat="43.53364" lon="3.50203">
        <ele>43</ele>
        <time>2019-03-25T08:46:30Z</time>
      </trkpt>
      <trkpt lat="43.53367" lon="3.50201">
        <ele>42.9</ele>
        <time>2019-03-25T08:46:31Z</time>
      </trkpt>
    </trkseg>
  </trk>
</gpx>